<?xml version='1.0' encoding='UTF-8'?>
<gpx version="1.1" creator="https://www.komoot.de" xmlns="http://www.topografix.com/GPX/1/1" xmlns:xsi="http://www.w3.org/2001/XMLSchema-instance" xsi:schemaLocation="http://www.topografix.com/GPX/1/1 http://www.topografix.com/GPX/1/1/gpx.xsd">
  <metadata>
    <name>49_600SchupfFrickAmpf</name>
    <author>
      <link href="https://www.komoot.de">
        <text>komoot</text>
        <type>text/html</type>
      </link>
    </author>
  </metadata>
  <trk>
    <name>49_600SchupfFrickAmpf</name>
    <trkseg>
      <trkpt lat="47.541159" lon="7.870999">
        <ele>342.955720</ele>
        <time>2021-11-09T20:19:04.993Z</time>
      </trkpt>
      <trkpt lat="47.540933" lon="7.871187">
        <ele>342.955720</ele>
        <time>2021-11-09T20:19:10.835Z</time>
      </trkpt>
      <trkpt lat="47.540894" lon="7.871220">
        <ele>342.955720</ele>
        <time>2021-11-09T20:19:11.963Z</time>
      </trkpt>
      <trkpt lat="47.540693" lon="7.871390">
        <ele>342.955720</ele>
        <time>2021-11-09T20:19:17.361Z</time>
      </trkpt>
      <trkpt lat="47.540463" lon="7.871584">
        <ele>342.955720</ele>
        <time>2021-11-09T20:19:23.537Z</time>
      </trkpt>
      <trkpt lat="47.540265" lon="7.871808">
        <ele>343.217772</ele>
        <time>2021-11-09T20:19:29.015Z</time>
      </trkpt>
      <trkpt lat="47.540216" lon="7.871851">
        <ele>343.317233</ele>
        <time>2021-11-09T20:19:30.475Z</time>
      </trkpt>
      <trkpt lat="47.540034" lon="7.871970">
        <ele>343.664661</ele>
        <time>2021-11-09T20:19:35.050Z</time>
      </trkpt>
      <trkpt lat="47.539930" lon="7.872041">
        <ele>343.864646</ele>
        <time>2021-11-09T20:19:37.615Z</time>
      </trkpt>
      <trkpt lat="47.539841" lon="7.872151">
        <ele>344.067071</ele>
        <time>2021-11-09T20:19:40.643Z</time>
      </trkpt>
      <trkpt lat="47.539678" lon="7.872430">
        <ele>344.502070</ele>
        <time>2021-11-09T20:19:46.167Z</time>
      </trkpt>
      <trkpt lat="47.539222" lon="7.873416">
        <ele>345.911136</ele>
        <time>2021-11-09T20:20:03.709Z</time>
      </trkpt>
      <trkpt lat="47.538278" lon="7.874319">
        <ele>347.120808</ele>
        <time>2021-11-09T20:20:23.362Z</time>
      </trkpt>
      <trkpt lat="47.537716" lon="7.874966">
        <ele>347.837189</ele>
        <time>2021-11-09T20:20:37.337Z</time>
      </trkpt>
      <trkpt lat="47.537261" lon="7.875237">
        <ele>348.828638</ele>
        <time>2021-11-09T20:20:46.854Z</time>
      </trkpt>
      <trkpt lat="47.537182" lon="7.875293">
        <ele>349.020374</ele>
        <time>2021-11-09T20:20:48.843Z</time>
      </trkpt>
      <trkpt lat="47.536921" lon="7.875537">
        <ele>349.696062</ele>
        <time>2021-11-09T20:20:54.810Z</time>
      </trkpt>
      <trkpt lat="47.536757" lon="7.875759">
        <ele>350.182448</ele>
        <time>2021-11-09T20:20:59.411Z</time>
      </trkpt>
      <trkpt lat="47.536632" lon="7.875912">
        <ele>350.537450</ele>
        <time>2021-11-09T20:21:02.579Z</time>
      </trkpt>
      <trkpt lat="47.536444" lon="7.876177">
        <ele>351.105613</ele>
        <time>2021-11-09T20:21:09.541Z</time>
      </trkpt>
      <trkpt lat="47.535851" lon="7.877319">
        <ele>355.030107</ele>
        <time>2021-11-09T20:21:40.855Z</time>
      </trkpt>
      <trkpt lat="47.535770" lon="7.877432">
        <ele>355.588250</ele>
        <time>2021-11-09T20:21:45.035Z</time>
      </trkpt>
      <trkpt lat="47.535635" lon="7.877484">
        <ele>356.287946</ele>
        <time>2021-11-09T20:21:50.902Z</time>
      </trkpt>
      <trkpt lat="47.535551" lon="7.877487">
        <ele>356.709420</ele>
        <time>2021-11-09T20:21:52.811Z</time>
      </trkpt>
      <trkpt lat="47.535322" lon="7.877590">
        <ele>357.909900</ele>
        <time>2021-11-09T20:22:02.862Z</time>
      </trkpt>
      <trkpt lat="47.535088" lon="7.877742">
        <ele>359.191579</ele>
        <time>2021-11-09T20:22:10.694Z</time>
      </trkpt>
      <trkpt lat="47.534855" lon="7.878090">
        <ele>360.851368</ele>
        <time>2021-11-09T20:22:22.677Z</time>
      </trkpt>
      <trkpt lat="47.534778" lon="7.878270">
        <ele>361.545945</ele>
        <time>2021-11-09T20:22:29.984Z</time>
      </trkpt>
      <trkpt lat="47.534825" lon="7.878414">
        <ele>362.066841</ele>
        <time>2021-11-09T20:22:32.611Z</time>
      </trkpt>
      <trkpt lat="47.534946" lon="7.878790">
        <ele>363.423362</ele>
        <time>2021-11-09T20:22:44.659Z</time>
      </trkpt>
      <trkpt lat="47.534908" lon="7.878975">
        <ele>364.053123</ele>
        <time>2021-11-09T20:22:48.717Z</time>
      </trkpt>
      <trkpt lat="47.534616" lon="7.879490">
        <ele>366.243340</ele>
        <time>2021-11-09T20:23:05.663Z</time>
      </trkpt>
      <trkpt lat="47.533892" lon="7.880353">
        <ele>370.036661</ele>
        <time>2021-11-09T20:23:33.403Z</time>
      </trkpt>
      <trkpt lat="47.533606" lon="7.880961">
        <ele>371.043253</ele>
        <time>2021-11-09T20:23:45.711Z</time>
      </trkpt>
      <trkpt lat="47.533374" lon="7.881639">
        <ele>372.075780</ele>
        <time>2021-11-09T20:23:56.757Z</time>
      </trkpt>
      <trkpt lat="47.533014" lon="7.882949">
        <ele>373.032229</ele>
        <time>2021-11-09T20:24:14.672Z</time>
      </trkpt>
      <trkpt lat="47.532859" lon="7.883508">
        <ele>372.904593</ele>
        <time>2021-11-09T20:24:20.550Z</time>
      </trkpt>
      <trkpt lat="47.532713" lon="7.884122">
        <ele>372.767103</ele>
        <time>2021-11-09T20:24:26.247Z</time>
      </trkpt>
      <trkpt lat="47.532699" lon="7.884224">
        <ele>372.745118</ele>
        <time>2021-11-09T20:24:27.201Z</time>
      </trkpt>
      <trkpt lat="47.532670" lon="7.884773">
        <ele>372.628809</ele>
        <time>2021-11-09T20:24:31.695Z</time>
      </trkpt>
      <trkpt lat="47.532658" lon="7.884989">
        <ele>372.514910</ele>
        <time>2021-11-09T20:24:33.307Z</time>
      </trkpt>
      <trkpt lat="47.532650" lon="7.885569">
        <ele>371.882161</ele>
        <time>2021-11-09T20:24:37.809Z</time>
      </trkpt>
      <trkpt lat="47.532505" lon="7.887120">
        <ele>370.174313</ele>
        <time>2021-11-09T20:24:49.760Z</time>
      </trkpt>
      <trkpt lat="47.532288" lon="7.887728">
        <ele>369.443624</ele>
        <time>2021-11-09T20:24:54.937Z</time>
      </trkpt>
      <trkpt lat="47.532011" lon="7.888896">
        <ele>368.190663</ele>
        <time>2021-11-09T20:25:04.167Z</time>
      </trkpt>
      <trkpt lat="47.531843" lon="7.889349">
        <ele>367.667558</ele>
        <time>2021-11-09T20:25:08.204Z</time>
      </trkpt>
      <trkpt lat="47.531560" lon="7.889776">
        <ele>367.061960</ele>
        <time>2021-11-09T20:25:13.144Z</time>
      </trkpt>
      <trkpt lat="47.531265" lon="7.889937">
        <ele>367.046773</ele>
        <time>2021-11-09T20:25:17.112Z</time>
      </trkpt>
      <trkpt lat="47.531076" lon="7.890029">
        <ele>367.082903</ele>
        <time>2021-11-09T20:25:19.953Z</time>
      </trkpt>
      <trkpt lat="47.530606" lon="7.890373">
        <ele>367.178114</ele>
        <time>2021-11-09T20:25:27.802Z</time>
      </trkpt>
      <trkpt lat="47.530322" lon="7.890690">
        <ele>367.242698</ele>
        <time>2021-11-09T20:25:33.795Z</time>
      </trkpt>
      <trkpt lat="47.529972" lon="7.891210">
        <ele>367.373991</ele>
        <time>2021-11-09T20:25:42.957Z</time>
      </trkpt>
      <trkpt lat="47.529714" lon="7.891609">
        <ele>367.766947</ele>
        <time>2021-11-09T20:25:50.291Z</time>
      </trkpt>
      <trkpt lat="47.529695" lon="7.891638">
        <ele>367.795689</ele>
        <time>2021-11-09T20:25:51.277Z</time>
      </trkpt>
      <trkpt lat="47.529235" lon="7.892158">
        <ele>368.405303</ele>
        <time>2021-11-09T20:26:02.211Z</time>
      </trkpt>
      <trkpt lat="47.528331" lon="7.892682">
        <ele>369.540491</ele>
        <time>2021-11-09T20:26:20.913Z</time>
      </trkpt>
      <trkpt lat="47.528003" lon="7.892732">
        <ele>370.074830</ele>
        <time>2021-11-09T20:26:26.619Z</time>
      </trkpt>
      <trkpt lat="47.527498" lon="7.892650">
        <ele>370.898096</ele>
        <time>2021-11-09T20:26:36.092Z</time>
      </trkpt>
      <trkpt lat="47.527011" lon="7.893061">
        <ele>371.806437</ele>
        <time>2021-11-09T20:26:49.285Z</time>
      </trkpt>
      <trkpt lat="47.526709" lon="7.893617">
        <ele>372.916148</ele>
        <time>2021-11-09T20:27:01.817Z</time>
      </trkpt>
      <trkpt lat="47.526504" lon="7.894030">
        <ele>373.883733</ele>
        <time>2021-11-09T20:27:11.998Z</time>
      </trkpt>
      <trkpt lat="47.526451" lon="7.893983">
        <ele>374.056429</ele>
        <time>2021-11-09T20:27:13.387Z</time>
      </trkpt>
      <trkpt lat="47.526401" lon="7.893964">
        <ele>374.200734</ele>
        <time>2021-11-09T20:27:14.204Z</time>
      </trkpt>
      <trkpt lat="47.526335" lon="7.893960">
        <ele>374.385394</ele>
        <time>2021-11-09T20:27:16.278Z</time>
      </trkpt>
      <trkpt lat="47.526257" lon="7.894278">
        <ele>375.024057</ele>
        <time>2021-11-09T20:27:22.490Z</time>
      </trkpt>
      <trkpt lat="47.525725" lon="7.895110">
        <ele>377.173730</ele>
        <time>2021-11-09T20:27:41.571Z</time>
      </trkpt>
      <trkpt lat="47.525603" lon="7.895265">
        <ele>377.385896</ele>
        <time>2021-11-09T20:27:47.188Z</time>
      </trkpt>
      <trkpt lat="47.525631" lon="7.895442">
        <ele>377.547922</ele>
        <time>2021-11-09T20:27:50.038Z</time>
      </trkpt>
      <trkpt lat="47.525631" lon="7.895583">
        <ele>377.673591</ele>
        <time>2021-11-09T20:27:51.230Z</time>
      </trkpt>
      <trkpt lat="47.525622" lon="7.895944">
        <ele>377.995560</ele>
        <time>2021-11-09T20:27:58.665Z</time>
      </trkpt>
      <trkpt lat="47.525590" lon="7.896117">
        <ele>378.155430</ele>
        <time>2021-11-09T20:28:00.218Z</time>
      </trkpt>
      <trkpt lat="47.525518" lon="7.896336">
        <ele>378.372524</ele>
        <time>2021-11-09T20:28:05.025Z</time>
      </trkpt>
      <trkpt lat="47.524834" lon="7.897636">
        <ele>379.533393</ele>
        <time>2021-11-09T20:28:21.948Z</time>
      </trkpt>
      <trkpt lat="47.524617" lon="7.898216">
        <ele>379.528668</ele>
        <time>2021-11-09T20:28:28.122Z</time>
      </trkpt>
      <trkpt lat="47.524360" lon="7.898951">
        <ele>379.522770</ele>
        <time>2021-11-09T20:28:35.662Z</time>
      </trkpt>
      <trkpt lat="47.524309" lon="7.899115">
        <ele>379.521483</ele>
        <time>2021-11-09T20:28:37.576Z</time>
      </trkpt>
      <trkpt lat="47.523896" lon="7.900001">
        <ele>380.089063</ele>
        <time>2021-11-09T20:28:49.499Z</time>
      </trkpt>
      <trkpt lat="47.523861" lon="7.900049">
        <ele>380.183693</ele>
        <time>2021-11-09T20:28:50.478Z</time>
      </trkpt>
      <trkpt lat="47.523890" lon="7.900131">
        <ele>380.307690</ele>
        <time>2021-11-09T20:28:51.433Z</time>
      </trkpt>
      <trkpt lat="47.523945" lon="7.900256">
        <ele>380.507545</ele>
        <time>2021-11-09T20:28:53.024Z</time>
      </trkpt>
      <trkpt lat="47.523989" lon="7.900340">
        <ele>380.649952</ele>
        <time>2021-11-09T20:28:54.074Z</time>
      </trkpt>
      <trkpt lat="47.523957" lon="7.900371">
        <ele>380.725807</ele>
        <time>2021-11-09T20:28:54.779Z</time>
      </trkpt>
      <trkpt lat="47.523878" lon="7.900445">
        <ele>380.911241</ele>
        <time>2021-11-09T20:28:56.896Z</time>
      </trkpt>
      <trkpt lat="47.523739" lon="7.900557">
        <ele>381.225151</ele>
        <time>2021-11-09T20:28:59.827Z</time>
      </trkpt>
      <trkpt lat="47.523648" lon="7.900606">
        <ele>381.417232</ele>
        <time>2021-11-09T20:29:02.006Z</time>
      </trkpt>
      <trkpt lat="47.523620" lon="7.900698">
        <ele>381.552412</ele>
        <time>2021-11-09T20:29:03.970Z</time>
      </trkpt>
      <trkpt lat="47.523567" lon="7.900820">
        <ele>381.746737</ele>
        <time>2021-11-09T20:29:06.067Z</time>
      </trkpt>
      <trkpt lat="47.523433" lon="7.901043">
        <ele>382.146607</ele>
        <time>2021-11-09T20:29:11.311Z</time>
      </trkpt>
      <trkpt lat="47.523340" lon="7.901197">
        <ele>382.423361</ele>
        <time>2021-11-09T20:29:15.353Z</time>
      </trkpt>
      <trkpt lat="47.523036" lon="7.901580">
        <ele>383.356211</ele>
        <time>2021-11-09T20:29:27.049Z</time>
      </trkpt>
      <trkpt lat="47.522688" lon="7.901843">
        <ele>384.970507</ele>
        <time>2021-11-09T20:29:39.367Z</time>
      </trkpt>
      <trkpt lat="47.522554" lon="7.901999">
        <ele>385.674782</ele>
        <time>2021-11-09T20:29:45.688Z</time>
      </trkpt>
      <trkpt lat="47.522260" lon="7.902356">
        <ele>387.245719</ele>
        <time>2021-11-09T20:29:58.061Z</time>
      </trkpt>
      <trkpt lat="47.522132" lon="7.902476">
        <ele>387.871669</ele>
        <time>2021-11-09T20:30:02.619Z</time>
      </trkpt>
      <trkpt lat="47.522065" lon="7.902526">
        <ele>388.181667</ele>
        <time>2021-11-09T20:30:04.813Z</time>
      </trkpt>
      <trkpt lat="47.522038" lon="7.902562">
        <ele>388.331784</ele>
        <time>2021-11-09T20:30:06.318Z</time>
      </trkpt>
      <trkpt lat="47.522013" lon="7.902637">
        <ele>388.565157</ele>
        <time>2021-11-09T20:30:08.451Z</time>
      </trkpt>
      <trkpt lat="47.521792" lon="7.903347">
        <ele>390.669649</ele>
        <time>2021-11-09T20:30:24.519Z</time>
      </trkpt>
      <trkpt lat="47.521297" lon="7.904312">
        <ele>392.920791</ele>
        <time>2021-11-09T20:30:48.521Z</time>
      </trkpt>
      <trkpt lat="47.520989" lon="7.905130">
        <ele>394.660601</ele>
        <time>2021-11-09T20:31:03.936Z</time>
      </trkpt>
      <trkpt lat="47.520678" lon="7.906050">
        <ele>395.640525</ele>
        <time>2021-11-09T20:31:17.406Z</time>
      </trkpt>
      <trkpt lat="47.520566" lon="7.906668">
        <ele>395.829746</ele>
        <time>2021-11-09T20:31:24.426Z</time>
      </trkpt>
      <trkpt lat="47.520528" lon="7.906930">
        <ele>395.908992</ele>
        <time>2021-11-09T20:31:27.686Z</time>
      </trkpt>
      <trkpt lat="47.520515" lon="7.907103">
        <ele>395.960467</ele>
        <time>2021-11-09T20:31:29.484Z</time>
      </trkpt>
      <trkpt lat="47.520506" lon="7.907236">
        <ele>395.999995</ele>
        <time>2021-11-09T20:31:30.560Z</time>
      </trkpt>
      <trkpt lat="47.520551" lon="7.907422">
        <ele>396.058422</ele>
        <time>2021-11-09T20:31:32.970Z</time>
      </trkpt>
      <trkpt lat="47.520733" lon="7.907655">
        <ele>396.163774</ele>
        <time>2021-11-09T20:31:36.157Z</time>
      </trkpt>
      <trkpt lat="47.520738" lon="7.907839">
        <ele>396.218230</ele>
        <time>2021-11-09T20:31:38.299Z</time>
      </trkpt>
      <trkpt lat="47.520493" lon="7.908683">
        <ele>396.403235</ele>
        <time>2021-11-09T20:31:46.479Z</time>
      </trkpt>
      <trkpt lat="47.519997" lon="7.910833">
        <ele>397.041774</ele>
        <time>2021-11-09T20:32:12.425Z</time>
      </trkpt>
      <trkpt lat="47.519891" lon="7.911129">
        <ele>397.275854</ele>
        <time>2021-11-09T20:32:17.015Z</time>
      </trkpt>
      <trkpt lat="47.519720" lon="7.911522">
        <ele>397.602484</ele>
        <time>2021-11-09T20:32:23.100Z</time>
      </trkpt>
      <trkpt lat="47.519421" lon="7.912098">
        <ele>398.110062</ele>
        <time>2021-11-09T20:32:32.666Z</time>
      </trkpt>
      <trkpt lat="47.517688" lon="7.914418">
        <ele>400.580649</ele>
        <time>2021-11-09T20:33:17.244Z</time>
      </trkpt>
      <trkpt lat="47.517281" lon="7.915238">
        <ele>401.224596</ele>
        <time>2021-11-09T20:33:30.258Z</time>
      </trkpt>
      <trkpt lat="47.517140" lon="7.915259">
        <ele>401.357374</ele>
        <time>2021-11-09T20:33:32.759Z</time>
      </trkpt>
      <trkpt lat="47.516806" lon="7.914896">
        <ele>401.745574</ele>
        <time>2021-11-09T20:33:40.334Z</time>
      </trkpt>
      <trkpt lat="47.516748" lon="7.914873">
        <ele>401.801833</ele>
        <time>2021-11-09T20:33:41.505Z</time>
      </trkpt>
      <trkpt lat="47.516662" lon="7.914835">
        <ele>401.885923</ele>
        <time>2021-11-09T20:33:43.296Z</time>
      </trkpt>
      <trkpt lat="47.516626" lon="7.914830">
        <ele>401.919801</ele>
        <time>2021-11-09T20:33:43.991Z</time>
      </trkpt>
      <trkpt lat="47.516590" lon="7.914840">
        <ele>401.954121</ele>
        <time>2021-11-09T20:33:44.587Z</time>
      </trkpt>
      <trkpt lat="47.516569" lon="7.914864">
        <ele>401.978976</ele>
        <time>2021-11-09T20:33:45.121Z</time>
      </trkpt>
      <trkpt lat="47.516544" lon="7.914936">
        <ele>402.030207</ele>
        <time>2021-11-09T20:33:45.968Z</time>
      </trkpt>
      <trkpt lat="47.516391" lon="7.915243">
        <ele>402.270346</ele>
        <time>2021-11-09T20:33:50.761Z</time>
      </trkpt>
      <trkpt lat="47.515014" lon="7.917030">
        <ele>403.992132</ele>
        <time>2021-11-09T20:34:24.537Z</time>
      </trkpt>
      <trkpt lat="47.514635" lon="7.917349">
        <ele>404.623120</ele>
        <time>2021-11-09T20:34:32.656Z</time>
      </trkpt>
      <trkpt lat="47.514561" lon="7.917409">
        <ele>404.745232</ele>
        <time>2021-11-09T20:34:34.548Z</time>
      </trkpt>
      <trkpt lat="47.514255" lon="7.917714">
        <ele>405.279130</ele>
        <time>2021-11-09T20:34:42.017Z</time>
      </trkpt>
      <trkpt lat="47.513378" lon="7.918393">
        <ele>406.782313</ele>
        <time>2021-11-09T20:35:03.743Z</time>
      </trkpt>
      <trkpt lat="47.513160" lon="7.918764">
        <ele>407.401499</ele>
        <time>2021-11-09T20:35:11.213Z</time>
      </trkpt>
      <trkpt lat="47.513058" lon="7.918896">
        <ele>407.654054</ele>
        <time>2021-11-09T20:35:14.400Z</time>
      </trkpt>
      <trkpt lat="47.512938" lon="7.919052">
        <ele>407.951763</ele>
        <time>2021-11-09T20:35:18.160Z</time>
      </trkpt>
      <trkpt lat="47.512664" lon="7.919306">
        <ele>408.554434</ele>
        <time>2021-11-09T20:35:25.493Z</time>
      </trkpt>
      <trkpt lat="47.512255" lon="7.919538">
        <ele>409.370960</ele>
        <time>2021-11-09T20:35:35.163Z</time>
      </trkpt>
      <trkpt lat="47.512085" lon="7.919732">
        <ele>409.771102</ele>
        <time>2021-11-09T20:35:39.815Z</time>
      </trkpt>
      <trkpt lat="47.511974" lon="7.919968">
        <ele>409.997910</ele>
        <time>2021-11-09T20:35:43.918Z</time>
      </trkpt>
      <trkpt lat="47.511964" lon="7.919989">
        <ele>410.016334</ele>
        <time>2021-11-09T20:35:44.352Z</time>
      </trkpt>
      <trkpt lat="47.511883" lon="7.920133">
        <ele>410.150710</ele>
        <time>2021-11-09T20:35:47.006Z</time>
      </trkpt>
      <trkpt lat="47.511632" lon="7.920105">
        <ele>410.417937</ele>
        <time>2021-11-09T20:35:53.656Z</time>
      </trkpt>
      <trkpt lat="47.511613" lon="7.920183">
        <ele>410.477395</ele>
        <time>2021-11-09T20:35:54.571Z</time>
      </trkpt>
      <trkpt lat="47.511186" lon="7.920984">
        <ele>411.209111</ele>
        <time>2021-11-09T20:36:07.248Z</time>
      </trkpt>
      <trkpt lat="47.511067" lon="7.921207">
        <ele>411.412903</ele>
        <time>2021-11-09T20:36:10.547Z</time>
      </trkpt>
      <trkpt lat="47.511052" lon="7.921232">
        <ele>411.436882</ele>
        <time>2021-11-09T20:36:10.986Z</time>
      </trkpt>
      <trkpt lat="47.510872" lon="7.921477">
        <ele>411.696463</ele>
        <time>2021-11-09T20:36:15.331Z</time>
      </trkpt>
      <trkpt lat="47.510639" lon="7.921796">
        <ele>412.062188</ele>
        <time>2021-11-09T20:36:20.844Z</time>
      </trkpt>
      <trkpt lat="47.509688" lon="7.922616">
        <ele>413.340925</ele>
        <time>2021-11-09T20:36:41.262Z</time>
      </trkpt>
      <trkpt lat="47.509615" lon="7.922742">
        <ele>413.471208</ele>
        <time>2021-11-09T20:36:44.351Z</time>
      </trkpt>
      <trkpt lat="47.509583" lon="7.922962">
        <ele>413.647831</ele>
        <time>2021-11-09T20:36:47.135Z</time>
      </trkpt>
      <trkpt lat="47.509550" lon="7.923245">
        <ele>413.922013</ele>
        <time>2021-11-09T20:36:51.902Z</time>
      </trkpt>
      <trkpt lat="47.509595" lon="7.923295">
        <ele>414.045479</ele>
        <time>2021-11-09T20:36:53.005Z</time>
      </trkpt>
      <trkpt lat="47.509668" lon="7.923400">
        <ele>414.268826</ele>
        <time>2021-11-09T20:36:54.912Z</time>
      </trkpt>
      <trkpt lat="47.509817" lon="7.923703">
        <ele>414.824358</ele>
        <time>2021-11-09T20:37:01.102Z</time>
      </trkpt>
      <trkpt lat="47.509869" lon="7.923971">
        <ele>415.237663</ele>
        <time>2021-11-09T20:37:04.979Z</time>
      </trkpt>
      <trkpt lat="47.509886" lon="7.924134">
        <ele>415.482131</ele>
        <time>2021-11-09T20:37:07.976Z</time>
      </trkpt>
      <trkpt lat="47.509886" lon="7.924134">
        <ele>415.482131</ele>
        <time>2021-11-09T20:37:08.065Z</time>
      </trkpt>
      <trkpt lat="47.509806" lon="7.924174">
        <ele>415.667425</ele>
        <time>2021-11-09T20:37:09.821Z</time>
      </trkpt>
      <trkpt lat="47.509676" lon="7.924247">
        <ele>415.972530</ele>
        <time>2021-11-09T20:37:12.702Z</time>
      </trkpt>
      <trkpt lat="47.509605" lon="7.924290">
        <ele>416.140865</ele>
        <time>2021-11-09T20:37:14.536Z</time>
      </trkpt>
      <trkpt lat="47.509572" lon="7.924311">
        <ele>416.219687</ele>
        <time>2021-11-09T20:37:15.682Z</time>
      </trkpt>
      <trkpt lat="47.509223" lon="7.924628">
        <ele>417.118188</ele>
        <time>2021-11-09T20:37:26.035Z</time>
      </trkpt>
      <trkpt lat="47.509032" lon="7.924863">
        <ele>417.663171</ele>
        <time>2021-11-09T20:37:31.846Z</time>
      </trkpt>
      <trkpt lat="47.509016" lon="7.924882">
        <ele>417.708181</ele>
        <time>2021-11-09T20:37:32.380Z</time>
      </trkpt>
      <trkpt lat="47.508667" lon="7.925295">
        <ele>418.748916</ele>
        <time>2021-11-09T20:37:43.772Z</time>
      </trkpt>
      <trkpt lat="47.508355" lon="7.925609">
        <ele>419.630846</ele>
        <time>2021-11-09T20:37:52.145Z</time>
      </trkpt>
      <trkpt lat="47.508106" lon="7.925799">
        <ele>420.285698</ele>
        <time>2021-11-09T20:37:58.459Z</time>
      </trkpt>
      <trkpt lat="47.508002" lon="7.925879">
        <ele>420.559678</ele>
        <time>2021-11-09T20:38:00.846Z</time>
      </trkpt>
      <trkpt lat="47.507856" lon="7.925990">
        <ele>420.943355</ele>
        <time>2021-11-09T20:38:04.703Z</time>
      </trkpt>
      <trkpt lat="47.506112" lon="7.927414">
        <ele>426.992661</ele>
        <time>2021-11-09T20:38:57.698Z</time>
      </trkpt>
      <trkpt lat="47.505881" lon="7.927601">
        <ele>427.842847</ele>
        <time>2021-11-09T20:39:06.394Z</time>
      </trkpt>
      <trkpt lat="47.505868" lon="7.927611">
        <ele>427.888897</ele>
        <time>2021-11-09T20:39:06.857Z</time>
      </trkpt>
      <trkpt lat="47.505814" lon="7.927657">
        <ele>428.084734</ele>
        <time>2021-11-09T20:39:09.414Z</time>
      </trkpt>
      <trkpt lat="47.505253" lon="7.928170">
        <ele>430.157451</ele>
        <time>2021-11-09T20:39:30.083Z</time>
      </trkpt>
      <trkpt lat="47.504799" lon="7.928777">
        <ele>432.080417</ele>
        <time>2021-11-09T20:39:45.483Z</time>
      </trkpt>
      <trkpt lat="47.504724" lon="7.928871">
        <ele>432.389315</ele>
        <time>2021-11-09T20:39:49.448Z</time>
      </trkpt>
      <trkpt lat="47.504650" lon="7.928941">
        <ele>432.665357</ele>
        <time>2021-11-09T20:39:51.981Z</time>
      </trkpt>
      <trkpt lat="47.504005" lon="7.929312">
        <ele>433.937823</ele>
        <time>2021-11-09T20:40:06.422Z</time>
      </trkpt>
      <trkpt lat="47.503815" lon="7.929426">
        <ele>434.166137</ele>
        <time>2021-11-09T20:40:09.382Z</time>
      </trkpt>
      <trkpt lat="47.503598" lon="7.929585">
        <ele>434.435784</ele>
        <time>2021-11-09T20:40:14.658Z</time>
      </trkpt>
      <trkpt lat="47.503528" lon="7.929650">
        <ele>434.527808</ele>
        <time>2021-11-09T20:40:15.730Z</time>
      </trkpt>
      <trkpt lat="47.503485" lon="7.929688">
        <ele>434.583580</ele>
        <time>2021-11-09T20:40:17.241Z</time>
      </trkpt>
      <trkpt lat="47.503014" lon="7.930220">
        <ele>435.243369</ele>
        <time>2021-11-09T20:40:27.153Z</time>
      </trkpt>
      <trkpt lat="47.502761" lon="7.930610">
        <ele>435.594738</ele>
        <time>2021-11-09T20:40:33.507Z</time>
      </trkpt>
      <trkpt lat="47.502613" lon="7.930856">
        <ele>435.775420</ele>
        <time>2021-11-09T20:40:37.305Z</time>
      </trkpt>
      <trkpt lat="47.502400" lon="7.931256">
        <ele>436.054786</ele>
        <time>2021-11-09T20:40:44.109Z</time>
      </trkpt>
      <trkpt lat="47.502023" lon="7.932158">
        <ele>436.636573</ele>
        <time>2021-11-09T20:40:57.095Z</time>
      </trkpt>
      <trkpt lat="47.501901" lon="7.932351">
        <ele>436.781552</ele>
        <time>2021-11-09T20:41:00.854Z</time>
      </trkpt>
      <trkpt lat="47.501794" lon="7.932466">
        <ele>436.888913</ele>
        <time>2021-11-09T20:41:02.733Z</time>
      </trkpt>
      <trkpt lat="47.501463" lon="7.932668">
        <ele>437.293839</ele>
        <time>2021-11-09T20:41:08.872Z</time>
      </trkpt>
      <trkpt lat="47.501075" lon="7.932885">
        <ele>437.771197</ele>
        <time>2021-11-09T20:41:16.698Z</time>
      </trkpt>
      <trkpt lat="47.500990" lon="7.932950">
        <ele>437.881306</ele>
        <time>2021-11-09T20:41:19.016Z</time>
      </trkpt>
      <trkpt lat="47.500843" lon="7.933102">
        <ele>438.087678</ele>
        <time>2021-11-09T20:41:22.023Z</time>
      </trkpt>
      <trkpt lat="47.500435" lon="7.933872">
        <ele>438.848549</ele>
        <time>2021-11-09T20:41:35.261Z</time>
      </trkpt>
      <trkpt lat="47.500386" lon="7.933937">
        <ele>438.924275</ele>
        <time>2021-11-09T20:41:36.478Z</time>
      </trkpt>
      <trkpt lat="47.500352" lon="7.933976">
        <ele>438.973780</ele>
        <time>2021-11-09T20:41:37.285Z</time>
      </trkpt>
      <trkpt lat="47.500275" lon="7.934029">
        <ele>439.205714</ele>
        <time>2021-11-09T20:41:39.534Z</time>
      </trkpt>
      <trkpt lat="47.500208" lon="7.934071">
        <ele>439.407149</ele>
        <time>2021-11-09T20:41:41.201Z</time>
      </trkpt>
      <trkpt lat="47.500193" lon="7.934023">
        <ele>439.506065</ele>
        <time>2021-11-09T20:41:41.844Z</time>
      </trkpt>
      <trkpt lat="47.500169" lon="7.933984">
        <ele>439.604734</ele>
        <time>2021-11-09T20:41:42.374Z</time>
      </trkpt>
      <trkpt lat="47.500138" lon="7.933956">
        <ele>439.705273</ele>
        <time>2021-11-09T20:41:43.175Z</time>
      </trkpt>
      <trkpt lat="47.500067" lon="7.933946">
        <ele>439.902722</ele>
        <time>2021-11-09T20:41:44.411Z</time>
      </trkpt>
      <trkpt lat="47.500034" lon="7.933965">
        <ele>440.000749</ele>
        <time>2021-11-09T20:41:45.377Z</time>
      </trkpt>
      <trkpt lat="47.500007" lon="7.933994">
        <ele>440.093104</ele>
        <time>2021-11-09T20:41:46.450Z</time>
      </trkpt>
      <trkpt lat="47.499971" lon="7.934127">
        <ele>440.361084</ele>
        <time>2021-11-09T20:41:48.858Z</time>
      </trkpt>
      <trkpt lat="47.499976" lon="7.934175">
        <ele>440.451921</ele>
        <time>2021-11-09T20:41:49.750Z</time>
      </trkpt>
      <trkpt lat="47.499991" lon="7.934221">
        <ele>440.547455</ele>
        <time>2021-11-09T20:41:50.264Z</time>
      </trkpt>
      <trkpt lat="47.500077" lon="7.934300">
        <ele>440.827667</ele>
        <time>2021-11-09T20:41:52.484Z</time>
      </trkpt>
      <trkpt lat="47.500111" lon="7.934299">
        <ele>440.921813</ele>
        <time>2021-11-09T20:41:53.121Z</time>
      </trkpt>
      <trkpt lat="47.500121" lon="7.934400">
        <ele>441.112736</ele>
        <time>2021-11-09T20:41:55.322Z</time>
      </trkpt>
      <trkpt lat="47.500647" lon="7.936766">
        <ele>446.706685</ele>
        <time>2021-11-09T20:42:43.404Z</time>
      </trkpt>
      <trkpt lat="47.500700" lon="7.936982">
        <ele>447.357876</ele>
        <time>2021-11-09T20:42:48.367Z</time>
      </trkpt>
      <trkpt lat="47.500786" lon="7.937295">
        <ele>448.315357</ele>
        <time>2021-11-09T20:42:55.436Z</time>
      </trkpt>
      <trkpt lat="47.500922" lon="7.937675">
        <ele>449.533909</ele>
        <time>2021-11-09T20:43:04.850Z</time>
      </trkpt>
      <trkpt lat="47.501302" lon="7.938421">
        <ele>452.359987</ele>
        <time>2021-11-09T20:43:26.724Z</time>
      </trkpt>
      <trkpt lat="47.503196" lon="7.941586">
        <ele>468.082293</ele>
        <time>2021-11-09T20:45:10.533Z</time>
      </trkpt>
      <trkpt lat="47.503525" lon="7.942511">
        <ele>472.267756</ele>
        <time>2021-11-09T20:45:39.417Z</time>
      </trkpt>
      <trkpt lat="47.503757" lon="7.943678">
        <ele>477.659250</ele>
        <time>2021-11-09T20:46:13.672Z</time>
      </trkpt>
      <trkpt lat="47.503877" lon="7.944221">
        <ele>480.191339</ele>
        <time>2021-11-09T20:46:29.737Z</time>
      </trkpt>
      <trkpt lat="47.504206" lon="7.945339">
        <ele>485.575173</ele>
        <time>2021-11-09T20:47:03.165Z</time>
      </trkpt>
      <trkpt lat="47.504339" lon="7.946127">
        <ele>489.143191</ele>
        <time>2021-11-09T20:47:24.766Z</time>
      </trkpt>
      <trkpt lat="47.504360" lon="7.947339">
        <ele>494.469134</ele>
        <time>2021-11-09T20:47:59.533Z</time>
      </trkpt>
      <trkpt lat="47.504516" lon="7.948210">
        <ele>498.305186</ele>
        <time>2021-11-09T20:48:23.915Z</time>
      </trkpt>
      <trkpt lat="47.504564" lon="7.948438">
        <ele>499.317617</ele>
        <time>2021-11-09T20:48:31.040Z</time>
      </trkpt>
      <trkpt lat="47.504637" lon="7.948756">
        <ele>500.741454</ele>
        <time>2021-11-09T20:48:39.671Z</time>
      </trkpt>
      <trkpt lat="47.504833" lon="7.949650">
        <ele>504.726053</ele>
        <time>2021-11-09T20:49:04.442Z</time>
      </trkpt>
      <trkpt lat="47.505078" lon="7.950674">
        <ele>508.935398</ele>
        <time>2021-11-09T20:49:33.918Z</time>
      </trkpt>
      <trkpt lat="47.505298" lon="7.951312">
        <ele>511.586409</ele>
        <time>2021-11-09T20:49:51.188Z</time>
      </trkpt>
      <trkpt lat="47.505561" lon="7.951903">
        <ele>514.205574</ele>
        <time>2021-11-09T20:50:07.568Z</time>
      </trkpt>
      <trkpt lat="47.505724" lon="7.952248">
        <ele>515.763675</ele>
        <time>2021-11-09T20:50:17.465Z</time>
      </trkpt>
      <trkpt lat="47.506242" lon="7.953373">
        <ele>520.229820</ele>
        <time>2021-11-09T20:50:51.928Z</time>
      </trkpt>
      <trkpt lat="47.506403" lon="7.953752">
        <ele>521.686379</ele>
        <time>2021-11-09T20:51:03.356Z</time>
      </trkpt>
      <trkpt lat="47.506539" lon="7.954325">
        <ele>523.662257</ele>
        <time>2021-11-09T20:51:17.228Z</time>
      </trkpt>
      <trkpt lat="47.506555" lon="7.954505">
        <ele>524.252903</ele>
        <time>2021-11-09T20:51:21.595Z</time>
      </trkpt>
      <trkpt lat="47.506559" lon="7.954699">
        <ele>524.683909</ele>
        <time>2021-11-09T20:51:25.477Z</time>
      </trkpt>
      <trkpt lat="47.506560" lon="7.954845">
        <ele>524.541866</ele>
        <time>2021-11-09T20:51:27.740Z</time>
      </trkpt>
      <trkpt lat="47.506539" lon="7.955130">
        <ele>524.262960</ele>
        <time>2021-11-09T20:51:33.479Z</time>
      </trkpt>
      <trkpt lat="47.506484" lon="7.955438">
        <ele>523.953030</ele>
        <time>2021-11-09T20:51:35.878Z</time>
      </trkpt>
      <trkpt lat="47.506190" lon="7.956344">
        <ele>522.975202</ele>
        <time>2021-11-09T20:51:43.584Z</time>
      </trkpt>
      <trkpt lat="47.506053" lon="7.957072">
        <ele>522.239994</ele>
        <time>2021-11-09T20:51:48.747Z</time>
      </trkpt>
      <trkpt lat="47.506050" lon="7.957299">
        <ele>521.533685</ele>
        <time>2021-11-09T20:51:50.191Z</time>
      </trkpt>
      <trkpt lat="47.506050" lon="7.957397">
        <ele>521.054505</ele>
        <time>2021-11-09T20:51:50.741Z</time>
      </trkpt>
      <trkpt lat="47.506128" lon="7.958087">
        <ele>517.633774</ele>
        <time>2021-11-09T20:51:55.017Z</time>
      </trkpt>
      <trkpt lat="47.506363" lon="7.959196">
        <ele>511.950697</ele>
        <time>2021-11-09T20:52:01.924Z</time>
      </trkpt>
      <trkpt lat="47.506641" lon="7.959810">
        <ele>508.362740</ele>
        <time>2021-11-09T20:52:06.310Z</time>
      </trkpt>
      <trkpt lat="47.506874" lon="7.960127">
        <ele>506.148763</ele>
        <time>2021-11-09T20:52:09.172Z</time>
      </trkpt>
      <trkpt lat="47.507319" lon="7.960495">
        <ele>502.582618</ele>
        <time>2021-11-09T20:52:13.800Z</time>
      </trkpt>
      <trkpt lat="47.509248" lon="7.961556">
        <ele>487.560336</ele>
        <time>2021-11-09T20:52:32.317Z</time>
      </trkpt>
      <trkpt lat="47.509385" lon="7.961632">
        <ele>486.460144</ele>
        <time>2021-11-09T20:52:33.597Z</time>
      </trkpt>
      <trkpt lat="47.509788" lon="7.961854">
        <ele>483.226590</ele>
        <time>2021-11-09T20:52:37.359Z</time>
      </trkpt>
      <trkpt lat="47.510127" lon="7.962072">
        <ele>480.132735</ele>
        <time>2021-11-09T20:52:40.604Z</time>
      </trkpt>
      <trkpt lat="47.510301" lon="7.962209">
        <ele>478.468937</ele>
        <time>2021-11-09T20:52:42.315Z</time>
      </trkpt>
      <trkpt lat="47.510406" lon="7.962296">
        <ele>477.453100</ele>
        <time>2021-11-09T20:52:43.386Z</time>
      </trkpt>
      <trkpt lat="47.510552" lon="7.962453">
        <ele>475.929680</ele>
        <time>2021-11-09T20:52:44.976Z</time>
      </trkpt>
      <trkpt lat="47.510679" lon="7.962576">
        <ele>474.648454</ele>
        <time>2021-11-09T20:52:46.277Z</time>
      </trkpt>
      <trkpt lat="47.510706" lon="7.962606">
        <ele>474.363455</ele>
        <time>2021-11-09T20:52:46.577Z</time>
      </trkpt>
      <trkpt lat="47.510909" lon="7.962826">
        <ele>472.239549</ele>
        <time>2021-11-09T20:52:48.752Z</time>
      </trkpt>
      <trkpt lat="47.511697" lon="7.963783">
        <ele>464.988010</ele>
        <time>2021-11-09T20:52:57.824Z</time>
      </trkpt>
      <trkpt lat="47.511807" lon="7.963896">
        <ele>464.222582</ele>
        <time>2021-11-09T20:52:59.019Z</time>
      </trkpt>
      <trkpt lat="47.511885" lon="7.963977">
        <ele>463.677897</ele>
        <time>2021-11-09T20:52:59.916Z</time>
      </trkpt>
      <trkpt lat="47.512076" lon="7.964120">
        <ele>462.454267</ele>
        <time>2021-11-09T20:53:01.849Z</time>
      </trkpt>
      <trkpt lat="47.512806" lon="7.964495">
        <ele>458.036774</ele>
        <time>2021-11-09T20:53:09.192Z</time>
      </trkpt>
      <trkpt lat="47.513069" lon="7.964710">
        <ele>457.539823</ele>
        <time>2021-11-09T20:53:12.175Z</time>
      </trkpt>
      <trkpt lat="47.513387" lon="7.965176">
        <ele>457.532591</ele>
        <time>2021-11-09T20:53:17.156Z</time>
      </trkpt>
      <trkpt lat="47.513439" lon="7.965284">
        <ele>457.531143</ele>
        <time>2021-11-09T20:53:18.122Z</time>
      </trkpt>
      <trkpt lat="47.513496" lon="7.965435">
        <ele>457.529255</ele>
        <time>2021-11-09T20:53:19.884Z</time>
      </trkpt>
      <trkpt lat="47.513552" lon="7.965694">
        <ele>457.526286</ele>
        <time>2021-11-09T20:53:23.246Z</time>
      </trkpt>
      <trkpt lat="47.513574" lon="7.965795">
        <ele>457.525128</ele>
        <time>2021-11-09T20:53:24.274Z</time>
      </trkpt>
      <trkpt lat="47.513607" lon="7.966067">
        <ele>457.522111</ele>
        <time>2021-11-09T20:53:28.360Z</time>
      </trkpt>
      <trkpt lat="47.513677" lon="7.966493">
        <ele>457.517325</ele>
        <time>2021-11-09T20:53:34.849Z</time>
      </trkpt>
      <trkpt lat="47.513719" lon="7.966609">
        <ele>457.515888</ele>
        <time>2021-11-09T20:53:38.102Z</time>
      </trkpt>
      <trkpt lat="47.513963" lon="7.966968">
        <ele>458.950259</ele>
        <time>2021-11-09T20:53:48.433Z</time>
      </trkpt>
      <trkpt lat="47.514175" lon="7.967361">
        <ele>460.980194</ele>
        <time>2021-11-09T20:53:59.277Z</time>
      </trkpt>
      <trkpt lat="47.514265" lon="7.967596">
        <ele>462.070506</ele>
        <time>2021-11-09T20:54:05.900Z</time>
      </trkpt>
      <trkpt lat="47.514516" lon="7.968208">
        <ele>464.960218</ele>
        <time>2021-11-09T20:54:24.246Z</time>
      </trkpt>
      <trkpt lat="47.514581" lon="7.968390">
        <ele>465.791125</ele>
        <time>2021-11-09T20:54:31.575Z</time>
      </trkpt>
      <trkpt lat="47.514762" lon="7.968835">
        <ele>467.887633</ele>
        <time>2021-11-09T20:54:48.253Z</time>
      </trkpt>
      <trkpt lat="47.515012" lon="7.969232">
        <ele>471.060573</ele>
        <time>2021-11-09T20:55:06.703Z</time>
      </trkpt>
      <trkpt lat="47.515227" lon="7.969425">
        <ele>473.375619</ele>
        <time>2021-11-09T20:55:19.463Z</time>
      </trkpt>
      <trkpt lat="47.515307" lon="7.969493">
        <ele>474.224977</ele>
        <time>2021-11-09T20:55:24.832Z</time>
      </trkpt>
      <trkpt lat="47.515780" lon="7.969896">
        <ele>479.249741</ele>
        <time>2021-11-09T20:55:54.076Z</time>
      </trkpt>
      <trkpt lat="47.516258" lon="7.970425">
        <ele>484.744514</ele>
        <time>2021-11-09T20:56:25.136Z</time>
      </trkpt>
      <trkpt lat="47.516475" lon="7.970786">
        <ele>486.107831</ele>
        <time>2021-11-09T20:56:42.828Z</time>
      </trkpt>
      <trkpt lat="47.516639" lon="7.971156">
        <ele>487.315857</ele>
        <time>2021-11-09T20:56:57.661Z</time>
      </trkpt>
      <trkpt lat="47.516849" lon="7.971986">
        <ele>489.735171</ele>
        <time>2021-11-09T20:57:19.018Z</time>
      </trkpt>
      <trkpt lat="47.517017" lon="7.972944">
        <ele>491.507973</ele>
        <time>2021-11-09T20:57:26.767Z</time>
      </trkpt>
      <trkpt lat="47.517070" lon="7.973149">
        <ele>490.490342</ele>
        <time>2021-11-09T20:57:28.191Z</time>
      </trkpt>
      <trkpt lat="47.517191" lon="7.973538">
        <ele>488.504870</ele>
        <time>2021-11-09T20:57:30.982Z</time>
      </trkpt>
      <trkpt lat="47.517208" lon="7.973572">
        <ele>488.308751</ele>
        <time>2021-11-09T20:57:31.225Z</time>
      </trkpt>
      <trkpt lat="47.517263" lon="7.973683">
        <ele>487.670519</ele>
        <time>2021-11-09T20:57:32.059Z</time>
      </trkpt>
      <trkpt lat="47.517422" lon="7.973976">
        <ele>485.928023</ele>
        <time>2021-11-09T20:57:34.387Z</time>
      </trkpt>
      <trkpt lat="47.517539" lon="7.974133">
        <ele>484.844154</ele>
        <time>2021-11-09T20:57:35.781Z</time>
      </trkpt>
      <trkpt lat="47.517601" lon="7.974216">
        <ele>484.270409</ele>
        <time>2021-11-09T20:57:36.508Z</time>
      </trkpt>
      <trkpt lat="47.517803" lon="7.974479">
        <ele>482.424002</ele>
        <time>2021-11-09T20:57:38.856Z</time>
      </trkpt>
      <trkpt lat="47.517897" lon="7.974601">
        <ele>481.565965</ele>
        <time>2021-11-09T20:57:39.920Z</time>
      </trkpt>
      <trkpt lat="47.518511" lon="7.975376">
        <ele>475.288310</ele>
        <time>2021-11-09T20:57:46.832Z</time>
      </trkpt>
      <trkpt lat="47.518771" lon="7.975833">
        <ele>471.967315</ele>
        <time>2021-11-09T20:57:50.345Z</time>
      </trkpt>
      <trkpt lat="47.518954" lon="7.976318">
        <ele>468.879669</ele>
        <time>2021-11-09T20:57:53.686Z</time>
      </trkpt>
      <trkpt lat="47.519021" lon="7.976610">
        <ele>467.165721</ele>
        <time>2021-11-09T20:57:55.603Z</time>
      </trkpt>
      <trkpt lat="47.519068" lon="7.976937">
        <ele>465.307661</ele>
        <time>2021-11-09T20:57:57.692Z</time>
      </trkpt>
      <trkpt lat="47.519130" lon="7.977741">
        <ele>462.885534</ele>
        <time>2021-11-09T20:58:02.702Z</time>
      </trkpt>
      <trkpt lat="47.519217" lon="7.979377">
        <ele>458.343412</ele>
        <time>2021-11-09T20:58:13.494Z</time>
      </trkpt>
      <trkpt lat="47.519262" lon="7.980038">
        <ele>458.028138</ele>
        <time>2021-11-09T20:58:18.709Z</time>
      </trkpt>
      <trkpt lat="47.518938" lon="7.980093">
        <ele>458.597668</ele>
        <time>2021-11-09T20:58:55.162Z</time>
      </trkpt>
      <trkpt lat="47.518298" lon="7.980206">
        <ele>459.723262</ele>
        <time>2021-11-09T21:00:11.972Z</time>
      </trkpt>
      <trkpt lat="47.517633" lon="7.980418">
        <ele>461.205174</ele>
        <time>2021-11-09T21:01:39.501Z</time>
      </trkpt>
      <trkpt lat="47.517255" lon="7.980642">
        <ele>462.976183</ele>
        <time>2021-11-09T21:02:34.413Z</time>
      </trkpt>
      <trkpt lat="47.516970" lon="7.981153">
        <ele>464.923062</ele>
        <time>2021-11-09T21:03:34.012Z</time>
      </trkpt>
      <trkpt lat="47.516666" lon="7.982302">
        <ele>468.543904</ele>
        <time>2021-11-09T21:05:18.759Z</time>
      </trkpt>
      <trkpt lat="47.516360" lon="7.983035">
        <ele>470.025799</ele>
        <time>2021-11-09T21:06:29.912Z</time>
      </trkpt>
      <trkpt lat="47.516251" lon="7.983296">
        <ele>470.553517</ele>
        <time>2021-11-09T21:06:54.339Z</time>
      </trkpt>
      <trkpt lat="47.516036" lon="7.983707">
        <ele>471.447528</ele>
        <time>2021-11-09T21:07:36.144Z</time>
      </trkpt>
      <trkpt lat="47.515459" lon="7.984619">
        <ele>472.943372</ele>
        <time>2021-11-09T21:09:21.311Z</time>
      </trkpt>
      <trkpt lat="47.515212" lon="7.985092">
        <ele>472.569554</ele>
        <time>2021-11-09T21:10:06.121Z</time>
      </trkpt>
      <trkpt lat="47.515029" lon="7.985591">
        <ele>472.214540</ele>
        <time>2021-11-09T21:10:48.038Z</time>
      </trkpt>
      <trkpt lat="47.514984" lon="7.985795">
        <ele>472.080362</ele>
        <time>2021-11-09T21:11:04.965Z</time>
      </trkpt>
      <trkpt lat="47.514955" lon="7.985985">
        <ele>471.958573</ele>
        <time>2021-11-09T21:11:18.539Z</time>
      </trkpt>
      <trkpt lat="47.514922" lon="7.986199">
        <ele>471.821331</ele>
        <time>2021-11-09T21:11:33.511Z</time>
      </trkpt>
      <trkpt lat="47.514895" lon="7.986454">
        <ele>471.659950</ele>
        <time>2021-11-09T21:11:52.032Z</time>
      </trkpt>
      <trkpt lat="47.515286" lon="7.986787">
        <ele>469.916262</ele>
        <time>2021-11-09T21:12:35.835Z</time>
      </trkpt>
      <trkpt lat="47.516043" lon="7.987468">
        <ele>463.920726</ele>
        <time>2021-11-09T21:13:58.247Z</time>
      </trkpt>
      <trkpt lat="47.516345" lon="7.987828">
        <ele>461.296423</ele>
        <time>2021-11-09T21:14:32.462Z</time>
      </trkpt>
      <trkpt lat="47.516750" lon="7.989123">
        <ele>455.008528</ele>
        <time>2021-11-09T21:16:01.998Z</time>
      </trkpt>
      <trkpt lat="47.516898" lon="7.989617">
        <ele>452.667443</ele>
        <time>2021-11-09T21:16:36.036Z</time>
      </trkpt>
      <trkpt lat="47.517356" lon="7.990419">
        <ele>448.117715</ele>
        <time>2021-11-09T21:17:42.635Z</time>
      </trkpt>
      <trkpt lat="47.517519" lon="7.990545">
        <ele>447.672702</ele>
        <time>2021-11-09T21:18:00.017Z</time>
      </trkpt>
      <trkpt lat="47.517593" lon="7.990690">
        <ele>447.605502</ele>
        <time>2021-11-09T21:18:12.733Z</time>
      </trkpt>
      <trkpt lat="47.517593" lon="7.990870">
        <ele>447.538947</ele>
        <time>2021-11-09T21:18:25.580Z</time>
      </trkpt>
      <trkpt lat="47.517593" lon="7.990870">
        <ele>447.538947</ele>
        <time>2021-11-09T21:18:26.143Z</time>
      </trkpt>
      <trkpt lat="47.517593" lon="7.990870">
        <ele>447.538947</ele>
        <time>2021-11-09T21:18:26.240Z</time>
      </trkpt>
      <trkpt lat="47.517464" lon="7.991086">
        <ele>447.432333</ele>
        <time>2021-11-09T21:18:45.456Z</time>
      </trkpt>
      <trkpt lat="47.517341" lon="7.991184">
        <ele>447.355862</ele>
        <time>2021-11-09T21:19:01.800Z</time>
      </trkpt>
      <trkpt lat="47.517258" lon="7.991214">
        <ele>447.309087</ele>
        <time>2021-11-09T21:19:09.765Z</time>
      </trkpt>
      <trkpt lat="47.517167" lon="7.991185">
        <ele>447.258125</ele>
        <time>2021-11-09T21:19:19.736Z</time>
      </trkpt>
      <trkpt lat="47.516589" lon="7.990525">
        <ele>446.858509</ele>
        <time>2021-11-09T21:20:44.277Z</time>
      </trkpt>
      <trkpt lat="47.516178" lon="7.990219">
        <ele>447.881641</ele>
        <time>2021-11-09T21:21:43.205Z</time>
      </trkpt>
      <trkpt lat="47.516017" lon="7.990191">
        <ele>448.547969</ele>
        <time>2021-11-09T21:22:04.452Z</time>
      </trkpt>
      <trkpt lat="47.515875" lon="7.990250">
        <ele>449.154195</ele>
        <time>2021-11-09T21:22:24.317Z</time>
      </trkpt>
      <trkpt lat="47.515515" lon="7.990682">
        <ele>451.058916</ele>
        <time>2021-11-09T21:23:26.615Z</time>
      </trkpt>
      <trkpt lat="47.515449" lon="7.990902">
        <ele>451.727208</ele>
        <time>2021-11-09T21:23:49.937Z</time>
      </trkpt>
      <trkpt lat="47.515400" lon="7.991097">
        <ele>452.304811</ele>
        <time>2021-11-09T21:24:07.057Z</time>
      </trkpt>
      <trkpt lat="47.515370" lon="7.991325">
        <ele>452.949673</ele>
        <time>2021-11-09T21:24:28.313Z</time>
      </trkpt>
      <trkpt lat="47.515415" lon="7.992607">
        <ele>452.286604</ele>
        <time>2021-11-09T21:26:09.570Z</time>
      </trkpt>
      <trkpt lat="47.515469" lon="7.993541">
        <ele>450.235455</ele>
        <time>2021-11-09T21:27:12.615Z</time>
      </trkpt>
      <trkpt lat="47.515448" lon="7.993885">
        <ele>449.479684</ele>
        <time>2021-11-09T21:27:34.275Z</time>
      </trkpt>
      <trkpt lat="47.515413" lon="7.994077">
        <ele>449.044538</ele>
        <time>2021-11-09T21:27:46.200Z</time>
      </trkpt>
      <trkpt lat="47.515316" lon="7.994599">
        <ele>447.096616</ele>
        <time>2021-11-09T21:28:19.580Z</time>
      </trkpt>
      <trkpt lat="47.515206" lon="7.995085">
        <ele>444.124754</ele>
        <time>2021-11-09T21:28:50.936Z</time>
      </trkpt>
      <trkpt lat="47.514973" lon="7.996922">
        <ele>433.287548</ele>
        <time>2021-11-09T21:30:43.624Z</time>
      </trkpt>
      <trkpt lat="47.514781" lon="7.998695">
        <ele>425.679805</ele>
        <time>2021-11-09T21:32:36.435Z</time>
      </trkpt>
      <trkpt lat="47.514738" lon="7.999392">
        <ele>422.758785</ele>
        <time>2021-11-09T21:33:22.369Z</time>
      </trkpt>
      <trkpt lat="47.514683" lon="8.000037">
        <ele>420.441572</ele>
        <time>2021-11-09T21:34:05.670Z</time>
      </trkpt>
      <trkpt lat="47.514720" lon="8.000490">
        <ele>418.975197</ele>
        <time>2021-11-09T21:34:10.187Z</time>
      </trkpt>
      <trkpt lat="47.514816" lon="8.000810">
        <ele>417.849959</ele>
        <time>2021-11-09T21:34:13.659Z</time>
      </trkpt>
      <trkpt lat="47.515153" lon="8.001723">
        <ele>414.506371</ele>
        <time>2021-11-09T21:34:23.590Z</time>
      </trkpt>
      <trkpt lat="47.515473" lon="8.002693">
        <ele>408.547194</ele>
        <time>2021-11-09T21:34:32.773Z</time>
      </trkpt>
      <trkpt lat="47.515838" lon="8.003776">
        <ele>400.199076</ele>
        <time>2021-11-09T21:34:42.606Z</time>
      </trkpt>
      <trkpt lat="47.515877" lon="8.004029">
        <ele>398.409200</ele>
        <time>2021-11-09T21:34:44.780Z</time>
      </trkpt>
      <trkpt lat="47.515875" lon="8.004180">
        <ele>397.367518</ele>
        <time>2021-11-09T21:34:45.973Z</time>
      </trkpt>
      <trkpt lat="47.515875" lon="8.004180">
        <ele>397.367518</ele>
        <time>2021-11-09T21:34:46.006Z</time>
      </trkpt>
      <trkpt lat="47.515824" lon="8.004390">
        <ele>395.828304</ele>
        <time>2021-11-09T21:34:47.838Z</time>
      </trkpt>
      <trkpt lat="47.515631" lon="8.004843">
        <ele>392.028151</ele>
        <time>2021-11-09T21:34:52.147Z</time>
      </trkpt>
      <trkpt lat="47.515267" lon="8.005405">
        <ele>386.447278</ele>
        <time>2021-11-09T21:34:58.445Z</time>
      </trkpt>
      <trkpt lat="47.515015" lon="8.005732">
        <ele>382.891353</ele>
        <time>2021-11-09T21:35:02.455Z</time>
      </trkpt>
      <trkpt lat="47.513977" lon="8.006824">
        <ele>371.225134</ele>
        <time>2021-11-09T21:35:18.308Z</time>
      </trkpt>
      <trkpt lat="47.513859" lon="8.007069">
        <ele>369.693059</ele>
        <time>2021-11-09T21:35:20.864Z</time>
      </trkpt>
      <trkpt lat="47.513657" lon="8.007746">
        <ele>365.924779</ele>
        <time>2021-11-09T21:35:27.259Z</time>
      </trkpt>
      <trkpt lat="47.513440" lon="8.008376">
        <ele>362.324120</ele>
        <time>2021-11-09T21:35:33.366Z</time>
      </trkpt>
      <trkpt lat="47.513295" lon="8.008556">
        <ele>361.493998</ele>
        <time>2021-11-09T21:35:35.852Z</time>
      </trkpt>
      <trkpt lat="47.513067" lon="8.008790">
        <ele>360.363829</ele>
        <time>2021-11-09T21:35:39.495Z</time>
      </trkpt>
      <trkpt lat="47.513019" lon="8.009088">
        <ele>359.520873</ele>
        <time>2021-11-09T21:35:42.312Z</time>
      </trkpt>
      <trkpt lat="47.513008" lon="8.009559">
        <ele>358.224119</ele>
        <time>2021-11-09T21:35:46.878Z</time>
      </trkpt>
      <trkpt lat="47.513001" lon="8.010158">
        <ele>356.575694</ele>
        <time>2021-11-09T21:35:52.761Z</time>
      </trkpt>
      <trkpt lat="47.512828" lon="8.010284">
        <ele>355.790264</ele>
        <time>2021-11-09T21:35:55.708Z</time>
      </trkpt>
      <trkpt lat="47.512231" lon="8.010689">
        <ele>354.940921</ele>
        <time>2021-11-09T21:36:05.674Z</time>
      </trkpt>
      <trkpt lat="47.511819" lon="8.010960">
        <ele>355.017505</ele>
        <time>2021-11-09T21:36:14.548Z</time>
      </trkpt>
      <trkpt lat="47.511743" lon="8.011016">
        <ele>355.031926</ele>
        <time>2021-11-09T21:36:16.604Z</time>
      </trkpt>
      <trkpt lat="47.511725" lon="8.011067">
        <ele>355.038528</ele>
        <time>2021-11-09T21:36:17.084Z</time>
      </trkpt>
      <trkpt lat="47.511369" lon="8.012112">
        <ele>355.172819</ele>
        <time>2021-11-09T21:36:34.781Z</time>
      </trkpt>
      <trkpt lat="47.511339" lon="8.012189">
        <ele>355.251681</ele>
        <time>2021-11-09T21:36:36.190Z</time>
      </trkpt>
      <trkpt lat="47.511240" lon="8.012453">
        <ele>355.532977</ele>
        <time>2021-11-09T21:36:41.480Z</time>
      </trkpt>
      <trkpt lat="47.511153" lon="8.012630">
        <ele>355.736904</ele>
        <time>2021-11-09T21:36:44.327Z</time>
      </trkpt>
      <trkpt lat="47.511060" lon="8.012793">
        <ele>355.935674</ele>
        <time>2021-11-09T21:36:48.169Z</time>
      </trkpt>
      <trkpt lat="47.510610" lon="8.013245">
        <ele>356.685672</ele>
        <time>2021-11-09T21:36:59.419Z</time>
      </trkpt>
      <trkpt lat="47.510195" lon="8.013657">
        <ele>357.374815</ele>
        <time>2021-11-09T21:37:09.589Z</time>
      </trkpt>
      <trkpt lat="47.510139" lon="8.013722">
        <ele>357.472958</ele>
        <time>2021-11-09T21:37:11.058Z</time>
      </trkpt>
      <trkpt lat="47.510028" lon="8.013857">
        <ele>357.634284</ele>
        <time>2021-11-09T21:37:13.003Z</time>
      </trkpt>
      <trkpt lat="47.509928" lon="8.014411">
        <ele>357.013704</ele>
        <time>2021-11-09T21:37:18.889Z</time>
      </trkpt>
      <trkpt lat="47.509891" lon="8.014585">
        <ele>356.816290</ele>
        <time>2021-11-09T21:37:20.603Z</time>
      </trkpt>
      <trkpt lat="47.509823" lon="8.014904">
        <ele>356.454283</ele>
        <time>2021-11-09T21:37:23.163Z</time>
      </trkpt>
      <trkpt lat="47.509799" lon="8.014989">
        <ele>356.354582</ele>
        <time>2021-11-09T21:37:23.945Z</time>
      </trkpt>
      <trkpt lat="47.509686" lon="8.015069">
        <ele>356.153901</ele>
        <time>2021-11-09T21:37:25.426Z</time>
      </trkpt>
      <trkpt lat="47.509612" lon="8.015079">
        <ele>356.034847</ele>
        <time>2021-11-09T21:37:26.184Z</time>
      </trkpt>
      <trkpt lat="47.509546" lon="8.015060">
        <ele>355.927123</ele>
        <time>2021-11-09T21:37:26.842Z</time>
      </trkpt>
      <trkpt lat="47.509444" lon="8.014982">
        <ele>355.743189</ele>
        <time>2021-11-09T21:37:28.192Z</time>
      </trkpt>
      <trkpt lat="47.509142" lon="8.014737">
        <ele>355.191449</ele>
        <time>2021-11-09T21:37:31.726Z</time>
      </trkpt>
      <trkpt lat="47.508749" lon="8.014436">
        <ele>354.160427</ele>
        <time>2021-11-09T21:37:36.298Z</time>
      </trkpt>
      <trkpt lat="47.508646" lon="8.014383">
        <ele>353.791546</ele>
        <time>2021-11-09T21:37:37.358Z</time>
      </trkpt>
      <trkpt lat="47.508562" lon="8.014341">
        <ele>353.491617</ele>
        <time>2021-11-09T21:37:38.211Z</time>
      </trkpt>
      <trkpt lat="47.508375" lon="8.014403">
        <ele>352.843352</ele>
        <time>2021-11-09T21:37:40.249Z</time>
      </trkpt>
      <trkpt lat="47.508333" lon="8.014419">
        <ele>352.696644</ele>
        <time>2021-11-09T21:37:40.662Z</time>
      </trkpt>
      <trkpt lat="47.508352" lon="8.014580">
        <ele>352.323176</ele>
        <time>2021-11-09T21:37:41.715Z</time>
      </trkpt>
      <trkpt lat="47.508337" lon="8.014821">
        <ele>351.770144</ele>
        <time>2021-11-09T21:37:43.526Z</time>
      </trkpt>
      <trkpt lat="47.508294" lon="8.015081">
        <ele>351.158479</ele>
        <time>2021-11-09T21:37:45.234Z</time>
      </trkpt>
      <trkpt lat="47.508285" lon="8.015139">
        <ele>351.022493</ele>
        <time>2021-11-09T21:37:45.635Z</time>
      </trkpt>
      <trkpt lat="47.508270" lon="8.015229">
        <ele>350.810670</ele>
        <time>2021-11-09T21:37:46.322Z</time>
      </trkpt>
      <trkpt lat="47.508213" lon="8.015549">
        <ele>350.054453</ele>
        <time>2021-11-09T21:37:48.525Z</time>
      </trkpt>
      <trkpt lat="47.508171" lon="8.015782">
        <ele>349.503400</ele>
        <time>2021-11-09T21:37:50.210Z</time>
      </trkpt>
      <trkpt lat="47.508111" lon="8.016120">
        <ele>348.704822</ele>
        <time>2021-11-09T21:37:52.492Z</time>
      </trkpt>
      <trkpt lat="47.508068" lon="8.016380">
        <ele>348.261995</ele>
        <time>2021-11-09T21:37:54.460Z</time>
      </trkpt>
      <trkpt lat="47.508040" lon="8.016566">
        <ele>347.950188</ele>
        <time>2021-11-09T21:37:55.676Z</time>
      </trkpt>
      <trkpt lat="47.508035" lon="8.017016">
        <ele>347.213782</ele>
        <time>2021-11-09T21:37:58.836Z</time>
      </trkpt>
      <trkpt lat="47.508054" lon="8.017109">
        <ele>347.054804</ele>
        <time>2021-11-09T21:37:59.448Z</time>
      </trkpt>
      <trkpt lat="47.508074" lon="8.017213">
        <ele>346.877873</ele>
        <time>2021-11-09T21:38:00.195Z</time>
      </trkpt>
      <trkpt lat="47.508286" lon="8.018007">
        <ele>345.480893</ele>
        <time>2021-11-09T21:38:06.410Z</time>
      </trkpt>
      <trkpt lat="47.508346" lon="8.018180">
        <ele>345.162694</ele>
        <time>2021-11-09T21:38:07.746Z</time>
      </trkpt>
      <trkpt lat="47.508473" lon="8.018450">
        <ele>344.624355</ele>
        <time>2021-11-09T21:38:10.513Z</time>
      </trkpt>
      <trkpt lat="47.508490" lon="8.018479">
        <ele>344.561527</ele>
        <time>2021-11-09T21:38:10.772Z</time>
      </trkpt>
      <trkpt lat="47.508475" lon="8.018519">
        <ele>344.486669</ele>
        <time>2021-11-09T21:38:11.083Z</time>
      </trkpt>
      <trkpt lat="47.508493" lon="8.018648">
        <ele>344.350206</ele>
        <time>2021-11-09T21:38:12.105Z</time>
      </trkpt>
      <trkpt lat="47.508517" lon="8.018677">
        <ele>344.374439</ele>
        <time>2021-11-09T21:38:12.507Z</time>
      </trkpt>
      <trkpt lat="47.508505" lon="8.018716">
        <ele>344.397084</ele>
        <time>2021-11-09T21:38:12.960Z</time>
      </trkpt>
      <trkpt lat="47.508436" lon="8.018909">
        <ele>344.512467</ele>
        <time>2021-11-09T21:38:15.385Z</time>
      </trkpt>
      <trkpt lat="47.508403" lon="8.018982">
        <ele>344.558880</ele>
        <time>2021-11-09T21:38:16.034Z</time>
      </trkpt>
      <trkpt lat="47.508273" lon="8.019268">
        <ele>344.741031</ele>
        <time>2021-11-09T21:38:19.522Z</time>
      </trkpt>
      <trkpt lat="47.508117" lon="8.019584">
        <ele>344.947843</ele>
        <time>2021-11-09T21:38:24.069Z</time>
      </trkpt>
      <trkpt lat="47.508075" lon="8.019669">
        <ele>345.003491</ele>
        <time>2021-11-09T21:38:25.539Z</time>
      </trkpt>
      <trkpt lat="47.508029" lon="8.019761">
        <ele>345.063972</ele>
        <time>2021-11-09T21:38:27.090Z</time>
      </trkpt>
      <trkpt lat="47.507951" lon="8.019911">
        <ele>345.163997</ele>
        <time>2021-11-09T21:38:29.480Z</time>
      </trkpt>
      <trkpt lat="47.507863" lon="8.020075">
        <ele>345.274668</ele>
        <time>2021-11-09T21:38:32.364Z</time>
      </trkpt>
      <trkpt lat="47.507666" lon="8.020400">
        <ele>345.505403</ele>
        <time>2021-11-09T21:38:38.488Z</time>
      </trkpt>
      <trkpt lat="47.507609" lon="8.020484">
        <ele>345.568317</ele>
        <time>2021-11-09T21:38:40.317Z</time>
      </trkpt>
      <trkpt lat="47.507466" lon="8.020697">
        <ele>345.727001</ele>
        <time>2021-11-09T21:38:45.127Z</time>
      </trkpt>
      <trkpt lat="47.507213" lon="8.021061">
        <ele>346.600725</ele>
        <time>2021-11-09T21:38:53.905Z</time>
      </trkpt>
      <trkpt lat="47.507007" lon="8.021362">
        <ele>347.337688</ele>
        <time>2021-11-09T21:39:01.475Z</time>
      </trkpt>
      <trkpt lat="47.506949" lon="8.021459">
        <ele>347.560491</ele>
        <time>2021-11-09T21:39:03.740Z</time>
      </trkpt>
      <trkpt lat="47.506910" lon="8.021529">
        <ele>347.716553</ele>
        <time>2021-11-09T21:39:05.240Z</time>
      </trkpt>
      <trkpt lat="47.506867" lon="8.021604">
        <ele>347.885746</ele>
        <time>2021-11-09T21:39:07.095Z</time>
      </trkpt>
      <trkpt lat="47.506735" lon="8.021861">
        <ele>348.441029</ele>
        <time>2021-11-09T21:39:12.977Z</time>
      </trkpt>
      <trkpt lat="47.506678" lon="8.022015">
        <ele>348.743053</ele>
        <time>2021-11-09T21:39:16.007Z</time>
      </trkpt>
      <trkpt lat="47.506655" lon="8.022123">
        <ele>348.937818</ele>
        <time>2021-11-09T21:39:18.124Z</time>
      </trkpt>
      <trkpt lat="47.506621" lon="8.022234">
        <ele>349.147441</ele>
        <time>2021-11-09T21:39:20.201Z</time>
      </trkpt>
      <trkpt lat="47.506535" lon="8.022414">
        <ele>349.526641</ele>
        <time>2021-11-09T21:39:23.775Z</time>
      </trkpt>
      <trkpt lat="47.506468" lon="8.022553">
        <ele>349.820335</ele>
        <time>2021-11-09T21:39:26.755Z</time>
      </trkpt>
      <trkpt lat="47.506258" lon="8.022985">
        <ele>350.612101</ele>
        <time>2021-11-09T21:39:35.441Z</time>
      </trkpt>
      <trkpt lat="47.506232" lon="8.023038">
        <ele>350.691456</ele>
        <time>2021-11-09T21:39:36.482Z</time>
      </trkpt>
      <trkpt lat="47.506199" lon="8.023103">
        <ele>350.789966</ele>
        <time>2021-11-09T21:39:37.771Z</time>
      </trkpt>
      <trkpt lat="47.505883" lon="8.023827">
        <ele>351.834266</ele>
        <time>2021-11-09T21:39:51.168Z</time>
      </trkpt>
      <trkpt lat="47.505697" lon="8.024216">
        <ele>352.411662</ele>
        <time>2021-11-09T21:39:58.258Z</time>
      </trkpt>
      <trkpt lat="47.505612" lon="8.024383">
        <ele>352.664990</ele>
        <time>2021-11-09T21:40:01.372Z</time>
      </trkpt>
      <trkpt lat="47.505559" lon="8.024486">
        <ele>352.821856</ele>
        <time>2021-11-09T21:40:03.130Z</time>
      </trkpt>
      <trkpt lat="47.505192" lon="8.025207">
        <ele>353.689038</ele>
        <time>2021-11-09T21:40:15.025Z</time>
      </trkpt>
      <trkpt lat="47.504823" lon="8.026024">
        <ele>354.155111</ele>
        <time>2021-11-09T21:40:26.956Z</time>
      </trkpt>
      <trkpt lat="47.504760" lon="8.026163">
        <ele>354.234492</ele>
        <time>2021-11-09T21:40:28.942Z</time>
      </trkpt>
      <trkpt lat="47.504725" lon="8.026244">
        <ele>354.280092</ele>
        <time>2021-11-09T21:40:30.195Z</time>
      </trkpt>
      <trkpt lat="47.504704" lon="8.026294">
        <ele>354.308013</ele>
        <time>2021-11-09T21:40:30.845Z</time>
      </trkpt>
      <trkpt lat="47.504676" lon="8.026276">
        <ele>354.329443</ele>
        <time>2021-11-09T21:40:31.355Z</time>
      </trkpt>
      <trkpt lat="47.504602" lon="8.026299">
        <ele>354.382526</ele>
        <time>2021-11-09T21:40:32.599Z</time>
      </trkpt>
      <trkpt lat="47.504574" lon="8.026349">
        <ele>354.413326</ele>
        <time>2021-11-09T21:40:33.329Z</time>
      </trkpt>
      <trkpt lat="47.504566" lon="8.026393">
        <ele>354.434935</ele>
        <time>2021-11-09T21:40:33.885Z</time>
      </trkpt>
      <trkpt lat="47.504579" lon="8.026477">
        <ele>354.475804</ele>
        <time>2021-11-09T21:40:34.815Z</time>
      </trkpt>
      <trkpt lat="47.504614" lon="8.026525">
        <ele>354.509298</ele>
        <time>2021-11-09T21:40:35.593Z</time>
      </trkpt>
      <trkpt lat="47.504606" lon="8.026545">
        <ele>354.520321</ele>
        <time>2021-11-09T21:40:35.999Z</time>
      </trkpt>
      <trkpt lat="47.504221" lon="8.027444">
        <ele>354.988759</ele>
        <time>2021-11-09T21:40:47.532Z</time>
      </trkpt>
      <trkpt lat="47.504063" lon="8.027828">
        <ele>355.166605</ele>
        <time>2021-11-09T21:40:52.433Z</time>
      </trkpt>
      <trkpt lat="47.503672" lon="8.028775">
        <ele>355.605613</ele>
        <time>2021-11-09T21:41:05.353Z</time>
      </trkpt>
      <trkpt lat="47.503617" lon="8.028907">
        <ele>355.666958</ele>
        <time>2021-11-09T21:41:07.206Z</time>
      </trkpt>
      <trkpt lat="47.503408" lon="8.029412">
        <ele>355.934285</ele>
        <time>2021-11-09T21:41:14.503Z</time>
      </trkpt>
      <trkpt lat="47.503055" lon="8.030264">
        <ele>356.640531</ele>
        <time>2021-11-09T21:41:27.123Z</time>
      </trkpt>
      <trkpt lat="47.502589" lon="8.031477">
        <ele>357.626566</ele>
        <time>2021-11-09T21:41:45.135Z</time>
      </trkpt>
      <trkpt lat="47.502647" lon="8.031521">
        <ele>357.694737</ele>
        <time>2021-11-09T21:41:46.693Z</time>
      </trkpt>
      <trkpt lat="47.502609" lon="8.031626">
        <ele>357.787375</ele>
        <time>2021-11-09T21:41:48.331Z</time>
      </trkpt>
      <trkpt lat="47.502080" lon="8.033221">
        <ele>359.319951</ele>
        <time>2021-11-09T21:42:12.824Z</time>
      </trkpt>
      <trkpt lat="47.502065" lon="8.033266">
        <ele>359.363232</ele>
        <time>2021-11-09T21:42:13.596Z</time>
      </trkpt>
      <trkpt lat="47.501954" lon="8.033629">
        <ele>359.706910</ele>
        <time>2021-11-09T21:42:18.877Z</time>
      </trkpt>
      <trkpt lat="47.501912" lon="8.033769">
        <ele>359.839036</ele>
        <time>2021-11-09T21:42:21.131Z</time>
      </trkpt>
      <trkpt lat="47.501899" lon="8.033875">
        <ele>359.931958</ele>
        <time>2021-11-09T21:42:22.297Z</time>
      </trkpt>
      <trkpt lat="47.501880" lon="8.033941">
        <ele>359.993838</ele>
        <time>2021-11-09T21:42:23.142Z</time>
      </trkpt>
      <trkpt lat="47.501838" lon="8.034051">
        <ele>360.053157</ele>
        <time>2021-11-09T21:42:24.919Z</time>
      </trkpt>
      <trkpt lat="47.501709" lon="8.034282">
        <ele>360.116749</ele>
        <time>2021-11-09T21:42:28.728Z</time>
      </trkpt>
      <trkpt lat="47.501613" lon="8.034680">
        <ele>360.206419</ele>
        <time>2021-11-09T21:42:34.125Z</time>
      </trkpt>
      <trkpt lat="47.501605" lon="8.034731">
        <ele>360.217528</ele>
        <time>2021-11-09T21:42:34.784Z</time>
      </trkpt>
      <trkpt lat="47.501468" lon="8.035629">
        <ele>360.412867</ele>
        <time>2021-11-09T21:42:45.488Z</time>
      </trkpt>
      <trkpt lat="47.501454" lon="8.035709">
        <ele>360.430402</ele>
        <time>2021-11-09T21:42:46.659Z</time>
      </trkpt>
      <trkpt lat="47.501437" lon="8.035841">
        <ele>360.458914</ele>
        <time>2021-11-09T21:42:48.392Z</time>
      </trkpt>
      <trkpt lat="47.501234" lon="8.038241">
        <ele>359.428822</ele>
        <time>2021-11-09T21:43:16.932Z</time>
      </trkpt>
      <trkpt lat="47.501231" lon="8.038279">
        <ele>359.403103</ele>
        <time>2021-11-09T21:43:17.265Z</time>
      </trkpt>
      <trkpt lat="47.501267" lon="8.038284">
        <ele>359.367123</ele>
        <time>2021-11-09T21:43:17.637Z</time>
      </trkpt>
      <trkpt lat="47.501398" lon="8.038304">
        <ele>359.236079</ele>
        <time>2021-11-09T21:43:19.361Z</time>
      </trkpt>
      <trkpt lat="47.501901" lon="8.038376">
        <ele>358.804834</ele>
        <time>2021-11-09T21:43:25.477Z</time>
      </trkpt>
      <trkpt lat="47.502069" lon="8.038565">
        <ele>358.785461</ele>
        <time>2021-11-09T21:43:27.937Z</time>
      </trkpt>
      <trkpt lat="47.502088" lon="8.038680">
        <ele>358.778117</ele>
        <time>2021-11-09T21:43:29.099Z</time>
      </trkpt>
      <trkpt lat="47.502099" lon="8.038844">
        <ele>358.767895</ele>
        <time>2021-11-09T21:43:30.332Z</time>
      </trkpt>
      <trkpt lat="47.502104" lon="8.038924">
        <ele>358.762912</ele>
        <time>2021-11-09T21:43:30.957Z</time>
      </trkpt>
      <trkpt lat="47.502162" lon="8.040946">
        <ele>358.776589</ele>
        <time>2021-11-09T21:43:52.906Z</time>
      </trkpt>
      <trkpt lat="47.502240" lon="8.041844">
        <ele>359.535553</ele>
        <time>2021-11-09T21:44:04.998Z</time>
      </trkpt>
      <trkpt lat="47.502261" lon="8.042085">
        <ele>359.739250</ele>
        <time>2021-11-09T21:44:08.309Z</time>
      </trkpt>
      <trkpt lat="47.502592" lon="8.044305">
        <ele>361.866383</ele>
        <time>2021-11-09T21:44:40.251Z</time>
      </trkpt>
      <trkpt lat="47.502959" lon="8.047023">
        <ele>364.844996</ele>
        <time>2021-11-09T21:45:20.444Z</time>
      </trkpt>
      <trkpt lat="47.503126" lon="8.048338">
        <ele>366.269485</ele>
        <time>2021-11-09T21:45:39.807Z</time>
      </trkpt>
      <trkpt lat="47.503303" lon="8.050012">
        <ele>367.735554</ele>
        <time>2021-11-09T21:46:02.452Z</time>
      </trkpt>
      <trkpt lat="47.503323" lon="8.050248">
        <ele>367.931105</ele>
        <time>2021-11-09T21:46:05.698Z</time>
      </trkpt>
      <trkpt lat="47.503363" lon="8.050738">
        <ele>368.336893</ele>
        <time>2021-11-09T21:46:12.073Z</time>
      </trkpt>
      <trkpt lat="47.503386" lon="8.051161">
        <ele>368.685791</ele>
        <time>2021-11-09T21:46:17.522Z</time>
      </trkpt>
      <trkpt lat="47.503397" lon="8.051365">
        <ele>368.857527</ele>
        <time>2021-11-09T21:46:20.318Z</time>
      </trkpt>
      <trkpt lat="47.503421" lon="8.051996">
        <ele>369.401275</ele>
        <time>2021-11-09T21:46:28.660Z</time>
      </trkpt>
      <trkpt lat="47.503428" lon="8.052181">
        <ele>369.560692</ele>
        <time>2021-11-09T21:46:31.058Z</time>
      </trkpt>
      <trkpt lat="47.503428" lon="8.052697">
        <ele>370.004638</ele>
        <time>2021-11-09T21:46:37.834Z</time>
      </trkpt>
      <trkpt lat="47.503431" lon="8.052821">
        <ele>370.111391</ele>
        <time>2021-11-09T21:46:39.452Z</time>
      </trkpt>
      <trkpt lat="47.503433" lon="8.053143">
        <ele>370.388439</ele>
        <time>2021-11-09T21:46:44.925Z</time>
      </trkpt>
      <trkpt lat="47.503429" lon="8.053339">
        <ele>370.557147</ele>
        <time>2021-11-09T21:46:48.362Z</time>
      </trkpt>
      <trkpt lat="47.503413" lon="8.053999">
        <ele>371.139840</ele>
        <time>2021-11-09T21:47:00.134Z</time>
      </trkpt>
      <trkpt lat="47.503340" lon="8.055072">
        <ele>372.309728</ele>
        <time>2021-11-09T21:47:19.415Z</time>
      </trkpt>
      <trkpt lat="47.503298" lon="8.055555">
        <ele>372.838014</ele>
        <time>2021-11-09T21:47:27.945Z</time>
      </trkpt>
      <trkpt lat="47.503232" lon="8.056115">
        <ele>373.454684</ele>
        <time>2021-11-09T21:47:37.877Z</time>
      </trkpt>
      <trkpt lat="47.502927" lon="8.057944">
        <ele>375.721142</ele>
        <time>2021-11-09T21:48:13.562Z</time>
      </trkpt>
      <trkpt lat="47.502836" lon="8.058343">
        <ele>376.244063</ele>
        <time>2021-11-09T21:48:21.314Z</time>
      </trkpt>
      <trkpt lat="47.502806" lon="8.058487">
        <ele>376.431181</ele>
        <time>2021-11-09T21:48:24.335Z</time>
      </trkpt>
      <trkpt lat="47.502690" lon="8.058955">
        <ele>377.050189</ele>
        <time>2021-11-09T21:48:33.336Z</time>
      </trkpt>
      <trkpt lat="47.502580" lon="8.059374">
        <ele>377.546157</ele>
        <time>2021-11-09T21:48:41.322Z</time>
      </trkpt>
      <trkpt lat="47.502534" lon="8.059520">
        <ele>377.710035</ele>
        <time>2021-11-09T21:48:44.693Z</time>
      </trkpt>
      <trkpt lat="47.502407" lon="8.059925">
        <ele>378.164248</ele>
        <time>2021-11-09T21:48:52.709Z</time>
      </trkpt>
      <trkpt lat="47.502229" lon="8.060464">
        <ele>378.774562</ele>
        <time>2021-11-09T21:49:03.927Z</time>
      </trkpt>
      <trkpt lat="47.502130" lon="8.060761">
        <ele>379.111467</ele>
        <time>2021-11-09T21:49:09.479Z</time>
      </trkpt>
      <trkpt lat="47.501960" lon="8.061164">
        <ele>379.594787</ele>
        <time>2021-11-09T21:49:17.693Z</time>
      </trkpt>
      <trkpt lat="47.501169" lon="8.063017">
        <ele>382.047616</ele>
        <time>2021-11-09T21:49:54.351Z</time>
      </trkpt>
      <trkpt lat="47.500653" lon="8.064026">
        <ele>384.035839</ele>
        <time>2021-11-09T21:50:20.584Z</time>
      </trkpt>
      <trkpt lat="47.500531" lon="8.064169">
        <ele>384.595182</ele>
        <time>2021-11-09T21:50:25.588Z</time>
      </trkpt>
      <trkpt lat="47.500414" lon="8.064350">
        <ele>385.203478</ele>
        <time>2021-11-09T21:50:31.719Z</time>
      </trkpt>
      <trkpt lat="47.500341" lon="8.064457">
        <ele>385.572741</ele>
        <time>2021-11-09T21:50:34.901Z</time>
      </trkpt>
      <trkpt lat="47.500095" lon="8.064612">
        <ele>386.533718</ele>
        <time>2021-11-09T21:50:44.464Z</time>
      </trkpt>
      <trkpt lat="47.500120" lon="8.064657">
        <ele>386.675193</ele>
        <time>2021-11-09T21:50:46.154Z</time>
      </trkpt>
      <trkpt lat="47.500182" lon="8.064834">
        <ele>387.159335</ele>
        <time>2021-11-09T21:50:51.048Z</time>
      </trkpt>
      <trkpt lat="47.500209" lon="8.064917">
        <ele>387.383030</ele>
        <time>2021-11-09T21:50:54.508Z</time>
      </trkpt>
      <trkpt lat="47.500343" lon="8.065218">
        <ele>388.258361</ele>
        <time>2021-11-09T21:51:02.625Z</time>
      </trkpt>
      <trkpt lat="47.500746" lon="8.065595">
        <ele>389.798601</ele>
        <time>2021-11-09T21:51:20.496Z</time>
      </trkpt>
      <trkpt lat="47.500757" lon="8.065687">
        <ele>389.946811</ele>
        <time>2021-11-09T21:51:22.068Z</time>
      </trkpt>
      <trkpt lat="47.500523" lon="8.066198">
        <ele>390.926092</ele>
        <time>2021-11-09T21:51:35.765Z</time>
      </trkpt>
      <trkpt lat="47.500485" lon="8.066332">
        <ele>391.156628</ele>
        <time>2021-11-09T21:51:39.559Z</time>
      </trkpt>
      <trkpt lat="47.500368" lon="8.066586">
        <ele>391.644302</ele>
        <time>2021-11-09T21:51:46.683Z</time>
      </trkpt>
      <trkpt lat="47.499930" lon="8.068012">
        <ele>393.695762</ele>
        <time>2021-11-09T21:52:13.140Z</time>
      </trkpt>
      <trkpt lat="47.499748" lon="8.068841">
        <ele>393.696790</ele>
        <time>2021-11-09T21:52:24.959Z</time>
      </trkpt>
      <trkpt lat="47.499620" lon="8.069496">
        <ele>393.697594</ele>
        <time>2021-11-09T21:52:33.460Z</time>
      </trkpt>
      <trkpt lat="47.499538" lon="8.069838">
        <ele>393.698022</ele>
        <time>2021-11-09T21:52:38.052Z</time>
      </trkpt>
      <trkpt lat="47.499461" lon="8.070758">
        <ele>393.891698</ele>
        <time>2021-11-09T21:52:49.929Z</time>
      </trkpt>
      <trkpt lat="47.499601" lon="8.071817">
        <ele>394.350101</ele>
        <time>2021-11-09T21:53:06.075Z</time>
      </trkpt>
      <trkpt lat="47.499631" lon="8.072434">
        <ele>394.612885</ele>
        <time>2021-11-09T21:53:16.377Z</time>
      </trkpt>
      <trkpt lat="47.499618" lon="8.072678">
        <ele>394.716860</ele>
        <time>2021-11-09T21:53:20.833Z</time>
      </trkpt>
      <trkpt lat="47.499580" lon="8.073053">
        <ele>394.941453</ele>
        <time>2021-11-09T21:53:26.886Z</time>
      </trkpt>
      <trkpt lat="47.499525" lon="8.073287">
        <ele>395.184812</ele>
        <time>2021-11-09T21:53:31.834Z</time>
      </trkpt>
      <trkpt lat="47.499275" lon="8.073955">
        <ele>395.934904</ele>
        <time>2021-11-09T21:53:44.612Z</time>
      </trkpt>
      <trkpt lat="47.499163" lon="8.074206">
        <ele>396.230370</ele>
        <time>2021-11-09T21:53:50.612Z</time>
      </trkpt>
      <trkpt lat="47.498910" lon="8.074849">
        <ele>396.961268</ele>
        <time>2021-11-09T21:54:03.500Z</time>
      </trkpt>
      <trkpt lat="47.498145" lon="8.076850">
        <ele>399.097974</ele>
        <time>2021-11-09T21:54:43.499Z</time>
      </trkpt>
      <trkpt lat="47.497682" lon="8.077743">
        <ele>400.038613</ele>
        <time>2021-11-09T21:55:03.467Z</time>
      </trkpt>
      <trkpt lat="47.497198" lon="8.078441">
        <ele>400.623695</ele>
        <time>2021-11-09T21:55:19.779Z</time>
      </trkpt>
      <trkpt lat="47.497125" lon="8.078508">
        <ele>400.698065</ele>
        <time>2021-11-09T21:55:22.189Z</time>
      </trkpt>
      <trkpt lat="47.497038" lon="8.078610">
        <ele>400.794159</ele>
        <time>2021-11-09T21:55:24.844Z</time>
      </trkpt>
      <trkpt lat="47.496793" lon="8.078891">
        <ele>401.062519</ele>
        <time>2021-11-09T21:55:31.912Z</time>
      </trkpt>
      <trkpt lat="47.496446" lon="8.079280">
        <ele>401.438446</ele>
        <time>2021-11-09T21:55:41.323Z</time>
      </trkpt>
      <trkpt lat="47.496380" lon="8.079285">
        <ele>401.464094</ele>
        <time>2021-11-09T21:55:42.153Z</time>
      </trkpt>
      <trkpt lat="47.496040" lon="8.079701">
        <ele>401.635294</ele>
        <time>2021-11-09T21:55:48.919Z</time>
      </trkpt>
      <trkpt lat="47.495859" lon="8.079943">
        <ele>401.729956</ele>
        <time>2021-11-09T21:55:52.989Z</time>
      </trkpt>
      <trkpt lat="47.495681" lon="8.080229">
        <ele>401.831917</ele>
        <time>2021-11-09T21:55:56.953Z</time>
      </trkpt>
      <trkpt lat="47.495562" lon="8.080466">
        <ele>401.909343</ele>
        <time>2021-11-09T21:56:00.006Z</time>
      </trkpt>
      <trkpt lat="47.495515" lon="8.080558">
        <ele>401.939587</ele>
        <time>2021-11-09T21:56:01.239Z</time>
      </trkpt>
      <trkpt lat="47.495384" lon="8.080873">
        <ele>402.036576</ele>
        <time>2021-11-09T21:56:05.286Z</time>
      </trkpt>
      <trkpt lat="47.495292" lon="8.081144">
        <ele>402.116102</ele>
        <time>2021-11-09T21:56:09.058Z</time>
      </trkpt>
      <trkpt lat="47.495281" lon="8.081177">
        <ele>402.125751</ele>
        <time>2021-11-09T21:56:09.578Z</time>
      </trkpt>
      <trkpt lat="47.495207" lon="8.081445">
        <ele>402.533405</ele>
        <time>2021-11-09T21:56:12.985Z</time>
      </trkpt>
      <trkpt lat="47.495162" lon="8.081632">
        <ele>402.847242</ele>
        <time>2021-11-09T21:56:15.692Z</time>
      </trkpt>
      <trkpt lat="47.495132" lon="8.081754">
        <ele>403.052500</ele>
        <time>2021-11-09T21:56:17.372Z</time>
      </trkpt>
      <trkpt lat="47.495088" lon="8.082021">
        <ele>403.486999</ele>
        <time>2021-11-09T21:56:21.004Z</time>
      </trkpt>
      <trkpt lat="47.495034" lon="8.082354">
        <ele>404.028420</ele>
        <time>2021-11-09T21:56:25.844Z</time>
      </trkpt>
      <trkpt lat="47.495018" lon="8.082502">
        <ele>404.265384</ele>
        <time>2021-11-09T21:56:28.517Z</time>
      </trkpt>
      <trkpt lat="47.494982" lon="8.082826">
        <ele>404.784506</ele>
        <time>2021-11-09T21:56:33.252Z</time>
      </trkpt>
      <trkpt lat="47.494963" lon="8.083009">
        <ele>405.077224</ele>
        <time>2021-11-09T21:56:36.722Z</time>
      </trkpt>
      <trkpt lat="47.494933" lon="8.083243">
        <ele>405.453778</ele>
        <time>2021-11-09T21:56:41.785Z</time>
      </trkpt>
      <trkpt lat="47.494898" lon="8.083514">
        <ele>405.889986</ele>
        <time>2021-11-09T21:56:47.303Z</time>
      </trkpt>
      <trkpt lat="47.494822" lon="8.084015">
        <ele>407.037962</ele>
        <time>2021-11-09T21:56:58.229Z</time>
      </trkpt>
      <trkpt lat="47.494924" lon="8.084065">
        <ele>407.525913</ele>
        <time>2021-11-09T21:57:01.570Z</time>
      </trkpt>
      <trkpt lat="47.495055" lon="8.084135">
        <ele>408.158400</ele>
        <time>2021-11-09T21:57:06.406Z</time>
      </trkpt>
      <trkpt lat="47.495106" lon="8.084168">
        <ele>408.411170</ele>
        <time>2021-11-09T21:57:07.835Z</time>
      </trkpt>
      <trkpt lat="47.495171" lon="8.084232">
        <ele>408.765702</ele>
        <time>2021-11-09T21:57:10.345Z</time>
      </trkpt>
      <trkpt lat="47.495445" lon="8.084551">
        <ele>410.348832</ele>
        <time>2021-11-09T21:57:22.752Z</time>
      </trkpt>
      <trkpt lat="47.495549" lon="8.084639">
        <ele>410.892856</ele>
        <time>2021-11-09T21:57:27.022Z</time>
      </trkpt>
      <trkpt lat="47.495636" lon="8.084745">
        <ele>411.404592</ele>
        <time>2021-11-09T21:57:31.969Z</time>
      </trkpt>
      <trkpt lat="47.496002" lon="8.085400">
        <ele>414.012559</ele>
        <time>2021-11-09T21:57:49.962Z</time>
      </trkpt>
      <trkpt lat="47.496274" lon="8.085642">
        <ele>415.251406</ele>
        <time>2021-11-09T21:57:59.886Z</time>
      </trkpt>
      <trkpt lat="47.496373" lon="8.085787">
        <ele>415.747924</ele>
        <time>2021-11-09T21:58:05.029Z</time>
      </trkpt>
      <trkpt lat="47.496422" lon="8.086009">
        <ele>416.310439</ele>
        <time>2021-11-09T21:58:08.857Z</time>
      </trkpt>
      <trkpt lat="47.496519" lon="8.086234">
        <ele>416.953296</ele>
        <time>2021-11-09T21:58:14.433Z</time>
      </trkpt>
      <trkpt lat="47.496576" lon="8.086291">
        <ele>417.198528</ele>
        <time>2021-11-09T21:58:17.553Z</time>
      </trkpt>
      <trkpt lat="47.496752" lon="8.086468">
        <ele>417.957085</ele>
        <time>2021-11-09T21:58:22.582Z</time>
      </trkpt>
      <trkpt lat="47.496950" lon="8.086653">
        <ele>418.791815</ele>
        <time>2021-11-09T21:58:29.388Z</time>
      </trkpt>
      <trkpt lat="47.497376" lon="8.086991">
        <ele>420.514909</ele>
        <time>2021-11-09T21:58:42.119Z</time>
      </trkpt>
      <trkpt lat="47.497737" lon="8.087270">
        <ele>422.184960</ele>
        <time>2021-11-09T21:58:52.717Z</time>
      </trkpt>
      <trkpt lat="47.497928" lon="8.087452">
        <ele>423.164331</ele>
        <time>2021-11-09T21:59:00.175Z</time>
      </trkpt>
      <trkpt lat="47.498188" lon="8.087851">
        <ele>424.779058</ele>
        <time>2021-11-09T21:59:12.148Z</time>
      </trkpt>
      <trkpt lat="47.498481" lon="8.088558">
        <ele>427.195008</ele>
        <time>2021-11-09T21:59:31.140Z</time>
      </trkpt>
      <trkpt lat="47.498666" lon="8.088885">
        <ele>428.437356</ele>
        <time>2021-11-09T21:59:41.122Z</time>
      </trkpt>
      <trkpt lat="47.498851" lon="8.089152">
        <ele>429.540240</ele>
        <time>2021-11-09T21:59:51.340Z</time>
      </trkpt>
      <trkpt lat="47.498994" lon="8.089359">
        <ele>430.391590</ele>
        <time>2021-11-09T21:59:58.310Z</time>
      </trkpt>
      <trkpt lat="47.500332" lon="8.091539">
        <ele>437.725748</ele>
        <time>2021-11-09T22:00:59.129Z</time>
      </trkpt>
      <trkpt lat="47.500507" lon="8.091877">
        <ele>438.399965</ele>
        <time>2021-11-09T22:01:06.139Z</time>
      </trkpt>
      <trkpt lat="47.500685" lon="8.092227">
        <ele>439.093563</ele>
        <time>2021-11-09T22:01:13.010Z</time>
      </trkpt>
      <trkpt lat="47.501149" lon="8.093186">
        <ele>440.641546</ele>
        <time>2021-11-09T22:01:27.677Z</time>
      </trkpt>
      <trkpt lat="47.501513" lon="8.093894">
        <ele>440.955046</ele>
        <time>2021-11-09T22:01:37.942Z</time>
      </trkpt>
      <trkpt lat="47.501590" lon="8.094043">
        <ele>441.021148</ele>
        <time>2021-11-09T22:01:39.434Z</time>
      </trkpt>
      <trkpt lat="47.502026" lon="8.094768">
        <ele>441.363165</ele>
        <time>2021-11-09T22:01:50.355Z</time>
      </trkpt>
      <trkpt lat="47.502110" lon="8.094873">
        <ele>441.420509</ele>
        <time>2021-11-09T22:01:51.685Z</time>
      </trkpt>
      <trkpt lat="47.502217" lon="8.094977">
        <ele>441.487274</ele>
        <time>2021-11-09T22:01:54.570Z</time>
      </trkpt>
      <trkpt lat="47.502282" lon="8.095019">
        <ele>441.643751</ele>
        <time>2021-11-09T22:01:56.168Z</time>
      </trkpt>
      <trkpt lat="47.502574" lon="8.095231">
        <ele>442.375345</ele>
        <time>2021-11-09T22:02:02.288Z</time>
      </trkpt>
      <trkpt lat="47.502910" lon="8.095439">
        <ele>443.194593</ele>
        <time>2021-11-09T22:02:09.166Z</time>
      </trkpt>
      <trkpt lat="47.503482" lon="8.095792">
        <ele>444.588623</ele>
        <time>2021-11-09T22:02:23.703Z</time>
      </trkpt>
      <trkpt lat="47.503767" lon="8.095971">
        <ele>445.285036</ele>
        <time>2021-11-09T22:02:33.227Z</time>
      </trkpt>
      <trkpt lat="47.504630" lon="8.096527">
        <ele>448.962390</ele>
        <time>2021-11-09T22:03:04.866Z</time>
      </trkpt>
      <trkpt lat="47.504815" lon="8.096672">
        <ele>449.826550</ele>
        <time>2021-11-09T22:03:11.896Z</time>
      </trkpt>
      <trkpt lat="47.504977" lon="8.096829">
        <ele>450.625889</ele>
        <time>2021-11-09T22:03:18.794Z</time>
      </trkpt>
      <trkpt lat="47.505090" lon="8.096968">
        <ele>451.232409</ele>
        <time>2021-11-09T22:03:23.208Z</time>
      </trkpt>
      <trkpt lat="47.505224" lon="8.097111">
        <ele>451.914343</ele>
        <time>2021-11-09T22:03:28.454Z</time>
      </trkpt>
      <trkpt lat="47.505520" lon="8.097456">
        <ele>453.224950</ele>
        <time>2021-11-09T22:03:38.799Z</time>
      </trkpt>
      <trkpt lat="47.505811" lon="8.097796">
        <ele>454.021636</ele>
        <time>2021-11-09T22:03:47.675Z</time>
      </trkpt>
      <trkpt lat="47.505855" lon="8.097849">
        <ele>454.143541</ele>
        <time>2021-11-09T22:03:48.957Z</time>
      </trkpt>
      <trkpt lat="47.506023" lon="8.098051">
        <ele>454.608665</ele>
        <time>2021-11-09T22:03:54.492Z</time>
      </trkpt>
      <trkpt lat="47.506383" lon="8.098483">
        <ele>455.604572</ele>
        <time>2021-11-09T22:04:05.414Z</time>
      </trkpt>
      <trkpt lat="47.506485" lon="8.098597">
        <ele>455.879230</ele>
        <time>2021-11-09T22:04:07.455Z</time>
      </trkpt>
      <trkpt lat="47.506767" lon="8.098876">
        <ele>456.608141</ele>
        <time>2021-11-09T22:04:14.892Z</time>
      </trkpt>
      <trkpt lat="47.506874" lon="8.098948">
        <ele>456.855942</ele>
        <time>2021-11-09T22:04:17.795Z</time>
      </trkpt>
      <trkpt lat="47.506976" lon="8.099024">
        <ele>457.068781</ele>
        <time>2021-11-09T22:04:19.952Z</time>
      </trkpt>
      <trkpt lat="47.507131" lon="8.099082">
        <ele>457.366769</ele>
        <time>2021-11-09T22:04:22.109Z</time>
      </trkpt>
      <trkpt lat="47.507198" lon="8.099101">
        <ele>457.493920</ele>
        <time>2021-11-09T22:04:23.904Z</time>
      </trkpt>
      <trkpt lat="47.507495" lon="8.099134">
        <ele>458.049052</ele>
        <time>2021-11-09T22:04:28.779Z</time>
      </trkpt>
      <trkpt lat="47.507666" lon="8.099135">
        <ele>458.367779</ele>
        <time>2021-11-09T22:04:32.713Z</time>
      </trkpt>
      <trkpt lat="47.507728" lon="8.099150">
        <ele>458.484873</ele>
        <time>2021-11-09T22:04:34.037Z</time>
      </trkpt>
      <trkpt lat="47.508035" lon="8.099268">
        <ele>459.076058</ele>
        <time>2021-11-09T22:04:40.211Z</time>
      </trkpt>
      <trkpt lat="47.508341" lon="8.099423">
        <ele>459.678869</ele>
        <time>2021-11-09T22:04:47.957Z</time>
      </trkpt>
      <trkpt lat="47.508401" lon="8.099452">
        <ele>459.796511</ele>
        <time>2021-11-09T22:04:49.616Z</time>
      </trkpt>
      <trkpt lat="47.508511" lon="8.099532">
        <ele>460.024943</ele>
        <time>2021-11-09T22:04:52.587Z</time>
      </trkpt>
      <trkpt lat="47.508596" lon="8.099602">
        <ele>460.231488</ele>
        <time>2021-11-09T22:04:56.018Z</time>
      </trkpt>
      <trkpt lat="47.508688" lon="8.099702">
        <ele>460.628761</ele>
        <time>2021-11-09T22:04:59.997Z</time>
      </trkpt>
      <trkpt lat="47.509176" lon="8.100345">
        <ele>462.902690</ele>
        <time>2021-11-09T22:05:19.212Z</time>
      </trkpt>
      <trkpt lat="47.509343" lon="8.100494">
        <ele>463.581376</ele>
        <time>2021-11-09T22:05:24.715Z</time>
      </trkpt>
      <trkpt lat="47.509412" lon="8.100549">
        <ele>463.854147</ele>
        <time>2021-11-09T22:05:26.840Z</time>
      </trkpt>
      <trkpt lat="47.509622" lon="8.100692">
        <ele>464.658717</ele>
        <time>2021-11-09T22:05:33.420Z</time>
      </trkpt>
      <trkpt lat="47.509638" lon="8.100703">
        <ele>464.720121</ele>
        <time>2021-11-09T22:05:33.903Z</time>
      </trkpt>
      <trkpt lat="47.509944" lon="8.100887">
        <ele>465.869728</ele>
        <time>2021-11-09T22:05:43.416Z</time>
      </trkpt>
      <trkpt lat="47.510731" lon="8.101349">
        <ele>469.439102</ele>
        <time>2021-11-09T22:06:08.374Z</time>
      </trkpt>
      <trkpt lat="47.511350" lon="8.101444">
        <ele>472.172100</ele>
        <time>2021-11-09T22:06:26.876Z</time>
      </trkpt>
      <trkpt lat="47.511784" lon="8.101451">
        <ele>474.078189</ele>
        <time>2021-11-09T22:06:40.135Z</time>
      </trkpt>
      <trkpt lat="47.512294" lon="8.101446">
        <ele>478.757259</ele>
        <time>2021-11-09T22:07:04.685Z</time>
      </trkpt>
      <trkpt lat="47.513097" lon="8.101440">
        <ele>486.625641</ele>
        <time>2021-11-09T22:07:46.432Z</time>
      </trkpt>
      <trkpt lat="47.513213" lon="8.101454">
        <ele>487.766050</ele>
        <time>2021-11-09T22:07:52.759Z</time>
      </trkpt>
      <trkpt lat="47.513274" lon="8.101477">
        <ele>488.382843</ele>
        <time>2021-11-09T22:07:59.503Z</time>
      </trkpt>
      <trkpt lat="47.513402" lon="8.101592">
        <ele>489.849925</ele>
        <time>2021-11-09T22:08:06.611Z</time>
      </trkpt>
      <trkpt lat="47.514173" lon="8.102716">
        <ele>503.477958</ele>
        <time>2021-11-09T22:09:23.836Z</time>
      </trkpt>
      <trkpt lat="47.514667" lon="8.103702">
        <ele>514.497783</ele>
        <time>2021-11-09T22:10:20.749Z</time>
      </trkpt>
      <trkpt lat="47.514756" lon="8.103964">
        <ele>516.861606</ele>
        <time>2021-11-09T22:10:33.697Z</time>
      </trkpt>
      <trkpt lat="47.514931" lon="8.104527">
        <ele>521.243309</ele>
        <time>2021-11-09T22:10:59.744Z</time>
      </trkpt>
      <trkpt lat="47.515233" lon="8.105459">
        <ele>528.551603</ele>
        <time>2021-11-09T22:11:40.193Z</time>
      </trkpt>
      <trkpt lat="47.515271" lon="8.105582">
        <ele>529.507862</ele>
        <time>2021-11-09T22:11:45.480Z</time>
      </trkpt>
      <trkpt lat="47.515524" lon="8.106413">
        <ele>535.588707</ele>
        <time>2021-11-09T22:12:15.197Z</time>
      </trkpt>
      <trkpt lat="47.516180" lon="8.108478">
        <ele>547.063706</ele>
        <time>2021-11-09T22:13:23.044Z</time>
      </trkpt>
      <trkpt lat="47.516517" lon="8.109548">
        <ele>552.151793</ele>
        <time>2021-11-09T22:13:56.734Z</time>
      </trkpt>
      <trkpt lat="47.516730" lon="8.110266">
        <ele>555.414411</ele>
        <time>2021-11-09T22:14:18.965Z</time>
      </trkpt>
      <trkpt lat="47.516960" lon="8.110849">
        <ele>558.223392</ele>
        <time>2021-11-09T22:14:35.617Z</time>
      </trkpt>
      <trkpt lat="47.517126" lon="8.111099">
        <ele>559.309691</ele>
        <time>2021-11-09T22:14:43.766Z</time>
      </trkpt>
      <trkpt lat="47.517402" lon="8.111532">
        <ele>560.005314</ele>
        <time>2021-11-09T22:14:56.686Z</time>
      </trkpt>
      <trkpt lat="47.517585" lon="8.111839">
        <ele>560.483717</ele>
        <time>2021-11-09T22:15:03.578Z</time>
      </trkpt>
      <trkpt lat="47.517983" lon="8.112466">
        <ele>561.489032</ele>
        <time>2021-11-09T22:15:14.384Z</time>
      </trkpt>
      <trkpt lat="47.518295" lon="8.113056">
        <ele>562.187966</ele>
        <time>2021-11-09T22:15:21.082Z</time>
      </trkpt>
      <trkpt lat="47.518474" lon="8.113619">
        <ele>561.467511</ele>
        <time>2021-11-09T22:15:25.693Z</time>
      </trkpt>
      <trkpt lat="47.518892" lon="8.116720">
        <ele>557.712858</ele>
        <time>2021-11-09T22:15:49.243Z</time>
      </trkpt>
      <trkpt lat="47.518885" lon="8.117042">
        <ele>557.314681</ele>
        <time>2021-11-09T22:15:51.940Z</time>
      </trkpt>
      <trkpt lat="47.518740" lon="8.117714">
        <ele>556.442771</ele>
        <time>2021-11-09T22:15:57.403Z</time>
      </trkpt>
      <trkpt lat="47.518622" lon="8.118005">
        <ele>556.023262</ele>
        <time>2021-11-09T22:15:59.960Z</time>
      </trkpt>
      <trkpt lat="47.518325" lon="8.118433">
        <ele>554.317637</ele>
        <time>2021-11-09T22:16:04.371Z</time>
      </trkpt>
      <trkpt lat="47.518234" lon="8.118678">
        <ele>553.457304</ele>
        <time>2021-11-09T22:16:06.292Z</time>
      </trkpt>
      <trkpt lat="47.518226" lon="8.118790">
        <ele>553.110767</ele>
        <time>2021-11-09T22:16:07.151Z</time>
      </trkpt>
      <trkpt lat="47.518291" lon="8.118990">
        <ele>552.427834</ele>
        <time>2021-11-09T22:16:08.560Z</time>
      </trkpt>
      <trkpt lat="47.518372" lon="8.119045">
        <ele>552.021846</ele>
        <time>2021-11-09T22:16:09.440Z</time>
      </trkpt>
      <trkpt lat="47.518662" lon="8.118990">
        <ele>550.689812</ele>
        <time>2021-11-09T22:16:12.289Z</time>
      </trkpt>
      <trkpt lat="47.518865" lon="8.118958">
        <ele>549.759717</ele>
        <time>2021-11-09T22:16:14.326Z</time>
      </trkpt>
      <trkpt lat="47.519020" lon="8.118892">
        <ele>549.024918</ele>
        <time>2021-11-09T22:16:15.759Z</time>
      </trkpt>
      <trkpt lat="47.519187" lon="8.118830">
        <ele>548.240515</ele>
        <time>2021-11-09T22:16:17.309Z</time>
      </trkpt>
      <trkpt lat="47.519221" lon="8.118862">
        <ele>548.056968</ele>
        <time>2021-11-09T22:16:17.657Z</time>
      </trkpt>
      <trkpt lat="47.519597" lon="8.118303">
        <ele>544.170662</ele>
        <time>2021-11-09T22:16:22.330Z</time>
      </trkpt>
      <trkpt lat="47.520037" lon="8.117760">
        <ele>539.727907</ele>
        <time>2021-11-09T22:16:27.347Z</time>
      </trkpt>
      <trkpt lat="47.520145" lon="8.117619">
        <ele>538.611099</ele>
        <time>2021-11-09T22:16:28.607Z</time>
      </trkpt>
      <trkpt lat="47.520249" lon="8.117369">
        <ele>537.073031</ele>
        <time>2021-11-09T22:16:30.364Z</time>
      </trkpt>
      <trkpt lat="47.520431" lon="8.116272">
        <ele>532.388011</ele>
        <time>2021-11-09T22:16:37.225Z</time>
      </trkpt>
      <trkpt lat="47.520323" lon="8.115296">
        <ele>529.663403</ele>
        <time>2021-11-09T22:16:43.478Z</time>
      </trkpt>
      <trkpt lat="47.520274" lon="8.113829">
        <ele>525.722178</ele>
        <time>2021-11-09T22:16:54.794Z</time>
      </trkpt>
      <trkpt lat="47.520208" lon="8.113267">
        <ele>524.357027</ele>
        <time>2021-11-09T22:16:59.115Z</time>
      </trkpt>
      <trkpt lat="47.520107" lon="8.112529">
        <ele>522.554957</ele>
        <time>2021-11-09T22:17:04.183Z</time>
      </trkpt>
      <trkpt lat="47.519978" lon="8.111654">
        <ele>520.411600</ele>
        <time>2021-11-09T22:17:10.036Z</time>
      </trkpt>
      <trkpt lat="47.519903" lon="8.111141">
        <ele>518.069144</ele>
        <time>2021-11-09T22:17:13.312Z</time>
      </trkpt>
      <trkpt lat="47.519889" lon="8.110997">
        <ele>517.295201</ele>
        <time>2021-11-09T22:17:14.178Z</time>
      </trkpt>
      <trkpt lat="47.519853" lon="8.110730">
        <ele>515.846793</ele>
        <time>2021-11-09T22:17:15.849Z</time>
      </trkpt>
      <trkpt lat="47.519817" lon="8.110530">
        <ele>514.745696</ele>
        <time>2021-11-09T22:17:17.072Z</time>
      </trkpt>
      <trkpt lat="47.519621" lon="8.109743">
        <ele>510.283420</ele>
        <time>2021-11-09T22:17:22.068Z</time>
      </trkpt>
      <trkpt lat="47.519607" lon="8.109477">
        <ele>508.864066</ele>
        <time>2021-11-09T22:17:23.614Z</time>
      </trkpt>
      <trkpt lat="47.519653" lon="8.109157">
        <ele>507.123597</ele>
        <time>2021-11-09T22:17:25.537Z</time>
      </trkpt>
      <trkpt lat="47.520512" lon="8.107089">
        <ele>491.607858</ele>
        <time>2021-11-09T22:17:39.702Z</time>
      </trkpt>
      <trkpt lat="47.520667" lon="8.106525">
        <ele>487.700365</ele>
        <time>2021-11-09T22:17:43.251Z</time>
      </trkpt>
      <trkpt lat="47.520791" lon="8.105593">
        <ele>481.887858</ele>
        <time>2021-11-09T22:17:48.812Z</time>
      </trkpt>
      <trkpt lat="47.520926" lon="8.105058">
        <ele>478.393151</ele>
        <time>2021-11-09T22:17:52.153Z</time>
      </trkpt>
      <trkpt lat="47.521652" lon="8.103791">
        <ele>468.804842</ele>
        <time>2021-11-09T22:18:01.995Z</time>
      </trkpt>
      <trkpt lat="47.522068" lon="8.102727">
        <ele>462.363811</ele>
        <time>2021-11-09T22:18:09.452Z</time>
      </trkpt>
      <trkpt lat="47.522278" lon="8.102263">
        <ele>459.437536</ele>
        <time>2021-11-09T22:18:12.803Z</time>
      </trkpt>
      <trkpt lat="47.522538" lon="8.101680">
        <ele>455.428617</ele>
        <time>2021-11-09T22:18:16.943Z</time>
      </trkpt>
      <trkpt lat="47.522685" lon="8.101391">
        <ele>453.271013</ele>
        <time>2021-11-09T22:18:19.126Z</time>
      </trkpt>
      <trkpt lat="47.522770" lon="8.101280">
        <ele>452.270228</ele>
        <time>2021-11-09T22:18:20.101Z</time>
      </trkpt>
      <trkpt lat="47.522951" lon="8.101080">
        <ele>450.275934</ele>
        <time>2021-11-09T22:18:22.139Z</time>
      </trkpt>
      <trkpt lat="47.523070" lon="8.100979">
        <ele>449.064713</ele>
        <time>2021-11-09T22:18:23.328Z</time>
      </trkpt>
      <trkpt lat="47.524879" lon="8.099449">
        <ele>429.758900</ele>
        <time>2021-11-09T22:18:41.280Z</time>
      </trkpt>
      <trkpt lat="47.525047" lon="8.099283">
        <ele>427.837387</ele>
        <time>2021-11-09T22:18:43.042Z</time>
      </trkpt>
      <trkpt lat="47.525240" lon="8.099058">
        <ele>425.500439</ele>
        <time>2021-11-09T22:18:45.185Z</time>
      </trkpt>
      <trkpt lat="47.525342" lon="8.098906">
        <ele>424.389313</ele>
        <time>2021-11-09T22:18:46.470Z</time>
      </trkpt>
      <trkpt lat="47.526026" lon="8.097956">
        <ele>417.476610</ele>
        <time>2021-11-09T22:18:54.707Z</time>
      </trkpt>
      <trkpt lat="47.526470" lon="8.097487">
        <ele>413.456351</ele>
        <time>2021-11-09T22:18:59.692Z</time>
      </trkpt>
      <trkpt lat="47.526492" lon="8.097460">
        <ele>413.245725</ele>
        <time>2021-11-09T22:18:59.940Z</time>
      </trkpt>
      <trkpt lat="47.526839" lon="8.097051">
        <ele>410.741879</ele>
        <time>2021-11-09T22:19:04.062Z</time>
      </trkpt>
      <trkpt lat="47.527057" lon="8.096846">
        <ele>409.542883</ele>
        <time>2021-11-09T22:19:06.641Z</time>
      </trkpt>
      <trkpt lat="47.527143" lon="8.096799">
        <ele>409.117261</ele>
        <time>2021-11-09T22:19:07.447Z</time>
      </trkpt>
      <trkpt lat="47.527275" lon="8.096747">
        <ele>408.483067</ele>
        <time>2021-11-09T22:19:08.835Z</time>
      </trkpt>
      <trkpt lat="47.527399" lon="8.096712">
        <ele>407.896967</ele>
        <time>2021-11-09T22:19:10.098Z</time>
      </trkpt>
      <trkpt lat="47.527504" lon="8.096695">
        <ele>407.406543</ele>
        <time>2021-11-09T22:19:11.040Z</time>
      </trkpt>
      <trkpt lat="47.527851" lon="8.096625">
        <ele>405.780531</ele>
        <time>2021-11-09T22:19:14.374Z</time>
      </trkpt>
      <trkpt lat="47.527979" lon="8.096600">
        <ele>405.181076</ele>
        <time>2021-11-09T22:19:15.677Z</time>
      </trkpt>
      <trkpt lat="47.528218" lon="8.096523">
        <ele>404.045436</ele>
        <time>2021-11-09T22:19:18.011Z</time>
      </trkpt>
      <trkpt lat="47.528380" lon="8.096461">
        <ele>403.341219</ele>
        <time>2021-11-09T22:19:19.750Z</time>
      </trkpt>
      <trkpt lat="47.529047" lon="8.096183">
        <ele>400.674664</ele>
        <time>2021-11-09T22:19:26.641Z</time>
      </trkpt>
      <trkpt lat="47.531490" lon="8.095138">
        <ele>390.853600</ele>
        <time>2021-11-09T22:19:51.519Z</time>
      </trkpt>
      <trkpt lat="47.531870" lon="8.095086">
        <ele>389.383520</ele>
        <time>2021-11-09T22:19:55.332Z</time>
      </trkpt>
      <trkpt lat="47.532250" lon="8.095186">
        <ele>387.914701</ele>
        <time>2021-11-09T22:19:59.180Z</time>
      </trkpt>
      <trkpt lat="47.532487" lon="8.095310">
        <ele>386.958125</ele>
        <time>2021-11-09T22:20:01.677Z</time>
      </trkpt>
      <trkpt lat="47.532716" lon="8.095430">
        <ele>386.033680</ele>
        <time>2021-11-09T22:20:04.097Z</time>
      </trkpt>
      <trkpt lat="47.532730" lon="8.095437">
        <ele>385.977446</ele>
        <time>2021-11-09T22:20:04.247Z</time>
      </trkpt>
      <trkpt lat="47.532829" lon="8.095485">
        <ele>385.581007</ele>
        <time>2021-11-09T22:20:05.255Z</time>
      </trkpt>
      <trkpt lat="47.532951" lon="8.095543">
        <ele>385.093379</ele>
        <time>2021-11-09T22:20:06.521Z</time>
      </trkpt>
      <trkpt lat="47.533176" lon="8.095643">
        <ele>384.199374</ele>
        <time>2021-11-09T22:20:08.779Z</time>
      </trkpt>
      <trkpt lat="47.533524" lon="8.095757">
        <ele>382.851268</ele>
        <time>2021-11-09T22:20:12.230Z</time>
      </trkpt>
      <trkpt lat="47.533963" lon="8.095823">
        <ele>381.288043</ele>
        <time>2021-11-09T22:20:16.598Z</time>
      </trkpt>
      <trkpt lat="47.534255" lon="8.095777">
        <ele>380.247749</ele>
        <time>2021-11-09T22:20:19.510Z</time>
      </trkpt>
      <trkpt lat="47.534348" lon="8.095763">
        <ele>379.916583</ele>
        <time>2021-11-09T22:20:20.457Z</time>
      </trkpt>
      <trkpt lat="47.534413" lon="8.095755">
        <ele>379.685516</ele>
        <time>2021-11-09T22:20:21.070Z</time>
      </trkpt>
      <trkpt lat="47.534678" lon="8.095765">
        <ele>378.746403</ele>
        <time>2021-11-09T22:20:23.811Z</time>
      </trkpt>
      <trkpt lat="47.534747" lon="8.095771">
        <ele>378.501538</ele>
        <time>2021-11-09T22:20:24.457Z</time>
      </trkpt>
      <trkpt lat="47.535050" lon="8.095829">
        <ele>377.419181</ele>
        <time>2021-11-09T22:20:27.583Z</time>
      </trkpt>
      <trkpt lat="47.535376" lon="8.096094">
        <ele>376.239972</ele>
        <time>2021-11-09T22:20:31.349Z</time>
      </trkpt>
      <trkpt lat="47.535460" lon="8.096205">
        <ele>375.953855</ele>
        <time>2021-11-09T22:20:32.426Z</time>
      </trkpt>
      <trkpt lat="47.535585" lon="8.096371">
        <ele>375.527148</ele>
        <time>2021-11-09T22:20:34.201Z</time>
      </trkpt>
      <trkpt lat="47.535931" lon="8.096828">
        <ele>374.348869</ele>
        <time>2021-11-09T22:20:39.092Z</time>
      </trkpt>
      <trkpt lat="47.536133" lon="8.097123">
        <ele>373.627868</ele>
        <time>2021-11-09T22:20:42.315Z</time>
      </trkpt>
      <trkpt lat="47.536630" lon="8.097846">
        <ele>371.812491</ele>
        <time>2021-11-09T22:20:49.790Z</time>
      </trkpt>
      <trkpt lat="47.537252" lon="8.098601">
        <ele>369.202968</ele>
        <time>2021-11-09T22:20:58.107Z</time>
      </trkpt>
      <trkpt lat="47.537638" lon="8.098927">
        <ele>367.761107</ele>
        <time>2021-11-09T22:21:02.494Z</time>
      </trkpt>
      <trkpt lat="47.537844" lon="8.099067">
        <ele>367.025639</ele>
        <time>2021-11-09T22:21:04.718Z</time>
      </trkpt>
      <trkpt lat="47.538419" lon="8.099234">
        <ele>365.076356</ele>
        <time>2021-11-09T22:21:10.536Z</time>
      </trkpt>
      <trkpt lat="47.538521" lon="8.099232">
        <ele>364.730362</ele>
        <time>2021-11-09T22:21:11.508Z</time>
      </trkpt>
      <trkpt lat="47.538655" lon="8.099217">
        <ele>364.274566</ele>
        <time>2021-11-09T22:21:12.808Z</time>
      </trkpt>
      <trkpt lat="47.538959" lon="8.099139">
        <ele>363.228106</ele>
        <time>2021-11-09T22:21:15.846Z</time>
      </trkpt>
      <trkpt lat="47.539852" lon="8.098671">
        <ele>360.052581</ele>
        <time>2021-11-09T22:21:25.437Z</time>
      </trkpt>
      <trkpt lat="47.540568" lon="8.098437">
        <ele>358.954449</ele>
        <time>2021-11-09T22:21:33.427Z</time>
      </trkpt>
      <trkpt lat="47.540794" lon="8.098369">
        <ele>358.609060</ele>
        <time>2021-11-09T22:21:36.175Z</time>
      </trkpt>
      <trkpt lat="47.541022" lon="8.098264">
        <ele>358.251467</ele>
        <time>2021-11-09T22:21:39.078Z</time>
      </trkpt>
      <trkpt lat="47.541294" lon="8.098103">
        <ele>357.812779</ele>
        <time>2021-11-09T22:21:42.734Z</time>
      </trkpt>
      <trkpt lat="47.541736" lon="8.097846">
        <ele>357.319878</ele>
        <time>2021-11-09T22:21:48.907Z</time>
      </trkpt>
      <trkpt lat="47.541891" lon="8.097778">
        <ele>357.262099</ele>
        <time>2021-11-09T22:21:51.094Z</time>
      </trkpt>
      <trkpt lat="47.541972" lon="8.097739">
        <ele>357.231657</ele>
        <time>2021-11-09T22:21:52.265Z</time>
      </trkpt>
      <trkpt lat="47.542782" lon="8.097415">
        <ele>356.931773</ele>
        <time>2021-11-09T22:22:04.388Z</time>
      </trkpt>
      <trkpt lat="47.542861" lon="8.097354">
        <ele>356.899931</ele>
        <time>2021-11-09T22:22:05.736Z</time>
      </trkpt>
      <trkpt lat="47.543428" lon="8.096918">
        <ele>356.501304</ele>
        <time>2021-11-09T22:22:14.434Z</time>
      </trkpt>
      <trkpt lat="47.543978" lon="8.096443">
        <ele>355.748778</ele>
        <time>2021-11-09T22:22:22.157Z</time>
      </trkpt>
      <trkpt lat="47.544419" lon="8.096063">
        <ele>355.145737</ele>
        <time>2021-11-09T22:22:28.197Z</time>
      </trkpt>
      <trkpt lat="47.544594" lon="8.095912">
        <ele>354.906352</ele>
        <time>2021-11-09T22:22:30.480Z</time>
      </trkpt>
      <trkpt lat="47.545126" lon="8.095450">
        <ele>353.702462</ele>
        <time>2021-11-09T22:22:37.407Z</time>
      </trkpt>
      <trkpt lat="47.545895" lon="8.094509">
        <ele>351.256377</ele>
        <time>2021-11-09T22:22:48.251Z</time>
      </trkpt>
      <trkpt lat="47.546338" lon="8.093908">
        <ele>349.472567</ele>
        <time>2021-11-09T22:22:54.223Z</time>
      </trkpt>
      <trkpt lat="47.546508" lon="8.093680">
        <ele>348.499137</ele>
        <time>2021-11-09T22:22:56.470Z</time>
      </trkpt>
      <trkpt lat="47.546922" lon="8.093131">
        <ele>346.140530</ele>
        <time>2021-11-09T22:23:01.850Z</time>
      </trkpt>
      <trkpt lat="47.547048" lon="8.092964">
        <ele>345.422861</ele>
        <time>2021-11-09T22:23:03.431Z</time>
      </trkpt>
      <trkpt lat="47.547127" lon="8.092859">
        <ele>344.972333</ele>
        <time>2021-11-09T22:23:04.445Z</time>
      </trkpt>
      <trkpt lat="47.547403" lon="8.092513">
        <ele>343.437561</ele>
        <time>2021-11-09T22:23:07.912Z</time>
      </trkpt>
      <trkpt lat="47.547479" lon="8.092413">
        <ele>343.006075</ele>
        <time>2021-11-09T22:23:08.945Z</time>
      </trkpt>
      <trkpt lat="47.547688" lon="8.092136">
        <ele>341.990171</ele>
        <time>2021-11-09T22:23:11.594Z</time>
      </trkpt>
      <trkpt lat="47.548109" lon="8.091607">
        <ele>340.186709</ele>
        <time>2021-11-09T22:23:16.826Z</time>
      </trkpt>
      <trkpt lat="47.548580" lon="8.090994">
        <ele>338.138556</ele>
        <time>2021-11-09T22:23:23.166Z</time>
      </trkpt>
      <trkpt lat="47.548932" lon="8.090552">
        <ele>336.705828</ele>
        <time>2021-11-09T22:23:28.314Z</time>
      </trkpt>
      <trkpt lat="47.549330" lon="8.090206">
        <ele>336.909515</ele>
        <time>2021-11-09T22:23:34.390Z</time>
      </trkpt>
      <trkpt lat="47.549689" lon="8.090023">
        <ele>337.077094</ele>
        <time>2021-11-09T22:23:40.363Z</time>
      </trkpt>
      <trkpt lat="47.549751" lon="8.090009">
        <ele>337.104777</ele>
        <time>2021-11-09T22:23:41.166Z</time>
      </trkpt>
      <trkpt lat="47.549991" lon="8.089942">
        <ele>337.212577</ele>
        <time>2021-11-09T22:23:45.702Z</time>
      </trkpt>
      <trkpt lat="47.550176" lon="8.089890">
        <ele>337.295692</ele>
        <time>2021-11-09T22:23:49.320Z</time>
      </trkpt>
      <trkpt lat="47.550657" lon="8.089793">
        <ele>337.534303</ele>
        <time>2021-11-09T22:24:00.592Z</time>
      </trkpt>
      <trkpt lat="47.551496" lon="8.089843">
        <ele>338.377040</ele>
        <time>2021-11-09T22:24:20.419Z</time>
      </trkpt>
      <trkpt lat="47.552086" lon="8.089915">
        <ele>338.971195</ele>
        <time>2021-11-09T22:24:33.205Z</time>
      </trkpt>
      <trkpt lat="47.553684" lon="8.090132">
        <ele>334.569135</ele>
        <time>2021-11-09T22:24:50.549Z</time>
      </trkpt>
      <trkpt lat="47.554025" lon="8.090156">
        <ele>333.309440</ele>
        <time>2021-11-09T22:24:53.676Z</time>
      </trkpt>
      <trkpt lat="47.554276" lon="8.090130">
        <ele>331.996254</ele>
        <time>2021-11-09T22:24:55.880Z</time>
      </trkpt>
      <trkpt lat="47.554514" lon="8.090062">
        <ele>329.864632</ele>
        <time>2021-11-09T22:24:58.003Z</time>
      </trkpt>
      <trkpt lat="47.554750" lon="8.089964">
        <ele>327.709192</ele>
        <time>2021-11-09T22:25:00.155Z</time>
      </trkpt>
      <trkpt lat="47.554777" lon="8.090048">
        <ele>327.156977</ele>
        <time>2021-11-09T22:25:00.916Z</time>
      </trkpt>
      <trkpt lat="47.554799" lon="8.090151">
        <ele>326.515765</ele>
        <time>2021-11-09T22:25:01.770Z</time>
      </trkpt>
      <trkpt lat="47.554832" lon="8.090226">
        <ele>325.984376</ele>
        <time>2021-11-09T22:25:02.502Z</time>
      </trkpt>
      <trkpt lat="47.554885" lon="8.090276">
        <ele>325.431820</ele>
        <time>2021-11-09T22:25:03.254Z</time>
      </trkpt>
      <trkpt lat="47.555031" lon="8.090308">
        <ele>324.133868</ele>
        <time>2021-11-09T22:25:05.153Z</time>
      </trkpt>
      <trkpt lat="47.555112" lon="8.090313">
        <ele>323.420904</ele>
        <time>2021-11-09T22:25:06.094Z</time>
      </trkpt>
      <trkpt lat="47.555198" lon="8.090321">
        <ele>322.663098</ele>
        <time>2021-11-09T22:25:07.121Z</time>
      </trkpt>
      <trkpt lat="47.555337" lon="8.090325">
        <ele>321.440447</ele>
        <time>2021-11-09T22:25:08.884Z</time>
      </trkpt>
      <trkpt lat="47.555380" lon="8.090319">
        <ele>321.060615</ele>
        <time>2021-11-09T22:25:09.425Z</time>
      </trkpt>
      <trkpt lat="47.555442" lon="8.090309">
        <ele>320.512142</ele>
        <time>2021-11-09T22:25:10.150Z</time>
      </trkpt>
      <trkpt lat="47.555709" lon="8.090186">
        <ele>318.053175</ele>
        <time>2021-11-09T22:25:13.651Z</time>
      </trkpt>
      <trkpt lat="47.555814" lon="8.090101">
        <ele>317.000944</ele>
        <time>2021-11-09T22:25:15.104Z</time>
      </trkpt>
      <trkpt lat="47.555958" lon="8.089981">
        <ele>316.281356</ele>
        <time>2021-11-09T22:25:16.584Z</time>
      </trkpt>
      <trkpt lat="47.556008" lon="8.089933">
        <ele>316.054543</ele>
        <time>2021-11-09T22:25:17.172Z</time>
      </trkpt>
      <trkpt lat="47.556049" lon="8.089894">
        <ele>315.869058</ele>
        <time>2021-11-09T22:25:17.635Z</time>
      </trkpt>
      <trkpt lat="47.556110" lon="8.089809">
        <ele>315.550270</ele>
        <time>2021-11-09T22:25:18.356Z</time>
      </trkpt>
      <trkpt lat="47.556137" lon="8.089730">
        <ele>315.322752</ele>
        <time>2021-11-09T22:25:18.925Z</time>
      </trkpt>
      <trkpt lat="47.556151" lon="8.089459">
        <ele>314.624440</ele>
        <time>2021-11-09T22:25:20.740Z</time>
      </trkpt>
      <trkpt lat="47.556111" lon="8.089266">
        <ele>314.105712</ele>
        <time>2021-11-09T22:25:21.914Z</time>
      </trkpt>
      <trkpt lat="47.556065" lon="8.089084">
        <ele>313.606384</ele>
        <time>2021-11-09T22:25:23.189Z</time>
      </trkpt>
      <trkpt lat="47.555997" lon="8.088801">
        <ele>312.834564</ele>
        <time>2021-11-09T22:25:25.142Z</time>
      </trkpt>
      <trkpt lat="47.555991" lon="8.088778">
        <ele>312.771209</ele>
        <time>2021-11-09T22:25:25.371Z</time>
      </trkpt>
      <trkpt lat="47.555939" lon="8.088552">
        <ele>312.157729</ele>
        <time>2021-11-09T22:25:27.153Z</time>
      </trkpt>
      <trkpt lat="47.555887" lon="8.088299">
        <ele>311.478220</ele>
        <time>2021-11-09T22:25:29.334Z</time>
      </trkpt>
      <trkpt lat="47.555829" lon="8.087941">
        <ele>310.532279</ele>
        <time>2021-11-09T22:25:32.600Z</time>
      </trkpt>
      <trkpt lat="47.555809" lon="8.087783">
        <ele>310.119251</ele>
        <time>2021-11-09T22:25:34.400Z</time>
      </trkpt>
      <trkpt lat="47.555780" lon="8.087557">
        <ele>310.381941</ele>
        <time>2021-11-09T22:25:36.564Z</time>
      </trkpt>
      <trkpt lat="47.555737" lon="8.087083">
        <ele>311.407470</ele>
        <time>2021-11-09T22:25:44.191Z</time>
      </trkpt>
      <trkpt lat="47.555733" lon="8.086819">
        <ele>311.973701</ele>
        <time>2021-11-09T22:25:49.213Z</time>
      </trkpt>
      <trkpt lat="47.555764" lon="8.085769">
        <ele>314.227344</ele>
        <time>2021-11-09T22:26:11.049Z</time>
      </trkpt>
      <trkpt lat="47.555899" lon="8.084472">
        <ele>317.809536</ele>
        <time>2021-11-09T22:26:40.460Z</time>
      </trkpt>
      <trkpt lat="47.555956" lon="8.084115">
        <ele>319.049512</ele>
        <time>2021-11-09T22:26:49.214Z</time>
      </trkpt>
      <trkpt lat="47.556083" lon="8.083354">
        <ele>321.699180</ele>
        <time>2021-11-09T22:27:07.412Z</time>
      </trkpt>
      <trkpt lat="47.556470" lon="8.081563">
        <ele>327.597213</ele>
        <time>2021-11-09T22:27:54.141Z</time>
      </trkpt>
      <trkpt lat="47.556853" lon="8.080477">
        <ele>331.170391</ele>
        <time>2021-11-09T22:28:20.214Z</time>
      </trkpt>
      <trkpt lat="47.557099" lon="8.079786">
        <ele>332.662787</ele>
        <time>2021-11-09T22:28:34.539Z</time>
      </trkpt>
      <trkpt lat="47.557256" lon="8.079416">
        <ele>332.894062</ele>
        <time>2021-11-09T22:28:41.259Z</time>
      </trkpt>
      <trkpt lat="47.557793" lon="8.078299">
        <ele>333.619773</ele>
        <time>2021-11-09T22:28:57.560Z</time>
      </trkpt>
      <trkpt lat="47.558613" lon="8.076826">
        <ele>332.420415</ele>
        <time>2021-11-09T22:29:12.124Z</time>
      </trkpt>
      <trkpt lat="47.559046" lon="8.076086">
        <ele>331.372571</ele>
        <time>2021-11-09T22:29:19.504Z</time>
      </trkpt>
      <trkpt lat="47.559426" lon="8.075372">
        <ele>330.440108</ele>
        <time>2021-11-09T22:29:26.501Z</time>
      </trkpt>
      <trkpt lat="47.559811" lon="8.074398">
        <ele>329.307767</ele>
        <time>2021-11-09T22:29:35.395Z</time>
      </trkpt>
      <trkpt lat="47.560318" lon="8.072316">
        <ele>326.716382</ele>
        <time>2021-11-09T22:29:52.667Z</time>
      </trkpt>
      <trkpt lat="47.560524" lon="8.071179">
        <ele>325.194790</ele>
        <time>2021-11-09T22:30:01.233Z</time>
      </trkpt>
      <trkpt lat="47.560553" lon="8.071099">
        <ele>325.077417</ele>
        <time>2021-11-09T22:30:01.844Z</time>
      </trkpt>
      <trkpt lat="47.560584" lon="8.070919">
        <ele>324.828749</ele>
        <time>2021-11-09T22:30:03.154Z</time>
      </trkpt>
      <trkpt lat="47.560739" lon="8.070551">
        <ele>324.215543</ele>
        <time>2021-11-09T22:30:06.241Z</time>
      </trkpt>
      <trkpt lat="47.560864" lon="8.070015">
        <ele>323.413905</ele>
        <time>2021-11-09T22:30:10.263Z</time>
      </trkpt>
      <trkpt lat="47.560904" lon="8.069780">
        <ele>323.071315</ele>
        <time>2021-11-09T22:30:12.008Z</time>
      </trkpt>
      <trkpt lat="47.560998" lon="8.069237">
        <ele>322.278900</ele>
        <time>2021-11-09T22:30:16.088Z</time>
      </trkpt>
      <trkpt lat="47.561130" lon="8.068650">
        <ele>321.404285</ele>
        <time>2021-11-09T22:30:20.758Z</time>
      </trkpt>
      <trkpt lat="47.561187" lon="8.068256">
        <ele>321.096120</ele>
        <time>2021-11-09T22:30:24.033Z</time>
      </trkpt>
      <trkpt lat="47.561229" lon="8.067903">
        <ele>320.995351</ele>
        <time>2021-11-09T22:30:27.071Z</time>
      </trkpt>
      <trkpt lat="47.561265" lon="8.067435">
        <ele>320.862932</ele>
        <time>2021-11-09T22:30:31.053Z</time>
      </trkpt>
      <trkpt lat="47.561276" lon="8.067022">
        <ele>320.746736</ele>
        <time>2021-11-09T22:30:34.970Z</time>
      </trkpt>
      <trkpt lat="47.561253" lon="8.066385">
        <ele>320.567402</ele>
        <time>2021-11-09T22:30:41.485Z</time>
      </trkpt>
      <trkpt lat="47.561108" lon="8.065242">
        <ele>320.267350</ele>
        <time>2021-11-09T22:30:53.851Z</time>
      </trkpt>
      <trkpt lat="47.561017" lon="8.064820">
        <ele>320.162372</ele>
        <time>2021-11-09T22:30:58.491Z</time>
      </trkpt>
      <trkpt lat="47.560887" lon="8.064271">
        <ele>320.024504</ele>
        <time>2021-11-09T22:31:03.688Z</time>
      </trkpt>
      <trkpt lat="47.560806" lon="8.064037">
        <ele>319.962186</ele>
        <time>2021-11-09T22:31:05.957Z</time>
      </trkpt>
      <trkpt lat="47.560719" lon="8.063873">
        <ele>319.912754</ele>
        <time>2021-11-09T22:31:07.741Z</time>
      </trkpt>
      <trkpt lat="47.560392" lon="8.063300">
        <ele>319.673484</ele>
        <time>2021-11-09T22:31:14.038Z</time>
      </trkpt>
      <trkpt lat="47.560335" lon="8.063169">
        <ele>319.586298</ele>
        <time>2021-11-09T22:31:15.385Z</time>
      </trkpt>
      <trkpt lat="47.560443" lon="8.063042">
        <ele>319.472017</ele>
        <time>2021-11-09T22:31:17.054Z</time>
      </trkpt>
      <trkpt lat="47.560545" lon="8.062928">
        <ele>319.366120</ele>
        <time>2021-11-09T22:31:18.621Z</time>
      </trkpt>
      <trkpt lat="47.560580" lon="8.062890">
        <ele>319.330156</ele>
        <time>2021-11-09T22:31:19.156Z</time>
      </trkpt>
      <trkpt lat="47.560673" lon="8.062786">
        <ele>319.233583</ele>
        <time>2021-11-09T22:31:21.227Z</time>
      </trkpt>
      <trkpt lat="47.560765" lon="8.062729">
        <ele>319.150929</ele>
        <time>2021-11-09T22:31:22.979Z</time>
      </trkpt>
      <trkpt lat="47.560570" lon="8.061926">
        <ele>318.673578</ele>
        <time>2021-11-09T22:31:30.335Z</time>
      </trkpt>
      <trkpt lat="47.560335" lon="8.060984">
        <ele>318.192964</ele>
        <time>2021-11-09T22:31:38.664Z</time>
      </trkpt>
      <trkpt lat="47.560293" lon="8.060828">
        <ele>318.141989</ele>
        <time>2021-11-09T22:31:40.094Z</time>
      </trkpt>
      <trkpt lat="47.560262" lon="8.060729">
        <ele>318.108865</ele>
        <time>2021-11-09T22:31:41.049Z</time>
      </trkpt>
      <trkpt lat="47.560130" lon="8.060196">
        <ele>317.936550</ele>
        <time>2021-11-09T22:31:46.249Z</time>
      </trkpt>
      <trkpt lat="47.560069" lon="8.059943">
        <ele>317.855011</ele>
        <time>2021-11-09T22:31:48.661Z</time>
      </trkpt>
      <trkpt lat="47.560040" lon="8.059827">
        <ele>317.817467</ele>
        <time>2021-11-09T22:31:49.878Z</time>
      </trkpt>
      <trkpt lat="47.560019" lon="8.059741">
        <ele>317.789710</ele>
        <time>2021-11-09T22:31:50.768Z</time>
      </trkpt>
      <trkpt lat="47.559979" lon="8.059591">
        <ele>317.740759</ele>
        <time>2021-11-09T22:31:52.230Z</time>
      </trkpt>
      <trkpt lat="47.559859" lon="8.059093">
        <ele>317.580269</ele>
        <time>2021-11-09T22:31:57.252Z</time>
      </trkpt>
      <trkpt lat="47.559725" lon="8.058554">
        <ele>317.441532</ele>
        <time>2021-11-09T22:32:02.662Z</time>
      </trkpt>
      <trkpt lat="47.559654" lon="8.058257">
        <ele>317.391695</ele>
        <time>2021-11-09T22:32:05.618Z</time>
      </trkpt>
      <trkpt lat="47.559579" lon="8.057955">
        <ele>317.340796</ele>
        <time>2021-11-09T22:32:08.520Z</time>
      </trkpt>
      <trkpt lat="47.559548" lon="8.057827">
        <ele>317.319286</ele>
        <time>2021-11-09T22:32:09.820Z</time>
      </trkpt>
      <trkpt lat="47.559447" lon="8.057490">
        <ele>317.260962</ele>
        <time>2021-11-09T22:32:13.242Z</time>
      </trkpt>
      <trkpt lat="47.559394" lon="8.057366">
        <ele>317.237746</ele>
        <time>2021-11-09T22:32:14.701Z</time>
      </trkpt>
      <trkpt lat="47.559294" lon="8.057130">
        <ele>317.193669</ele>
        <time>2021-11-09T22:32:17.383Z</time>
      </trkpt>
      <trkpt lat="47.559116" lon="8.056760">
        <ele>317.121797</ele>
        <time>2021-11-09T22:32:21.823Z</time>
      </trkpt>
      <trkpt lat="47.558662" lon="8.056061">
        <ele>317.059402</ele>
        <time>2021-11-09T22:32:31.164Z</time>
      </trkpt>
      <trkpt lat="47.558447" lon="8.055831">
        <ele>317.059888</ele>
        <time>2021-11-09T22:32:34.695Z</time>
      </trkpt>
      <trkpt lat="47.558239" lon="8.055639">
        <ele>317.060336</ele>
        <time>2021-11-09T22:32:38.371Z</time>
      </trkpt>
      <trkpt lat="47.558012" lon="8.055477">
        <ele>317.060797</ele>
        <time>2021-11-09T22:32:42.015Z</time>
      </trkpt>
      <trkpt lat="47.557918" lon="8.055409">
        <ele>317.060988</ele>
        <time>2021-11-09T22:32:43.813Z</time>
      </trkpt>
      <trkpt lat="47.557710" lon="8.055283">
        <ele>317.061399</ele>
        <time>2021-11-09T22:32:47.179Z</time>
      </trkpt>
      <trkpt lat="47.557500" lon="8.055133">
        <ele>317.061825</ele>
        <time>2021-11-09T22:32:51.003Z</time>
      </trkpt>
      <trkpt lat="47.557273" lon="8.054941">
        <ele>317.048560</ele>
        <time>2021-11-09T22:32:55.243Z</time>
      </trkpt>
      <trkpt lat="47.557097" lon="8.054768">
        <ele>317.032152</ele>
        <time>2021-11-09T22:32:58.207Z</time>
      </trkpt>
      <trkpt lat="47.557019" lon="8.054678">
        <ele>317.024471</ele>
        <time>2021-11-09T22:33:00.013Z</time>
      </trkpt>
      <trkpt lat="47.556494" lon="8.054073">
        <ele>316.972801</ele>
        <time>2021-11-09T22:33:08.864Z</time>
      </trkpt>
      <trkpt lat="47.556239" lon="8.053780">
        <ele>316.947732</ele>
        <time>2021-11-09T22:33:13.270Z</time>
      </trkpt>
      <trkpt lat="47.556032" lon="8.053510">
        <ele>316.926307</ele>
        <time>2021-11-09T22:33:17.494Z</time>
      </trkpt>
      <trkpt lat="47.555890" lon="8.053286">
        <ele>317.004679</ele>
        <time>2021-11-09T22:33:21.131Z</time>
      </trkpt>
      <trkpt lat="47.555773" lon="8.053070">
        <ele>317.103964</ele>
        <time>2021-11-09T22:33:24.072Z</time>
      </trkpt>
      <trkpt lat="47.555603" lon="8.052757">
        <ele>317.247988</ele>
        <time>2021-11-09T22:33:28.294Z</time>
      </trkpt>
      <trkpt lat="47.555259" lon="8.052135">
        <ele>317.536263</ele>
        <time>2021-11-09T22:33:36.991Z</time>
      </trkpt>
      <trkpt lat="47.554988" lon="8.051475">
        <ele>317.813204</ele>
        <time>2021-11-09T22:33:45.982Z</time>
      </trkpt>
      <trkpt lat="47.554715" lon="8.050527">
        <ele>318.907523</ele>
        <time>2021-11-09T22:34:00.772Z</time>
      </trkpt>
      <trkpt lat="47.554412" lon="8.049127">
        <ele>320.686870</ele>
        <time>2021-11-09T22:34:23.333Z</time>
      </trkpt>
      <trkpt lat="47.554309" lon="8.048719">
        <ele>321.182113</ele>
        <time>2021-11-09T22:34:30.350Z</time>
      </trkpt>
      <trkpt lat="47.553996" lon="8.047557">
        <ele>322.260369</ele>
        <time>2021-11-09T22:34:49.580Z</time>
      </trkpt>
      <trkpt lat="47.553619" lon="8.046372">
        <ele>323.389418</ele>
        <time>2021-11-09T22:35:06.017Z</time>
      </trkpt>
      <trkpt lat="47.552844" lon="8.044355">
        <ele>322.072465</ele>
        <time>2021-11-09T22:35:25.947Z</time>
      </trkpt>
      <trkpt lat="47.551627" lon="8.041127">
        <ele>317.222648</ele>
        <time>2021-11-09T22:35:52.700Z</time>
      </trkpt>
      <trkpt lat="47.551167" lon="8.039905">
        <ele>315.678546</ele>
        <time>2021-11-09T22:36:03.330Z</time>
      </trkpt>
      <trkpt lat="47.551001" lon="8.039426">
        <ele>315.084332</ele>
        <time>2021-11-09T22:36:07.685Z</time>
      </trkpt>
      <trkpt lat="47.550515" lon="8.038174">
        <ele>315.250789</ele>
        <time>2021-11-09T22:36:21.389Z</time>
      </trkpt>
      <trkpt lat="47.550424" lon="8.037956">
        <ele>315.291762</ele>
        <time>2021-11-09T22:36:24.359Z</time>
      </trkpt>
      <trkpt lat="47.550111" lon="8.037123">
        <ele>315.444161</ele>
        <time>2021-11-09T22:36:36.726Z</time>
      </trkpt>
      <trkpt lat="47.549832" lon="8.036349">
        <ele>315.847310</ele>
        <time>2021-11-09T22:36:48.009Z</time>
      </trkpt>
      <trkpt lat="47.549753" lon="8.036077">
        <ele>315.990089</ele>
        <time>2021-11-09T22:36:51.497Z</time>
      </trkpt>
      <trkpt lat="47.549699" lon="8.035900">
        <ele>316.083747</ele>
        <time>2021-11-09T22:36:53.945Z</time>
      </trkpt>
      <trkpt lat="47.549632" lon="8.035633">
        <ele>316.221097</ele>
        <time>2021-11-09T22:36:57.431Z</time>
      </trkpt>
      <trkpt lat="47.549554" lon="8.035288">
        <ele>316.396533</ele>
        <time>2021-11-09T22:37:01.723Z</time>
      </trkpt>
      <trkpt lat="47.549494" lon="8.034935">
        <ele>316.572055</ele>
        <time>2021-11-09T22:37:05.707Z</time>
      </trkpt>
      <trkpt lat="47.549442" lon="8.034584">
        <ele>316.739052</ele>
        <time>2021-11-09T22:37:09.563Z</time>
      </trkpt>
      <trkpt lat="47.549395" lon="8.034029">
        <ele>316.742337</ele>
        <time>2021-11-09T22:37:15.623Z</time>
      </trkpt>
      <trkpt lat="47.549394" lon="8.034003">
        <ele>316.742490</ele>
        <time>2021-11-09T22:37:15.938Z</time>
      </trkpt>
      <trkpt lat="47.549386" lon="8.033799">
        <ele>316.743690</ele>
        <time>2021-11-09T22:37:18.104Z</time>
      </trkpt>
      <trkpt lat="47.549374" lon="8.033423">
        <ele>316.745900</ele>
        <time>2021-11-09T22:37:21.737Z</time>
      </trkpt>
      <trkpt lat="47.549363" lon="8.032869">
        <ele>316.749155</ele>
        <time>2021-11-09T22:37:26.992Z</time>
      </trkpt>
      <trkpt lat="47.549368" lon="8.032544">
        <ele>316.751064</ele>
        <time>2021-11-09T22:37:29.967Z</time>
      </trkpt>
      <trkpt lat="47.549372" lon="8.031883">
        <ele>316.765422</ele>
        <time>2021-11-09T22:37:36.323Z</time>
      </trkpt>
      <trkpt lat="47.549378" lon="8.030790">
        <ele>316.980615</ele>
        <time>2021-11-09T22:37:47.653Z</time>
      </trkpt>
      <trkpt lat="47.549380" lon="8.030702">
        <ele>316.997949</ele>
        <time>2021-11-09T22:37:48.492Z</time>
      </trkpt>
      <trkpt lat="47.549418" lon="8.028906">
        <ele>317.428871</ele>
        <time>2021-11-09T22:38:09.200Z</time>
      </trkpt>
      <trkpt lat="47.549431" lon="8.028306">
        <ele>317.672932</ele>
        <time>2021-11-09T22:38:15.943Z</time>
      </trkpt>
      <trkpt lat="47.549445" lon="8.027599">
        <ele>317.960492</ele>
        <time>2021-11-09T22:38:24.121Z</time>
      </trkpt>
      <trkpt lat="47.549454" lon="8.027138">
        <ele>318.147994</ele>
        <time>2021-11-09T22:38:29.647Z</time>
      </trkpt>
      <trkpt lat="47.549436" lon="8.026046">
        <ele>318.485702</ele>
        <time>2021-11-09T22:38:42.931Z</time>
      </trkpt>
      <trkpt lat="47.549322" lon="8.024323">
        <ele>318.863152</ele>
        <time>2021-11-09T22:39:01.536Z</time>
      </trkpt>
      <trkpt lat="47.549268" lon="8.023385">
        <ele>318.765102</ele>
        <time>2021-11-09T22:39:10.983Z</time>
      </trkpt>
      <trkpt lat="47.549201" lon="8.022146">
        <ele>318.377140</ele>
        <time>2021-11-09T22:39:22.200Z</time>
      </trkpt>
      <trkpt lat="47.549191" lon="8.021436">
        <ele>318.155482</ele>
        <time>2021-11-09T22:39:28.167Z</time>
      </trkpt>
      <trkpt lat="47.549186" lon="8.021006">
        <ele>317.843763</ele>
        <time>2021-11-09T22:39:31.751Z</time>
      </trkpt>
      <trkpt lat="47.549208" lon="8.019997">
        <ele>316.911794</ele>
        <time>2021-11-09T22:39:39.985Z</time>
      </trkpt>
      <trkpt lat="47.549261" lon="8.017878">
        <ele>314.958283</ele>
        <time>2021-11-09T22:39:56.107Z</time>
      </trkpt>
      <trkpt lat="47.549256" lon="8.017769">
        <ele>314.858009</ele>
        <time>2021-11-09T22:39:56.971Z</time>
      </trkpt>
      <trkpt lat="47.549291" lon="8.017761">
        <ele>314.809852</ele>
        <time>2021-11-09T22:39:57.368Z</time>
      </trkpt>
      <trkpt lat="47.549324" lon="8.017738">
        <ele>314.760260</ele>
        <time>2021-11-09T22:39:57.757Z</time>
      </trkpt>
      <trkpt lat="47.549351" lon="8.017702">
        <ele>314.710866</ele>
        <time>2021-11-09T22:39:58.160Z</time>
      </trkpt>
      <trkpt lat="47.549370" lon="8.017656">
        <ele>314.661367</ele>
        <time>2021-11-09T22:39:58.619Z</time>
      </trkpt>
      <trkpt lat="47.549379" lon="8.017603">
        <ele>314.611207</ele>
        <time>2021-11-09T22:39:59.024Z</time>
      </trkpt>
      <trkpt lat="47.549377" lon="8.017547">
        <ele>314.559736</ele>
        <time>2021-11-09T22:39:59.582Z</time>
      </trkpt>
      <trkpt lat="47.549310" lon="8.017418">
        <ele>314.410340</ele>
        <time>2021-11-09T22:40:00.929Z</time>
      </trkpt>
      <trkpt lat="47.549274" lon="8.017401">
        <ele>314.358959</ele>
        <time>2021-11-09T22:40:01.410Z</time>
      </trkpt>
      <trkpt lat="47.549281" lon="8.017304">
        <ele>314.269423</ele>
        <time>2021-11-09T22:40:02.126Z</time>
      </trkpt>
      <trkpt lat="47.549431" lon="8.015998">
        <ele>313.059335</ele>
        <time>2021-11-09T22:40:12.871Z</time>
      </trkpt>
      <trkpt lat="47.549589" lon="8.015316">
        <ele>312.422823</ele>
        <time>2021-11-09T22:40:18.714Z</time>
      </trkpt>
      <trkpt lat="47.549795" lon="8.014667">
        <ele>311.789732</ele>
        <time>2021-11-09T22:40:24.530Z</time>
      </trkpt>
      <trkpt lat="47.549871" lon="8.014427">
        <ele>311.555715</ele>
        <time>2021-11-09T22:40:26.665Z</time>
      </trkpt>
      <trkpt lat="47.550001" lon="8.014034">
        <ele>311.169373</ele>
        <time>2021-11-09T22:40:30.053Z</time>
      </trkpt>
      <trkpt lat="47.550565" lon="8.012461">
        <ele>309.745529</ele>
        <time>2021-11-09T22:40:43.661Z</time>
      </trkpt>
      <trkpt lat="47.550764" lon="8.011985">
        <ele>309.309673</ele>
        <time>2021-11-09T22:40:48.160Z</time>
      </trkpt>
      <trkpt lat="47.551187" lon="8.011080">
        <ele>308.961957</ele>
        <time>2021-11-09T22:40:58.278Z</time>
      </trkpt>
      <trkpt lat="47.551275" lon="8.010934">
        <ele>309.047315</ele>
        <time>2021-11-09T22:41:00.088Z</time>
      </trkpt>
      <trkpt lat="47.551902" lon="8.009884">
        <ele>309.658665</ele>
        <time>2021-11-09T22:41:17.042Z</time>
      </trkpt>
      <trkpt lat="47.552604" lon="8.008677">
        <ele>310.247375</ele>
        <time>2021-11-09T22:41:39.523Z</time>
      </trkpt>
      <trkpt lat="47.552640" lon="8.008615">
        <ele>310.273862</ele>
        <time>2021-11-09T22:41:41.108Z</time>
      </trkpt>
      <trkpt lat="47.552935" lon="8.007851">
        <ele>310.558911</ele>
        <time>2021-11-09T22:41:50.707Z</time>
      </trkpt>
      <trkpt lat="47.553173" lon="8.006642">
        <ele>310.530089</ele>
        <time>2021-11-09T22:42:01.510Z</time>
      </trkpt>
      <trkpt lat="47.553211" lon="8.006270">
        <ele>310.324480</ele>
        <time>2021-11-09T22:42:04.723Z</time>
      </trkpt>
      <trkpt lat="47.553220" lon="8.006182">
        <ele>310.275840</ele>
        <time>2021-11-09T22:42:05.314Z</time>
      </trkpt>
      <trkpt lat="47.553251" lon="8.005657">
        <ele>309.987839</ele>
        <time>2021-11-09T22:42:09.562Z</time>
      </trkpt>
      <trkpt lat="47.553256" lon="8.004837">
        <ele>309.539701</ele>
        <time>2021-11-09T22:42:16.487Z</time>
      </trkpt>
      <trkpt lat="47.553266" lon="8.003502">
        <ele>309.666223</ele>
        <time>2021-11-09T22:42:29.074Z</time>
      </trkpt>
      <trkpt lat="47.553270" lon="8.002465">
        <ele>310.001710</ele>
        <time>2021-11-09T22:42:41.745Z</time>
      </trkpt>
      <trkpt lat="47.553271" lon="8.002109">
        <ele>310.116882</ele>
        <time>2021-11-09T22:42:46.723Z</time>
      </trkpt>
      <trkpt lat="47.553273" lon="8.001687">
        <ele>310.254335</ele>
        <time>2021-11-09T22:42:52.404Z</time>
      </trkpt>
      <trkpt lat="47.553275" lon="7.999860">
        <ele>310.858040</ele>
        <time>2021-11-09T22:43:14.590Z</time>
      </trkpt>
      <trkpt lat="47.553278" lon="7.999508">
        <ele>310.974363</ele>
        <time>2021-11-09T22:43:18.137Z</time>
      </trkpt>
      <trkpt lat="47.553287" lon="7.998380">
        <ele>310.440944</ele>
        <time>2021-11-09T22:43:27.903Z</time>
      </trkpt>
      <trkpt lat="47.553287" lon="7.997190">
        <ele>309.444762</ele>
        <time>2021-11-09T22:43:37.203Z</time>
      </trkpt>
      <trkpt lat="47.553279" lon="7.996528">
        <ele>308.890495</ele>
        <time>2021-11-09T22:43:42.218Z</time>
      </trkpt>
      <trkpt lat="47.553268" lon="7.996252">
        <ele>308.638455</ele>
        <time>2021-11-09T22:43:44.291Z</time>
      </trkpt>
      <trkpt lat="47.553246" lon="7.995617">
        <ele>308.051555</ele>
        <time>2021-11-09T22:43:49.142Z</time>
      </trkpt>
      <trkpt lat="47.553164" lon="7.993925">
        <ele>306.485755</ele>
        <time>2021-11-09T22:44:02.471Z</time>
      </trkpt>
      <trkpt lat="47.553156" lon="7.993696">
        <ele>306.331475</ele>
        <time>2021-11-09T22:44:04.470Z</time>
      </trkpt>
      <trkpt lat="47.553137" lon="7.993190">
        <ele>306.077280</ele>
        <time>2021-11-09T22:44:08.926Z</time>
      </trkpt>
      <trkpt lat="47.553130" lon="7.993014">
        <ele>305.988848</ele>
        <time>2021-11-09T22:44:10.528Z</time>
      </trkpt>
      <trkpt lat="47.553107" lon="7.992226">
        <ele>305.593227</ele>
        <time>2021-11-09T22:44:17.758Z</time>
      </trkpt>
      <trkpt lat="47.553091" lon="7.991915">
        <ele>305.436781</ele>
        <time>2021-11-09T22:44:20.907Z</time>
      </trkpt>
      <trkpt lat="47.553050" lon="7.990744">
        <ele>304.302753</ele>
        <time>2021-11-09T22:44:30.600Z</time>
      </trkpt>
      <trkpt lat="47.553126" lon="7.990240">
        <ele>303.384168</ele>
        <time>2021-11-09T22:44:34.512Z</time>
      </trkpt>
      <trkpt lat="47.553146" lon="7.990113">
        <ele>303.152202</ele>
        <time>2021-11-09T22:44:35.441Z</time>
      </trkpt>
      <trkpt lat="47.553163" lon="7.990004">
        <ele>302.953211</ele>
        <time>2021-11-09T22:44:36.226Z</time>
      </trkpt>
      <trkpt lat="47.553214" lon="7.989758">
        <ele>302.495465</ele>
        <time>2021-11-09T22:44:38.005Z</time>
      </trkpt>
      <trkpt lat="47.553253" lon="7.989578">
        <ele>302.159200</ele>
        <time>2021-11-09T22:44:39.294Z</time>
      </trkpt>
      <trkpt lat="47.553352" lon="7.989142">
        <ele>301.340961</ele>
        <time>2021-11-09T22:44:42.390Z</time>
      </trkpt>
      <trkpt lat="47.553424" lon="7.988762">
        <ele>300.638916</ele>
        <time>2021-11-09T22:44:45.035Z</time>
      </trkpt>
      <trkpt lat="47.553410" lon="7.988607">
        <ele>300.360756</ele>
        <time>2021-11-09T22:44:46.067Z</time>
      </trkpt>
      <trkpt lat="47.553343" lon="7.988401">
        <ele>299.824022</ele>
        <time>2021-11-09T22:44:47.589Z</time>
      </trkpt>
      <trkpt lat="47.553232" lon="7.988247">
        <ele>299.281939</ele>
        <time>2021-11-09T22:44:49.060Z</time>
      </trkpt>
      <trkpt lat="47.552867" lon="7.987810">
        <ele>297.609082</ele>
        <time>2021-11-09T22:44:53.629Z</time>
      </trkpt>
      <trkpt lat="47.552713" lon="7.987638">
        <ele>296.921599</ele>
        <time>2021-11-09T22:44:55.466Z</time>
      </trkpt>
      <trkpt lat="47.552504" lon="7.987369">
        <ele>295.934701</ele>
        <time>2021-11-09T22:44:58.177Z</time>
      </trkpt>
      <trkpt lat="47.552436" lon="7.987273">
        <ele>295.599873</ele>
        <time>2021-11-09T22:44:59.120Z</time>
      </trkpt>
      <trkpt lat="47.552224" lon="7.986975">
        <ele>294.558141</ele>
        <time>2021-11-09T22:45:02.105Z</time>
      </trkpt>
      <trkpt lat="47.552152" lon="7.986883">
        <ele>294.219210</ele>
        <time>2021-11-09T22:45:03.085Z</time>
      </trkpt>
      <trkpt lat="47.551971" lon="7.986555">
        <ele>293.951679</ele>
        <time>2021-11-09T22:45:06.084Z</time>
      </trkpt>
      <trkpt lat="47.551917" lon="7.986288">
        <ele>293.990239</ele>
        <time>2021-11-09T22:45:08.164Z</time>
      </trkpt>
      <trkpt lat="47.551915" lon="7.986209">
        <ele>294.001175</ele>
        <time>2021-11-09T22:45:08.725Z</time>
      </trkpt>
      <trkpt lat="47.551898" lon="7.985654">
        <ele>294.078034</ele>
        <time>2021-11-09T22:45:14.233Z</time>
      </trkpt>
      <trkpt lat="47.551939" lon="7.985151">
        <ele>294.148126</ele>
        <time>2021-11-09T22:45:20.388Z</time>
      </trkpt>
      <trkpt lat="47.551934" lon="7.984260">
        <ele>294.271392</ele>
        <time>2021-11-09T22:45:33.975Z</time>
      </trkpt>
      <trkpt lat="47.551993" lon="7.984014">
        <ele>294.658232</ele>
        <time>2021-11-09T22:45:37.579Z</time>
      </trkpt>
      <trkpt lat="47.552007" lon="7.983931">
        <ele>294.818138</ele>
        <time>2021-11-09T22:45:39.153Z</time>
      </trkpt>
      <trkpt lat="47.552005" lon="7.983849">
        <ele>294.971504</ele>
        <time>2021-11-09T22:45:41.235Z</time>
      </trkpt>
      <trkpt lat="47.551911" lon="7.983632">
        <ele>295.453451</ele>
        <time>2021-11-09T22:45:45.428Z</time>
      </trkpt>
      <trkpt lat="47.551892" lon="7.983447">
        <ele>295.803215</ele>
        <time>2021-11-09T22:45:48.772Z</time>
      </trkpt>
      <trkpt lat="47.551861" lon="7.981113">
        <ele>299.514987</ele>
        <time>2021-11-09T22:46:32.062Z</time>
      </trkpt>
      <trkpt lat="47.551865" lon="7.980584">
        <ele>299.792677</ele>
        <time>2021-11-09T22:46:38.703Z</time>
      </trkpt>
      <trkpt lat="47.551873" lon="7.980135">
        <ele>300.028440</ele>
        <time>2021-11-09T22:46:43.459Z</time>
      </trkpt>
      <trkpt lat="47.551933" lon="7.979363">
        <ele>300.436341</ele>
        <time>2021-11-09T22:46:51.818Z</time>
      </trkpt>
      <trkpt lat="47.551923" lon="7.979308">
        <ele>300.466240</ele>
        <time>2021-11-09T22:46:52.186Z</time>
      </trkpt>
      <trkpt lat="47.551901" lon="7.979190">
        <ele>300.530498</ele>
        <time>2021-11-09T22:46:53.157Z</time>
      </trkpt>
      <trkpt lat="47.551829" lon="7.976305">
        <ele>299.757309</ele>
        <time>2021-11-09T22:47:18.205Z</time>
      </trkpt>
      <trkpt lat="47.551793" lon="7.974325">
        <ele>299.983547</ele>
        <time>2021-11-09T22:47:40.318Z</time>
      </trkpt>
      <trkpt lat="47.551755" lon="7.972603">
        <ele>299.778497</ele>
        <time>2021-11-09T22:47:57.617Z</time>
      </trkpt>
      <trkpt lat="47.551725" lon="7.970823">
        <ele>299.281264</ele>
        <time>2021-11-09T22:48:12.846Z</time>
      </trkpt>
      <trkpt lat="47.551734" lon="7.970034">
        <ele>299.122732</ele>
        <time>2021-11-09T22:48:19.805Z</time>
      </trkpt>
      <trkpt lat="47.551750" lon="7.968659">
        <ele>298.846454</ele>
        <time>2021-11-09T22:48:32.995Z</time>
      </trkpt>
      <trkpt lat="47.551825" lon="7.968445">
        <ele>298.798011</ele>
        <time>2021-11-09T22:48:35.248Z</time>
      </trkpt>
      <trkpt lat="47.551847" lon="7.968315">
        <ele>298.773326</ele>
        <time>2021-11-09T22:48:36.718Z</time>
      </trkpt>
      <trkpt lat="47.551839" lon="7.968208">
        <ele>298.797851</ele>
        <time>2021-11-09T22:48:37.920Z</time>
      </trkpt>
      <trkpt lat="47.551767" lon="7.967910">
        <ele>298.869957</ele>
        <time>2021-11-09T22:48:41.153Z</time>
      </trkpt>
      <trkpt lat="47.551902" lon="7.964650">
        <ele>299.442994</ele>
        <time>2021-11-09T22:49:17.554Z</time>
      </trkpt>
      <trkpt lat="47.551918" lon="7.963725">
        <ele>299.500237</ele>
        <time>2021-11-09T22:49:26.952Z</time>
      </trkpt>
      <trkpt lat="47.551906" lon="7.962453">
        <ele>299.359887</ele>
        <time>2021-11-09T22:49:38.882Z</time>
      </trkpt>
      <trkpt lat="47.551859" lon="7.961133">
        <ele>298.927399</ele>
        <time>2021-11-09T22:49:50.466Z</time>
      </trkpt>
      <trkpt lat="47.551894" lon="7.960729">
        <ele>298.794131</ele>
        <time>2021-11-09T22:49:54.217Z</time>
      </trkpt>
      <trkpt lat="47.551882" lon="7.960631">
        <ele>298.761543</ele>
        <time>2021-11-09T22:49:54.987Z</time>
      </trkpt>
      <trkpt lat="47.551865" lon="7.960528">
        <ele>298.726850</ele>
        <time>2021-11-09T22:49:55.933Z</time>
      </trkpt>
      <trkpt lat="47.551677" lon="7.960100">
        <ele>298.624714</ele>
        <time>2021-11-09T22:50:00.457Z</time>
      </trkpt>
      <trkpt lat="47.551300" lon="7.958844">
        <ele>298.434846</ele>
        <time>2021-11-09T22:50:13.368Z</time>
      </trkpt>
      <trkpt lat="47.550869" lon="7.957700">
        <ele>298.328903</ele>
        <time>2021-11-09T22:50:26.732Z</time>
      </trkpt>
      <trkpt lat="47.550745" lon="7.957569">
        <ele>298.344327</ele>
        <time>2021-11-09T22:50:28.971Z</time>
      </trkpt>
      <trkpt lat="47.550735" lon="7.957541">
        <ele>298.346493</ele>
        <time>2021-11-09T22:50:29.413Z</time>
      </trkpt>
      <trkpt lat="47.550613" lon="7.957254">
        <ele>298.369678</ele>
        <time>2021-11-09T22:50:32.751Z</time>
      </trkpt>
      <trkpt lat="47.550549" lon="7.957126">
        <ele>298.380567</ele>
        <time>2021-11-09T22:50:34.299Z</time>
      </trkpt>
      <trkpt lat="47.550445" lon="7.956918">
        <ele>298.398262</ele>
        <time>2021-11-09T22:50:36.972Z</time>
      </trkpt>
      <trkpt lat="47.550445" lon="7.956918">
        <ele>298.398262</ele>
        <time>2021-11-09T22:50:36.978Z</time>
      </trkpt>
      <trkpt lat="47.550445" lon="7.956918">
        <ele>298.398262</ele>
        <time>2021-11-09T22:50:37.036Z</time>
      </trkpt>
      <trkpt lat="47.550380" lon="7.956806">
        <ele>298.408359</ele>
        <time>2021-11-09T22:50:38.521Z</time>
      </trkpt>
      <trkpt lat="47.550205" lon="7.956552">
        <ele>298.433170</ele>
        <time>2021-11-09T22:50:42.231Z</time>
      </trkpt>
      <trkpt lat="47.549444" lon="7.955496">
        <ele>298.555155</ele>
        <time>2021-11-09T22:50:58.597Z</time>
      </trkpt>
      <trkpt lat="47.549157" lon="7.955099">
        <ele>298.607325</ele>
        <time>2021-11-09T22:51:04.397Z</time>
      </trkpt>
      <trkpt lat="47.549042" lon="7.954942">
        <ele>298.628103</ele>
        <time>2021-11-09T22:51:06.749Z</time>
      </trkpt>
      <trkpt lat="47.548833" lon="7.954652">
        <ele>298.666149</ele>
        <time>2021-11-09T22:51:11.105Z</time>
      </trkpt>
      <trkpt lat="47.548542" lon="7.954269">
        <ele>298.717866</ele>
        <time>2021-11-09T22:51:17.123Z</time>
      </trkpt>
      <trkpt lat="47.548342" lon="7.954009">
        <ele>298.796710</ele>
        <time>2021-11-09T22:51:21.305Z</time>
      </trkpt>
      <trkpt lat="47.548251" lon="7.953895">
        <ele>298.837131</ele>
        <time>2021-11-09T22:51:23.233Z</time>
      </trkpt>
      <trkpt lat="47.548115" lon="7.953729">
        <ele>298.896899</ele>
        <time>2021-11-09T22:51:26.102Z</time>
      </trkpt>
      <trkpt lat="47.547994" lon="7.953584">
        <ele>298.949685</ele>
        <time>2021-11-09T22:51:28.664Z</time>
      </trkpt>
      <trkpt lat="47.547871" lon="7.953437">
        <ele>299.003286</ele>
        <time>2021-11-09T22:51:31.255Z</time>
      </trkpt>
      <trkpt lat="47.547797" lon="7.953355">
        <ele>299.034630</ele>
        <time>2021-11-09T22:51:32.758Z</time>
      </trkpt>
      <trkpt lat="47.547624" lon="7.953160">
        <ele>299.108361</ele>
        <time>2021-11-09T22:51:36.251Z</time>
      </trkpt>
      <trkpt lat="47.547550" lon="7.953078">
        <ele>299.139705</ele>
        <time>2021-11-09T22:51:37.752Z</time>
      </trkpt>
      <trkpt lat="47.547458" lon="7.952975">
        <ele>299.178817</ele>
        <time>2021-11-09T22:51:39.580Z</time>
      </trkpt>
      <trkpt lat="47.547400" lon="7.952910">
        <ele>299.203484</ele>
        <time>2021-11-09T22:51:40.746Z</time>
      </trkpt>
      <trkpt lat="47.547090" lon="7.952543">
        <ele>299.337433</ele>
        <time>2021-11-09T22:51:47.135Z</time>
      </trkpt>
      <trkpt lat="47.546935" lon="7.952372">
        <ele>299.387845</ele>
        <time>2021-11-09T22:51:50.293Z</time>
      </trkpt>
      <trkpt lat="47.546776" lon="7.952185">
        <ele>299.440802</ele>
        <time>2021-11-09T22:51:53.735Z</time>
      </trkpt>
      <trkpt lat="47.546695" lon="7.952091">
        <ele>299.467642</ele>
        <time>2021-11-09T22:51:55.511Z</time>
      </trkpt>
      <trkpt lat="47.546634" lon="7.952024">
        <ele>299.487451</ele>
        <time>2021-11-09T22:51:56.833Z</time>
      </trkpt>
      <trkpt lat="47.546421" lon="7.951793">
        <ele>299.556310</ele>
        <time>2021-11-09T22:52:01.397Z</time>
      </trkpt>
      <trkpt lat="47.546231" lon="7.951558">
        <ele>299.620876</ele>
        <time>2021-11-09T22:52:05.554Z</time>
      </trkpt>
      <trkpt lat="47.546212" lon="7.951535">
        <ele>299.627276</ele>
        <time>2021-11-09T22:52:05.964Z</time>
      </trkpt>
      <trkpt lat="47.546135" lon="7.951406">
        <ele>299.657597</ele>
        <time>2021-11-09T22:52:07.727Z</time>
      </trkpt>
      <trkpt lat="47.545886" lon="7.951110">
        <ele>299.740877</ele>
        <time>2021-11-09T22:52:12.593Z</time>
      </trkpt>
      <trkpt lat="47.545824" lon="7.951061">
        <ele>299.759207</ele>
        <time>2021-11-09T22:52:13.642Z</time>
      </trkpt>
      <trkpt lat="47.545759" lon="7.950982">
        <ele>299.781139</ele>
        <time>2021-11-09T22:52:14.914Z</time>
      </trkpt>
      <trkpt lat="47.545727" lon="7.950947">
        <ele>299.791515</ele>
        <time>2021-11-09T22:52:15.651Z</time>
      </trkpt>
      <trkpt lat="47.545625" lon="7.950829">
        <ele>299.763955</ele>
        <time>2021-11-09T22:52:17.344Z</time>
      </trkpt>
      <trkpt lat="47.545567" lon="7.950765">
        <ele>299.727205</ele>
        <time>2021-11-09T22:52:18.346Z</time>
      </trkpt>
      <trkpt lat="47.545494" lon="7.950684">
        <ele>299.680858</ele>
        <time>2021-11-09T22:52:19.589Z</time>
      </trkpt>
      <trkpt lat="47.545434" lon="7.950668">
        <ele>299.649878</ele>
        <time>2021-11-09T22:52:20.576Z</time>
      </trkpt>
      <trkpt lat="47.545166" lon="7.950366">
        <ele>299.478771</ele>
        <time>2021-11-09T22:52:24.937Z</time>
      </trkpt>
      <trkpt lat="47.544901" lon="7.950044">
        <ele>299.304607</ele>
        <time>2021-11-09T22:52:29.172Z</time>
      </trkpt>
      <trkpt lat="47.544521" lon="7.949558">
        <ele>299.049502</ele>
        <time>2021-11-09T22:52:35.362Z</time>
      </trkpt>
      <trkpt lat="47.544239" lon="7.949202">
        <ele>298.959584</ele>
        <time>2021-11-09T22:52:40.269Z</time>
      </trkpt>
      <trkpt lat="47.543864" lon="7.948694">
        <ele>299.569713</ele>
        <time>2021-11-09T22:52:48.233Z</time>
      </trkpt>
      <trkpt lat="47.543760" lon="7.948548">
        <ele>299.741747</ele>
        <time>2021-11-09T22:52:50.475Z</time>
      </trkpt>
      <trkpt lat="47.543579" lon="7.948287">
        <ele>300.045028</ele>
        <time>2021-11-09T22:52:56.193Z</time>
      </trkpt>
      <trkpt lat="47.543532" lon="7.948214">
        <ele>300.126792</ele>
        <time>2021-11-09T22:52:57.319Z</time>
      </trkpt>
      <trkpt lat="47.543435" lon="7.948000">
        <ele>300.335715</ele>
        <time>2021-11-09T22:53:00.381Z</time>
      </trkpt>
      <trkpt lat="47.543407" lon="7.947938">
        <ele>300.396176</ele>
        <time>2021-11-09T22:53:02.238Z</time>
      </trkpt>
      <trkpt lat="47.543280" lon="7.947656">
        <ele>300.670936</ele>
        <time>2021-11-09T22:53:06.725Z</time>
      </trkpt>
      <trkpt lat="47.543142" lon="7.947250">
        <ele>301.039365</ele>
        <time>2021-11-09T22:53:14.586Z</time>
      </trkpt>
      <trkpt lat="47.543086" lon="7.947052">
        <ele>301.417471</ele>
        <time>2021-11-09T22:53:18.046Z</time>
      </trkpt>
      <trkpt lat="47.543056" lon="7.946935">
        <ele>301.645725</ele>
        <time>2021-11-09T22:53:20.838Z</time>
      </trkpt>
      <trkpt lat="47.543045" lon="7.946881">
        <ele>301.748594</ele>
        <time>2021-11-09T22:53:21.973Z</time>
      </trkpt>
      <trkpt lat="47.542982" lon="7.946547">
        <ele>302.381063</ele>
        <time>2021-11-09T22:53:27.666Z</time>
      </trkpt>
      <trkpt lat="47.542974" lon="7.946495">
        <ele>302.478330</ele>
        <time>2021-11-09T22:53:29.264Z</time>
      </trkpt>
      <trkpt lat="47.542960" lon="7.946400">
        <ele>302.655668</ele>
        <time>2021-11-09T22:53:31.254Z</time>
      </trkpt>
      <trkpt lat="47.542916" lon="7.945730">
        <ele>303.883357</ele>
        <time>2021-11-09T22:53:44.081Z</time>
      </trkpt>
      <trkpt lat="47.542913" lon="7.945267">
        <ele>304.727797</ele>
        <time>2021-11-09T22:53:52.359Z</time>
      </trkpt>
      <trkpt lat="47.542922" lon="7.945139">
        <ele>304.962502</ele>
        <time>2021-11-09T22:53:54.680Z</time>
      </trkpt>
      <trkpt lat="47.543007" lon="7.943867">
        <ele>306.186940</ele>
        <time>2021-11-09T22:54:13.677Z</time>
      </trkpt>
      <trkpt lat="47.543161" lon="7.942213">
        <ele>306.797253</ele>
        <time>2021-11-09T22:54:31.638Z</time>
      </trkpt>
      <trkpt lat="47.543435" lon="7.940670">
        <ele>305.671433</ele>
        <time>2021-11-09T22:54:44.517Z</time>
      </trkpt>
      <trkpt lat="47.543826" lon="7.939433">
        <ele>304.433677</ele>
        <time>2021-11-09T22:54:54.918Z</time>
      </trkpt>
      <trkpt lat="47.544472" lon="7.937932">
        <ele>302.260094</ele>
        <time>2021-11-09T22:55:08.242Z</time>
      </trkpt>
      <trkpt lat="47.544705" lon="7.937395">
        <ele>301.480634</ele>
        <time>2021-11-09T22:55:13.082Z</time>
      </trkpt>
      <trkpt lat="47.544903" lon="7.936917">
        <ele>300.873743</ele>
        <time>2021-11-09T22:55:17.342Z</time>
      </trkpt>
      <trkpt lat="47.545074" lon="7.936484">
        <ele>300.365204</ele>
        <time>2021-11-09T22:55:21.173Z</time>
      </trkpt>
      <trkpt lat="47.545457" lon="7.935110">
        <ele>298.858287</ele>
        <time>2021-11-09T22:55:32.542Z</time>
      </trkpt>
      <trkpt lat="47.545674" lon="7.933625">
        <ele>298.629745</ele>
        <time>2021-11-09T22:55:45.622Z</time>
      </trkpt>
      <trkpt lat="47.545702" lon="7.933290">
        <ele>298.650875</ele>
        <time>2021-11-09T22:55:49.202Z</time>
      </trkpt>
      <trkpt lat="47.545724" lon="7.932758">
        <ele>298.684240</ele>
        <time>2021-11-09T22:55:55.468Z</time>
      </trkpt>
      <trkpt lat="47.545721" lon="7.931992">
        <ele>298.970496</ele>
        <time>2021-11-09T22:56:05.508Z</time>
      </trkpt>
      <trkpt lat="47.545696" lon="7.931497">
        <ele>299.622158</ele>
        <time>2021-11-09T22:56:12.713Z</time>
      </trkpt>
      <trkpt lat="47.545661" lon="7.930955">
        <ele>300.336955</ele>
        <time>2021-11-09T22:56:21.408Z</time>
      </trkpt>
      <trkpt lat="47.545563" lon="7.929641">
        <ele>302.072501</ele>
        <time>2021-11-09T22:56:43.748Z</time>
      </trkpt>
      <trkpt lat="47.545475" lon="7.928419">
        <ele>301.943530</ele>
        <time>2021-11-09T22:57:00.051Z</time>
      </trkpt>
      <trkpt lat="47.545421" lon="7.927686">
        <ele>301.762164</ele>
        <time>2021-11-09T22:57:06.154Z</time>
      </trkpt>
      <trkpt lat="47.545406" lon="7.927306">
        <ele>301.668536</ele>
        <time>2021-11-09T22:57:09.058Z</time>
      </trkpt>
      <trkpt lat="47.545407" lon="7.927001">
        <ele>301.593515</ele>
        <time>2021-11-09T22:57:11.345Z</time>
      </trkpt>
      <trkpt lat="47.545409" lon="7.926773">
        <ele>301.307443</ele>
        <time>2021-11-09T22:57:12.974Z</time>
      </trkpt>
      <trkpt lat="47.545417" lon="7.925848">
        <ele>299.036951</ele>
        <time>2021-11-09T22:57:19.309Z</time>
      </trkpt>
      <trkpt lat="47.545446" lon="7.925350">
        <ele>297.810129</ele>
        <time>2021-11-09T22:57:22.601Z</time>
      </trkpt>
      <trkpt lat="47.545466" lon="7.924880">
        <ele>296.654279</ele>
        <time>2021-11-09T22:57:25.654Z</time>
      </trkpt>
      <trkpt lat="47.545481" lon="7.924396">
        <ele>295.465107</ele>
        <time>2021-11-09T22:57:28.738Z</time>
      </trkpt>
      <trkpt lat="47.545521" lon="7.923709">
        <ele>294.193566</ele>
        <time>2021-11-09T22:57:33.263Z</time>
      </trkpt>
      <trkpt lat="47.545536" lon="7.923407">
        <ele>293.700522</ele>
        <time>2021-11-09T22:57:35.411Z</time>
      </trkpt>
      <trkpt lat="47.545553" lon="7.923142">
        <ele>293.267106</ele>
        <time>2021-11-09T22:57:37.242Z</time>
      </trkpt>
      <trkpt lat="47.545587" lon="7.922895">
        <ele>292.856665</ele>
        <time>2021-11-09T22:57:39.176Z</time>
      </trkpt>
      <trkpt lat="47.545641" lon="7.922610">
        <ele>292.374696</ele>
        <time>2021-11-09T22:57:41.321Z</time>
      </trkpt>
      <trkpt lat="47.545690" lon="7.922369">
        <ele>291.964887</ele>
        <time>2021-11-09T22:57:43.328Z</time>
      </trkpt>
      <trkpt lat="47.545699" lon="7.922325">
        <ele>291.890030</ele>
        <time>2021-11-09T22:57:43.622Z</time>
      </trkpt>
      <trkpt lat="47.545714" lon="7.922249">
        <ele>291.761106</ele>
        <time>2021-11-09T22:57:44.212Z</time>
      </trkpt>
      <trkpt lat="47.545778" lon="7.921947">
        <ele>291.245729</ele>
        <time>2021-11-09T22:57:46.914Z</time>
      </trkpt>
      <trkpt lat="47.545810" lon="7.921755">
        <ele>290.923729</ele>
        <time>2021-11-09T22:57:48.395Z</time>
      </trkpt>
      <trkpt lat="47.545881" lon="7.921096">
        <ele>290.533577</ele>
        <time>2021-11-09T22:57:53.857Z</time>
      </trkpt>
      <trkpt lat="47.545913" lon="7.920765">
        <ele>290.436629</ele>
        <time>2021-11-09T22:57:56.750Z</time>
      </trkpt>
      <trkpt lat="47.545973" lon="7.920313">
        <ele>290.303068</ele>
        <time>2021-11-09T22:58:01.220Z</time>
      </trkpt>
      <trkpt lat="47.546128" lon="7.919617">
        <ele>290.090573</ele>
        <time>2021-11-09T22:58:08.461Z</time>
      </trkpt>
      <trkpt lat="47.546262" lon="7.919081">
        <ele>289.924851</ele>
        <time>2021-11-09T22:58:14.509Z</time>
      </trkpt>
      <trkpt lat="47.546821" lon="7.916867">
        <ele>289.069275</ele>
        <time>2021-11-09T22:58:35.177Z</time>
      </trkpt>
      <trkpt lat="47.547032" lon="7.916218">
        <ele>288.901556</ele>
        <time>2021-11-09T22:58:41.484Z</time>
      </trkpt>
      <trkpt lat="47.547091" lon="7.916039">
        <ele>288.879156</ele>
        <time>2021-11-09T22:58:43.258Z</time>
      </trkpt>
      <trkpt lat="47.547113" lon="7.915971">
        <ele>288.870676</ele>
        <time>2021-11-09T22:58:43.849Z</time>
      </trkpt>
      <trkpt lat="47.547423" lon="7.915080">
        <ele>288.757956</ele>
        <time>2021-11-09T22:58:53.336Z</time>
      </trkpt>
      <trkpt lat="47.547994" lon="7.913433">
        <ele>289.084453</ele>
        <time>2021-11-09T22:59:13.040Z</time>
      </trkpt>
      <trkpt lat="47.548027" lon="7.913334">
        <ele>289.142442</ele>
        <time>2021-11-09T22:59:14.399Z</time>
      </trkpt>
      <trkpt lat="47.548412" lon="7.912168">
        <ele>289.824161</ele>
        <time>2021-11-09T22:59:30.802Z</time>
      </trkpt>
      <trkpt lat="47.549012" lon="7.910340">
        <ele>291.309524</ele>
        <time>2021-11-09T22:59:57.717Z</time>
      </trkpt>
      <trkpt lat="47.549102" lon="7.910058">
        <ele>291.554053</ele>
        <time>2021-11-09T23:00:01.835Z</time>
      </trkpt>
      <trkpt lat="47.549195" lon="7.909756">
        <ele>291.814270</ele>
        <time>2021-11-09T23:00:06.157Z</time>
      </trkpt>
      <trkpt lat="47.549355" lon="7.909223">
        <ele>292.361304</ele>
        <time>2021-11-09T23:00:13.721Z</time>
      </trkpt>
      <trkpt lat="47.549520" lon="7.908678">
        <ele>293.131859</ele>
        <time>2021-11-09T23:00:21.438Z</time>
      </trkpt>
      <trkpt lat="47.549539" lon="7.908625">
        <ele>293.209276</ele>
        <time>2021-11-09T23:00:22.171Z</time>
      </trkpt>
      <trkpt lat="47.550497" lon="7.905558">
        <ele>298.674377</ele>
        <time>2021-11-09T23:01:17.100Z</time>
      </trkpt>
      <trkpt lat="47.550283" lon="7.905413">
        <ele>299.372902</ele>
        <time>2021-11-09T23:01:25.266Z</time>
      </trkpt>
      <trkpt lat="47.550067" lon="7.905245">
        <ele>300.097066</ele>
        <time>2021-11-09T23:01:33.952Z</time>
      </trkpt>
      <trkpt lat="47.549867" lon="7.905155">
        <ele>300.717536</ele>
        <time>2021-11-09T23:01:41.581Z</time>
      </trkpt>
      <trkpt lat="47.549868" lon="7.905010">
        <ele>301.036420</ele>
        <time>2021-11-09T23:01:44.986Z</time>
      </trkpt>
      <trkpt lat="47.550025" lon="7.904774">
        <ele>301.891202</ele>
        <time>2021-11-09T23:01:53.137Z</time>
      </trkpt>
      <trkpt lat="47.550302" lon="7.904164">
        <ele>303.787715</ele>
        <time>2021-11-09T23:02:11.436Z</time>
      </trkpt>
      <trkpt lat="47.550498" lon="7.903445">
        <ele>305.787969</ele>
        <time>2021-11-09T23:02:31.008Z</time>
      </trkpt>
      <trkpt lat="47.550688" lon="7.902451">
        <ele>308.474839</ele>
        <time>2021-11-09T23:02:53.556Z</time>
      </trkpt>
      <trkpt lat="47.550757" lon="7.901591">
        <ele>310.782187</ele>
        <time>2021-11-09T23:03:13.352Z</time>
      </trkpt>
      <trkpt lat="47.550769" lon="7.901362">
        <ele>311.394126</ele>
        <time>2021-11-09T23:03:19.260Z</time>
      </trkpt>
      <trkpt lat="47.550801" lon="7.900244">
        <ele>314.375380</ele>
        <time>2021-11-09T23:03:43.658Z</time>
      </trkpt>
      <trkpt lat="47.550819" lon="7.898109">
        <ele>319.937158</ele>
        <time>2021-11-09T23:04:30.698Z</time>
      </trkpt>
      <trkpt lat="47.550648" lon="7.896481">
        <ele>322.789480</ele>
        <time>2021-11-09T23:04:58.353Z</time>
      </trkpt>
      <trkpt lat="47.550639" lon="7.896345">
        <ele>322.933898</ele>
        <time>2021-11-09T23:05:00.728Z</time>
      </trkpt>
      <trkpt lat="47.550660" lon="7.896255">
        <ele>323.034537</ele>
        <time>2021-11-09T23:05:01.529Z</time>
      </trkpt>
      <trkpt lat="47.550838" lon="7.895509">
        <ele>323.870750</ele>
        <time>2021-11-09T23:05:11.697Z</time>
      </trkpt>
      <trkpt lat="47.550878" lon="7.895158">
        <ele>324.246948</ele>
        <time>2021-11-09T23:05:15.759Z</time>
      </trkpt>
      <trkpt lat="47.550908" lon="7.894308">
        <ele>325.371580</ele>
        <time>2021-11-09T23:05:26.231Z</time>
      </trkpt>
      <trkpt lat="47.550892" lon="7.893176">
        <ele>327.085692</ele>
        <time>2021-11-09T23:05:40.949Z</time>
      </trkpt>
      <trkpt lat="47.550904" lon="7.891725">
        <ele>330.235953</ele>
        <time>2021-11-09T23:06:10.711Z</time>
      </trkpt>
      <trkpt lat="47.550915" lon="7.890600">
        <ele>334.549751</ele>
        <time>2021-11-09T23:06:39.551Z</time>
      </trkpt>
      <trkpt lat="47.550833" lon="7.889069">
        <ele>340.553585</ele>
        <time>2021-11-09T23:07:22.185Z</time>
      </trkpt>
      <trkpt lat="47.550831" lon="7.888611">
        <ele>342.439507</ele>
        <time>2021-11-09T23:07:34.755Z</time>
      </trkpt>
      <trkpt lat="47.550789" lon="7.887816">
        <ele>345.723052</ele>
        <time>2021-11-09T23:07:55.367Z</time>
      </trkpt>
      <trkpt lat="47.550758" lon="7.887295">
        <ele>347.876670</ele>
        <time>2021-11-09T23:08:09.188Z</time>
      </trkpt>
      <trkpt lat="47.550677" lon="7.886476">
        <ele>351.049600</ele>
        <time>2021-11-09T23:08:30.677Z</time>
      </trkpt>
      <trkpt lat="47.550548" lon="7.885799">
        <ele>353.470617</ele>
        <time>2021-11-09T23:08:47.880Z</time>
      </trkpt>
      <trkpt lat="47.550391" lon="7.885109">
        <ele>355.976621</ele>
        <time>2021-11-09T23:09:05.517Z</time>
      </trkpt>
      <trkpt lat="47.550332" lon="7.884727">
        <ele>357.325292</ele>
        <time>2021-11-09T23:09:14.208Z</time>
      </trkpt>
      <trkpt lat="47.550234" lon="7.883221">
        <ele>361.513709</ele>
        <time>2021-11-09T23:09:47.039Z</time>
      </trkpt>
      <trkpt lat="47.549927" lon="7.881490">
        <ele>365.951507</ele>
        <time>2021-11-09T23:10:19.303Z</time>
      </trkpt>
      <trkpt lat="47.549726" lon="7.880786">
        <ele>368.166609</ele>
        <time>2021-11-09T23:10:35.280Z</time>
      </trkpt>
      <trkpt lat="47.549327" lon="7.879547">
        <ele>372.144798</ele>
        <time>2021-11-09T23:11:05.064Z</time>
      </trkpt>
      <trkpt lat="47.549318" lon="7.879398">
        <ele>372.578307</ele>
        <time>2021-11-09T23:11:08.252Z</time>
      </trkpt>
      <trkpt lat="47.549140" lon="7.879391">
        <ele>373.401352</ele>
        <time>2021-11-09T23:11:15.122Z</time>
      </trkpt>
      <trkpt lat="47.548718" lon="7.879258">
        <ele>376.481826</ele>
        <time>2021-11-09T23:11:30.511Z</time>
      </trkpt>
      <trkpt lat="47.548422" lon="7.878959">
        <ele>379.039731</ele>
        <time>2021-11-09T23:11:45.271Z</time>
      </trkpt>
      <trkpt lat="47.548234" lon="7.878638">
        <ele>381.087882</ele>
        <time>2021-11-09T23:11:58.981Z</time>
      </trkpt>
      <trkpt lat="47.547992" lon="7.877974">
        <ele>384.724559</ele>
        <time>2021-11-09T23:12:21.261Z</time>
      </trkpt>
      <trkpt lat="47.547900" lon="7.878058">
        <ele>385.496156</ele>
        <time>2021-11-09T23:12:26.743Z</time>
      </trkpt>
      <trkpt lat="47.547680" lon="7.878061">
        <ele>387.669325</ele>
        <time>2021-11-09T23:12:34.832Z</time>
      </trkpt>
      <trkpt lat="47.547482" lon="7.877961">
        <ele>390.090076</ele>
        <time>2021-11-09T23:12:47.848Z</time>
      </trkpt>
      <trkpt lat="47.547171" lon="7.877756">
        <ele>394.029137</ele>
        <time>2021-11-09T23:13:12.175Z</time>
      </trkpt>
      <trkpt lat="47.546473" lon="7.877317">
        <ele>402.804177</ele>
        <time>2021-11-09T23:14:05.335Z</time>
      </trkpt>
      <trkpt lat="47.546289" lon="7.877305">
        <ele>404.935504</ele>
        <time>2021-11-09T23:14:13.524Z</time>
      </trkpt>
      <trkpt lat="47.546237" lon="7.877331">
        <ele>405.570599</ele>
        <time>2021-11-09T23:14:19.429Z</time>
      </trkpt>
      <trkpt lat="47.546237" lon="7.877331">
        <ele>405.570599</ele>
        <time>2021-11-09T23:14:19.580Z</time>
      </trkpt>
      <trkpt lat="47.546187" lon="7.877404">
        <ele>406.382956</ele>
        <time>2021-11-09T23:14:23.186Z</time>
      </trkpt>
      <trkpt lat="47.546139" lon="7.877495">
        <ele>407.056449</ele>
        <time>2021-11-09T23:14:26.120Z</time>
      </trkpt>
      <trkpt lat="47.546009" lon="7.877701">
        <ele>407.913807</ele>
        <time>2021-11-09T23:14:35.656Z</time>
      </trkpt>
      <trkpt lat="47.545917" lon="7.877738">
        <ele>408.343174</ele>
        <time>2021-11-09T23:14:42.392Z</time>
      </trkpt>
      <trkpt lat="47.545676" lon="7.877750">
        <ele>409.429255</ele>
        <time>2021-11-09T23:14:49.454Z</time>
      </trkpt>
      <trkpt lat="47.545631" lon="7.877715">
        <ele>409.658170</ele>
        <time>2021-11-09T23:14:54.889Z</time>
      </trkpt>
      <trkpt lat="47.545631" lon="7.877715">
        <ele>409.658170</ele>
        <time>2021-11-09T23:14:54.914Z</time>
      </trkpt>
      <trkpt lat="47.545281" lon="7.876743">
        <ele>413.007456</ele>
        <time>2021-11-09T23:15:21.793Z</time>
      </trkpt>
      <trkpt lat="47.545014" lon="7.876180">
        <ele>415.011890</ele>
        <time>2021-11-09T23:15:27.429Z</time>
      </trkpt>
      <trkpt lat="47.544667" lon="7.875566">
        <ele>415.011890</ele>
        <time>2021-11-09T23:15:32.308Z</time>
      </trkpt>
      <trkpt lat="47.544459" lon="7.875225">
        <ele>415.011890</ele>
        <time>2021-11-09T23:15:35.045Z</time>
      </trkpt>
      <trkpt lat="47.544232" lon="7.874871">
        <ele>415.011890</ele>
        <time>2021-11-09T23:15:37.977Z</time>
      </trkpt>
      <trkpt lat="47.544070" lon="7.874957">
        <ele>415.011890</ele>
        <time>2021-11-09T23:15:40.169Z</time>
      </trkpt>
      <trkpt lat="47.543630" lon="7.874569">
        <ele>415.011890</ele>
        <time>2021-11-09T23:15:46.964Z</time>
      </trkpt>
      <trkpt lat="47.543314" lon="7.874528">
        <ele>415.011890</ele>
        <time>2021-11-09T23:15:51.220Z</time>
      </trkpt>
    </trkseg>
  </trk>
</gpx>